<?xml version="1.0" encoding="UTF-8" standalone="no" ?>
<gpx xmlns="http://www.topografix.com/GPX/1/1" xmlns:xsi="http://www.w3.org/2001/XMLSchema-instance" xsi:schemaLocation="http://www.topografix.com/GPX/1/1 http://www.topografix.com/GPX/1/1/gpx.xsd" version="1.1" creator="VisuGPX - https://www.visugpx.com">
  <metadata>
    <name>VTT La vallée du Goyen circuit n°8</name>
    <desc><![CDATA[Circuit officiel "la vallée du Goyen" n°8]]></desc>
  </metadata>
  <trk>
    <name><![CDATA[VTT8baseouestcornouaille2021osm]]></name>
    <extensions>
      <line xmlns="http://www.topografix.com/GPX/gpx_style/0/2">
        <width>4</width>
      </line>
    </extensions>
    <trkseg>
      <trkpt lat="48.0348" lon="-4.43615">
        <ele>45.9</ele>
        <time>2022-04-06T13:25:42.793Z</time>
      </trkpt>
      <trkpt lat="48.03482" lon="-4.43603">
        <ele>46</ele>
        <time>2022-04-06T13:25:43.673Z</time>
      </trkpt>
      <trkpt lat="48.03482" lon="-4.43603">
        <ele>46</ele>
        <time>2022-04-06T13:25:43.693Z</time>
      </trkpt>
      <trkpt lat="48.03477" lon="-4.43602">
        <ele>46.3</ele>
        <time>2022-04-06T13:25:44.171Z</time>
      </trkpt>
      <trkpt lat="48.03453" lon="-4.43598">
        <ele>48.1</ele>
        <time>2022-04-06T13:25:46.916Z</time>
      </trkpt>
      <trkpt lat="48.03443" lon="-4.43595">
        <ele>48.8</ele>
        <time>2022-04-06T13:25:48.029Z</time>
      </trkpt>
      <trkpt lat="48.03442" lon="-4.43596">
        <ele>48.9</ele>
        <time>2022-04-06T13:25:48.109Z</time>
      </trkpt>
      <trkpt lat="48.03425" lon="-4.43592">
        <ele>50.2</ele>
        <time>2022-04-06T13:25:50.064Z</time>
      </trkpt>
      <trkpt lat="48.03414" lon="-4.4359">
        <ele>51</ele>
        <time>2022-04-06T13:25:51.324Z</time>
      </trkpt>
      <trkpt lat="48.03383" lon="-4.43585">
        <ele>53</ele>
        <time>2022-04-06T13:25:54.831Z</time>
      </trkpt>
      <trkpt lat="48.03368" lon="-4.43583">
        <ele>53.9</ele>
        <time>2022-04-06T13:25:56.504Z</time>
      </trkpt>
      <trkpt lat="48.03359" lon="-4.43582">
        <ele>54.4</ele>
        <time>2022-04-06T13:25:57.507Z</time>
      </trkpt>
      <trkpt lat="48.03355" lon="-4.43582">
        <ele>54.7</ele>
        <time>2022-04-06T13:25:57.936Z</time>
      </trkpt>
      <trkpt lat="48.03348" lon="-4.43583">
        <ele>55.1</ele>
        <time>2022-04-06T13:25:58.667Z</time>
      </trkpt>
      <trkpt lat="48.03313" lon="-4.43585">
        <ele>57.2</ele>
        <time>2022-04-06T13:26:02.581Z</time>
      </trkpt>
      <trkpt lat="48.03286" lon="-4.43587">
        <ele>58.8</ele>
        <time>2022-04-06T13:26:05.633Z</time>
      </trkpt>
      <trkpt lat="48.03278" lon="-4.43587">
        <ele>59.3</ele>
        <time>2022-04-06T13:26:06.542Z</time>
      </trkpt>
      <trkpt lat="48.03269" lon="-4.43585">
        <ele>59.8</ele>
        <time>2022-04-06T13:26:07.548Z</time>
      </trkpt>
      <trkpt lat="48.03248" lon="-4.43581">
        <ele>61.1</ele>
        <time>2022-04-06T13:26:09.911Z</time>
      </trkpt>
      <trkpt lat="48.03224" lon="-4.43577">
        <ele>61.9</ele>
        <time>2022-04-06T13:26:12.598Z</time>
      </trkpt>
      <trkpt lat="48.03211" lon="-4.43576">
        <ele>62.2</ele>
        <time>2022-04-06T13:26:14.034Z</time>
      </trkpt>
      <trkpt lat="48.032" lon="-4.43575">
        <ele>62.6</ele>
        <time>2022-04-06T13:26:15.228Z</time>
      </trkpt>
      <trkpt lat="48.03184" lon="-4.43577">
        <ele>63.1</ele>
        <time>2022-04-06T13:26:17.045Z</time>
      </trkpt>
      <trkpt lat="48.03138" lon="-4.43586">
        <ele>64.3</ele>
        <time>2022-04-06T13:26:22.149Z</time>
      </trkpt>
      <trkpt lat="48.03127" lon="-4.43587">
        <ele>64.4</ele>
        <time>2022-04-06T13:26:23.344Z</time>
      </trkpt>
      <trkpt lat="48.03117" lon="-4.43588">
        <ele>64.5</ele>
        <time>2022-04-06T13:26:24.489Z</time>
      </trkpt>
      <trkpt lat="48.03103" lon="-4.43589">
        <ele>64.6</ele>
        <time>2022-04-06T13:26:26.018Z</time>
      </trkpt>
      <trkpt lat="48.03091" lon="-4.43589">
        <ele>64.8</ele>
        <time>2022-04-06T13:26:27.448Z</time>
      </trkpt>
      <trkpt lat="48.03069" lon="-4.43589">
        <ele>64.9</ele>
        <time>2022-04-06T13:26:29.832Z</time>
      </trkpt>
      <trkpt lat="48.03039" lon="-4.43588">
        <ele>64.9</ele>
        <time>2022-04-06T13:26:33.160Z</time>
      </trkpt>
      <trkpt lat="48.02997" lon="-4.43584">
        <ele>65.1</ele>
        <time>2022-04-06T13:26:37.853Z</time>
      </trkpt>
      <trkpt lat="48.02981" lon="-4.43584">
        <ele>65.9</ele>
        <time>2022-04-06T13:26:39.620Z</time>
      </trkpt>
      <trkpt lat="48.02945" lon="-4.4358">
        <ele>67.6</ele>
        <time>2022-04-06T13:26:43.685Z</time>
      </trkpt>
      <trkpt lat="48.02935" lon="-4.4358">
        <ele>68</ele>
        <time>2022-04-06T13:26:44.785Z</time>
      </trkpt>
      <trkpt lat="48.02929" lon="-4.43578">
        <ele>68.3</ele>
        <time>2022-04-06T13:26:45.465Z</time>
      </trkpt>
      <trkpt lat="48.02925" lon="-4.43577">
        <ele>68.4</ele>
        <time>2022-04-06T13:26:45.890Z</time>
      </trkpt>
      <trkpt lat="48.02924" lon="-4.43582">
        <ele>68.6</ele>
        <time>2022-04-06T13:26:46.307Z</time>
      </trkpt>
      <trkpt lat="48.02923" lon="-4.43589">
        <ele>68.8</ele>
        <time>2022-04-06T13:26:46.833Z</time>
      </trkpt>
      <trkpt lat="48.02922" lon="-4.436">
        <ele>69.1</ele>
        <time>2022-04-06T13:26:47.673Z</time>
      </trkpt>
      <trkpt lat="48.02924" lon="-4.43609">
        <ele>69.2</ele>
        <time>2022-04-06T13:26:48.331Z</time>
      </trkpt>
      <trkpt lat="48.02925" lon="-4.43618">
        <ele>69.3</ele>
        <time>2022-04-06T13:26:49.008Z</time>
      </trkpt>
      <trkpt lat="48.02934" lon="-4.43653">
        <ele>69.5</ele>
        <time>2022-04-06T13:26:51.804Z</time>
      </trkpt>
      <trkpt lat="48.02943" lon="-4.43684">
        <ele>68.9</ele>
        <time>2022-04-06T13:26:54.296Z</time>
      </trkpt>
      <trkpt lat="48.02953" lon="-4.43725">
        <ele>67.5</ele>
        <time>2022-04-06T13:26:57.573Z</time>
      </trkpt>
      <trkpt lat="48.02963" lon="-4.43765">
        <ele>66</ele>
        <time>2022-04-06T13:27:00.768Z</time>
      </trkpt>
      <trkpt lat="48.02973" lon="-4.43802">
        <ele>64.5</ele>
        <time>2022-04-06T13:27:03.721Z</time>
      </trkpt>
      <trkpt lat="48.0298" lon="-4.43833">
        <ele>63</ele>
        <time>2022-04-06T13:27:06.183Z</time>
      </trkpt>
      <trkpt lat="48.02983" lon="-4.43843">
        <ele>62.7</ele>
        <time>2022-04-06T13:27:06.936Z</time>
      </trkpt>
      <trkpt lat="48.02984" lon="-4.43852">
        <ele>62.5</ele>
        <time>2022-04-06T13:27:07.646Z</time>
      </trkpt>
      <trkpt lat="48.02986" lon="-4.43865">
        <ele>62.3</ele>
        <time>2022-04-06T13:27:08.663Z</time>
      </trkpt>
      <trkpt lat="48.02986" lon="-4.43886">
        <ele>62.3</ele>
        <time>2022-04-06T13:27:10.168Z</time>
      </trkpt>
      <trkpt lat="48.0299" lon="-4.43887">
        <ele>61.7</ele>
        <time>2022-04-06T13:27:10.633Z</time>
      </trkpt>
      <trkpt lat="48.02992" lon="-4.43891">
        <ele>61.4</ele>
        <time>2022-04-06T13:27:10.993Z</time>
      </trkpt>
      <trkpt lat="48.02993" lon="-4.43895">
        <ele>61.2</ele>
        <time>2022-04-06T13:27:11.313Z</time>
      </trkpt>
      <trkpt lat="48.02995" lon="-4.43905">
        <ele>61</ele>
        <time>2022-04-06T13:27:12.075Z</time>
      </trkpt>
      <trkpt lat="48.03" lon="-4.4393">
        <ele>60.2</ele>
        <time>2022-04-06T13:27:14.046Z</time>
      </trkpt>
      <trkpt lat="48.0301" lon="-4.4396">
        <ele>60.1</ele>
        <time>2022-04-06T13:27:16.518Z</time>
      </trkpt>
      <trkpt lat="48.0302" lon="-4.43987">
        <ele>60.1</ele>
        <time>2022-04-06T13:27:18.798Z</time>
      </trkpt>
      <trkpt lat="48.03034" lon="-4.44016">
        <ele>60.4</ele>
        <time>2022-04-06T13:27:21.492Z</time>
      </trkpt>
      <trkpt lat="48.03051" lon="-4.44043">
        <ele>60.7</ele>
        <time>2022-04-06T13:27:24.240Z</time>
      </trkpt>
      <trkpt lat="48.03066" lon="-4.44072">
        <ele>61.3</ele>
        <time>2022-04-06T13:27:26.925Z</time>
      </trkpt>
      <trkpt lat="48.03067" lon="-4.44076">
        <ele>61.3</ele>
        <time>2022-04-06T13:27:27.274Z</time>
      </trkpt>
      <trkpt lat="48.0308" lon="-4.44095">
        <ele>61.1</ele>
        <time>2022-04-06T13:27:29.300Z</time>
      </trkpt>
      <trkpt lat="48.03089" lon="-4.44102">
        <ele>60.7</ele>
        <time>2022-04-06T13:27:30.429Z</time>
      </trkpt>
      <trkpt lat="48.031" lon="-4.44109">
        <ele>60.2</ele>
        <time>2022-04-06T13:27:31.775Z</time>
      </trkpt>
      <trkpt lat="48.03114" lon="-4.44117">
        <ele>59.6</ele>
        <time>2022-04-06T13:27:33.404Z</time>
      </trkpt>
      <trkpt lat="48.03134" lon="-4.4412">
        <ele>58.8</ele>
        <time>2022-04-06T13:27:35.612Z</time>
      </trkpt>
      <trkpt lat="48.03152" lon="-4.44127">
        <ele>58.1</ele>
        <time>2022-04-06T13:27:37.719Z</time>
      </trkpt>
      <trkpt lat="48.03176" lon="-4.44135">
        <ele>57.7</ele>
        <time>2022-04-06T13:27:40.469Z</time>
      </trkpt>
      <trkpt lat="48.03199" lon="-4.44149">
        <ele>57.8</ele>
        <time>2022-04-06T13:27:43.187Z</time>
      </trkpt>
      <trkpt lat="48.03246" lon="-4.44183">
        <ele>58.6</ele>
        <time>2022-04-06T13:27:49.007Z</time>
      </trkpt>
      <trkpt lat="48.0328" lon="-4.44212">
        <ele>57.2</ele>
        <time>2022-04-06T13:27:53.316Z</time>
      </trkpt>
      <trkpt lat="48.03317" lon="-4.44249">
        <ele>56.1</ele>
        <time>2022-04-06T13:27:58.327Z</time>
      </trkpt>
      <trkpt lat="48.03331" lon="-4.44265">
        <ele>55.6</ele>
        <time>2022-04-06T13:28:00.235Z</time>
      </trkpt>
      <trkpt lat="48.03319" lon="-4.44297">
        <ele>57</ele>
        <time>2022-04-06T13:28:02.973Z</time>
      </trkpt>
      <trkpt lat="48.03304" lon="-4.44337">
        <ele>58.3</ele>
        <time>2022-04-06T13:28:06.407Z</time>
      </trkpt>
      <trkpt lat="48.03302" lon="-4.44351">
        <ele>57.8</ele>
        <time>2022-04-06T13:28:07.426Z</time>
      </trkpt>
      <trkpt lat="48.0331" lon="-4.44423">
        <ele>54.4</ele>
        <time>2022-04-06T13:28:12.855Z</time>
      </trkpt>
      <trkpt lat="48.03314" lon="-4.44454">
        <ele>52.4</ele>
        <time>2022-04-06T13:28:15.216Z</time>
      </trkpt>
      <trkpt lat="48.03312" lon="-4.44471">
        <ele>51.5</ele>
        <time>2022-04-06T13:28:16.554Z</time>
      </trkpt>
      <trkpt lat="48.03308" lon="-4.44492">
        <ele>50.4</ele>
        <time>2022-04-06T13:28:18.138Z</time>
      </trkpt>
      <trkpt lat="48.03305" lon="-4.44512">
        <ele>49.3</ele>
        <time>2022-04-06T13:28:19.689Z</time>
      </trkpt>
      <trkpt lat="48.03322" lon="-4.44544">
        <ele>46.9</ele>
        <time>2022-04-06T13:28:22.727Z</time>
      </trkpt>
      <trkpt lat="48.0332" lon="-4.44551">
        <ele>46.6</ele>
        <time>2022-04-06T13:28:23.301Z</time>
      </trkpt>
      <trkpt lat="48.03311" lon="-4.44571">
        <ele>46</ele>
        <time>2022-04-06T13:28:25.114Z</time>
      </trkpt>
      <trkpt lat="48.03305" lon="-4.44591">
        <ele>45.7</ele>
        <time>2022-04-06T13:28:26.735Z</time>
      </trkpt>
      <trkpt lat="48.033" lon="-4.44589">
        <ele>45.9</ele>
        <time>2022-04-06T13:28:27.231Z</time>
      </trkpt>
      <trkpt lat="48.03291" lon="-4.44582">
        <ele>46.6</ele>
        <time>2022-04-06T13:28:28.361Z</time>
      </trkpt>
      <trkpt lat="48.03284" lon="-4.44575">
        <ele>47.3</ele>
        <time>2022-04-06T13:28:29.392Z</time>
      </trkpt>
      <trkpt lat="48.03274" lon="-4.44576">
        <ele>47.8</ele>
        <time>2022-04-06T13:28:30.444Z</time>
      </trkpt>
      <trkpt lat="48.03262" lon="-4.44588">
        <ele>48.4</ele>
        <time>2022-04-06T13:28:32.102Z</time>
      </trkpt>
      <trkpt lat="48.0325" lon="-4.44588">
        <ele>49.1</ele>
        <time>2022-04-06T13:28:33.441Z</time>
      </trkpt>
      <trkpt lat="48.03232" lon="-4.44589">
        <ele>49.5</ele>
        <time>2022-04-06T13:28:35.444Z</time>
      </trkpt>
      <trkpt lat="48.0322" lon="-4.44593">
        <ele>49.9</ele>
        <time>2022-04-06T13:28:36.823Z</time>
      </trkpt>
      <trkpt lat="48.03179" lon="-4.44602">
        <ele>51</ele>
        <time>2022-04-06T13:28:41.395Z</time>
      </trkpt>
      <trkpt lat="48.03172" lon="-4.44609">
        <ele>51.2</ele>
        <time>2022-04-06T13:28:42.321Z</time>
      </trkpt>
      <trkpt lat="48.03165" lon="-4.44637">
        <ele>51.7</ele>
        <time>2022-04-06T13:28:44.542Z</time>
      </trkpt>
      <trkpt lat="48.03164" lon="-4.44645">
        <ele>51.9</ele>
        <time>2022-04-06T13:28:45.174Z</time>
      </trkpt>
      <trkpt lat="48.03162" lon="-4.44662">
        <ele>52.2</ele>
        <time>2022-04-06T13:28:46.481Z</time>
      </trkpt>
      <trkpt lat="48.03162" lon="-4.44699">
        <ele>52.3</ele>
        <time>2022-04-06T13:28:49.175Z</time>
      </trkpt>
      <trkpt lat="48.03161" lon="-4.44724">
        <ele>52.4</ele>
        <time>2022-04-06T13:28:51.091Z</time>
      </trkpt>
      <trkpt lat="48.03163" lon="-4.44763">
        <ele>52.1</ele>
        <time>2022-04-06T13:28:54.005Z</time>
      </trkpt>
      <trkpt lat="48.03159" lon="-4.44794">
        <ele>52.1</ele>
        <time>2022-04-06T13:28:56.294Z</time>
      </trkpt>
      <trkpt lat="48.03158" lon="-4.44817">
        <ele>51.9</ele>
        <time>2022-04-06T13:28:58.035Z</time>
      </trkpt>
      <trkpt lat="48.03158" lon="-4.44863">
        <ele>51.4</ele>
        <time>2022-04-06T13:29:01.425Z</time>
      </trkpt>
      <trkpt lat="48.03158" lon="-4.44912">
        <ele>50.9</ele>
        <time>2022-04-06T13:29:05.076Z</time>
      </trkpt>
      <trkpt lat="48.03158" lon="-4.4498">
        <ele>51.5</ele>
        <time>2022-04-06T13:29:10.160Z</time>
      </trkpt>
      <trkpt lat="48.03159" lon="-4.45008">
        <ele>51.7</ele>
        <time>2022-04-06T13:29:12.204Z</time>
      </trkpt>
      <trkpt lat="48.0316" lon="-4.45096">
        <ele>51.8</ele>
        <time>2022-04-06T13:29:18.808Z</time>
      </trkpt>
      <trkpt lat="48.03152" lon="-4.45127">
        <ele>52.6</ele>
        <time>2022-04-06T13:29:21.226Z</time>
      </trkpt>
      <trkpt lat="48.03142" lon="-4.45135">
        <ele>53.6</ele>
        <time>2022-04-06T13:29:22.460Z</time>
      </trkpt>
      <trkpt lat="48.0311" lon="-4.4515">
        <ele>57.1</ele>
        <time>2022-04-06T13:29:26.227Z</time>
      </trkpt>
      <trkpt lat="48.03094" lon="-4.4516">
        <ele>58.8</ele>
        <time>2022-04-06T13:29:28.147Z</time>
      </trkpt>
      <trkpt lat="48.03057" lon="-4.45177">
        <ele>64</ele>
        <time>2022-04-06T13:29:32.501Z</time>
      </trkpt>
      <trkpt lat="48.03007" lon="-4.45195">
        <ele>71.9</ele>
        <time>2022-04-06T13:29:38.306Z</time>
      </trkpt>
      <trkpt lat="48.02994" lon="-4.45198">
        <ele>73.1</ele>
        <time>2022-04-06T13:29:39.751Z</time>
      </trkpt>
      <trkpt lat="48.02974" lon="-4.45193">
        <ele>73.3</ele>
        <time>2022-04-06T13:29:42.060Z</time>
      </trkpt>
      <trkpt lat="48.02959" lon="-4.45195">
        <ele>73.5</ele>
        <time>2022-04-06T13:29:43.687Z</time>
      </trkpt>
      <trkpt lat="48.02952" lon="-4.45195">
        <ele>73.6</ele>
        <time>2022-04-06T13:29:44.449Z</time>
      </trkpt>
      <trkpt lat="48.02948" lon="-4.45195">
        <ele>73.6</ele>
        <time>2022-04-06T13:29:44.941Z</time>
      </trkpt>
      <trkpt lat="48.02948" lon="-4.45216">
        <ele>73.6</ele>
        <time>2022-04-06T13:29:46.536Z</time>
      </trkpt>
      <trkpt lat="48.02947" lon="-4.45241">
        <ele>73.6</ele>
        <time>2022-04-06T13:29:48.389Z</time>
      </trkpt>
      <trkpt lat="48.02932" lon="-4.4524">
        <ele>73.8</ele>
        <time>2022-04-06T13:29:50.058Z</time>
      </trkpt>
      <trkpt lat="48.02922" lon="-4.45243">
        <ele>73.9</ele>
        <time>2022-04-06T13:29:51.130Z</time>
      </trkpt>
      <trkpt lat="48.02919" lon="-4.45265">
        <ele>73.6</ele>
        <time>2022-04-06T13:29:52.782Z</time>
      </trkpt>
      <trkpt lat="48.02918" lon="-4.4528">
        <ele>73.3</ele>
        <time>2022-04-06T13:29:53.922Z</time>
      </trkpt>
      <trkpt lat="48.02915" lon="-4.45283">
        <ele>73.2</ele>
        <time>2022-04-06T13:29:54.280Z</time>
      </trkpt>
      <trkpt lat="48.0291" lon="-4.45283">
        <ele>73.2</ele>
        <time>2022-04-06T13:29:54.908Z</time>
      </trkpt>
      <trkpt lat="48.02895" lon="-4.45285">
        <ele>73.3</ele>
        <time>2022-04-06T13:29:56.535Z</time>
      </trkpt>
      <trkpt lat="48.02883" lon="-4.45286">
        <ele>73.3</ele>
        <time>2022-04-06T13:29:57.918Z</time>
      </trkpt>
      <trkpt lat="48.02857" lon="-4.45288">
        <ele>73.4</ele>
        <time>2022-04-06T13:30:00.783Z</time>
      </trkpt>
      <trkpt lat="48.02829" lon="-4.45291">
        <ele>73.3</ele>
        <time>2022-04-06T13:30:03.846Z</time>
      </trkpt>
      <trkpt lat="48.0282" lon="-4.45293">
        <ele>72.8</ele>
        <time>2022-04-06T13:30:04.904Z</time>
      </trkpt>
      <trkpt lat="48.02817" lon="-4.45291">
        <ele>72.7</ele>
        <time>2022-04-06T13:30:05.308Z</time>
      </trkpt>
      <trkpt lat="48.02815" lon="-4.45286">
        <ele>72.7</ele>
        <time>2022-04-06T13:30:05.743Z</time>
      </trkpt>
      <trkpt lat="48.02815" lon="-4.45269">
        <ele>72.9</ele>
        <time>2022-04-06T13:30:07.004Z</time>
      </trkpt>
      <trkpt lat="48.02815" lon="-4.45258">
        <ele>73</ele>
        <time>2022-04-06T13:30:07.829Z</time>
      </trkpt>
      <trkpt lat="48.02812" lon="-4.45251">
        <ele>73</ele>
        <time>2022-04-06T13:30:08.423Z</time>
      </trkpt>
      <trkpt lat="48.02809" lon="-4.45249">
        <ele>72.8</ele>
        <time>2022-04-06T13:30:08.783Z</time>
      </trkpt>
      <trkpt lat="48.02805" lon="-4.45248">
        <ele>72.6</ele>
        <time>2022-04-06T13:30:09.309Z</time>
      </trkpt>
      <trkpt lat="48.02796" lon="-4.4525">
        <ele>72.2</ele>
        <time>2022-04-06T13:30:10.272Z</time>
      </trkpt>
      <trkpt lat="48.02784" lon="-4.45254">
        <ele>71.6</ele>
        <time>2022-04-06T13:30:11.682Z</time>
      </trkpt>
      <trkpt lat="48.02778" lon="-4.45255">
        <ele>71.3</ele>
        <time>2022-04-06T13:30:12.314Z</time>
      </trkpt>
      <trkpt lat="48.02774" lon="-4.45257">
        <ele>71.1</ele>
        <time>2022-04-06T13:30:12.800Z</time>
      </trkpt>
      <trkpt lat="48.02772" lon="-4.45255">
        <ele>71</ele>
        <time>2022-04-06T13:30:13.055Z</time>
      </trkpt>
      <trkpt lat="48.02771" lon="-4.45252">
        <ele>71</ele>
        <time>2022-04-06T13:30:13.333Z</time>
      </trkpt>
      <trkpt lat="48.02772" lon="-4.45247">
        <ele>71</ele>
        <time>2022-04-06T13:30:13.728Z</time>
      </trkpt>
      <trkpt lat="48.0279" lon="-4.45219">
        <ele>71.7</ele>
        <time>2022-04-06T13:30:16.563Z</time>
      </trkpt>
      <trkpt lat="48.02829" lon="-4.45136">
        <ele>73.4</ele>
        <time>2022-04-06T13:30:24.162Z</time>
      </trkpt>
      <trkpt lat="48.02824" lon="-4.45099">
        <ele>72.7</ele>
        <time>2022-04-06T13:30:27.013Z</time>
      </trkpt>
      <trkpt lat="48.02816" lon="-4.45075">
        <ele>72.1</ele>
        <time>2022-04-06T13:30:29.002Z</time>
      </trkpt>
      <trkpt lat="48.02774" lon="-4.45081">
        <ele>70.2</ele>
        <time>2022-04-06T13:30:33.699Z</time>
      </trkpt>
      <trkpt lat="48.02769" lon="-4.45053">
        <ele>70.1</ele>
        <time>2022-04-06T13:30:35.874Z</time>
      </trkpt>
      <trkpt lat="48.0276" lon="-4.4503">
        <ele>69.9</ele>
        <time>2022-04-06T13:30:37.879Z</time>
      </trkpt>
      <trkpt lat="48.02738" lon="-4.44998">
        <ele>69.9</ele>
        <time>2022-04-06T13:30:41.222Z</time>
      </trkpt>
      <trkpt lat="48.02717" lon="-4.44976">
        <ele>69.9</ele>
        <time>2022-04-06T13:30:44.138Z</time>
      </trkpt>
      <trkpt lat="48.02691" lon="-4.44949">
        <ele>70.6</ele>
        <time>2022-04-06T13:30:47.629Z</time>
      </trkpt>
      <trkpt lat="48.02664" lon="-4.44918">
        <ele>71.9</ele>
        <time>2022-04-06T13:30:51.379Z</time>
      </trkpt>
      <trkpt lat="48.02621" lon="-4.44876">
        <ele>72.9</ele>
        <time>2022-04-06T13:30:57.082Z</time>
      </trkpt>
      <trkpt lat="48.02594" lon="-4.44878">
        <ele>72.1</ele>
        <time>2022-04-06T13:31:00.091Z</time>
      </trkpt>
      <trkpt lat="48.02583" lon="-4.44864">
        <ele>72.5</ele>
        <time>2022-04-06T13:31:01.683Z</time>
      </trkpt>
      <trkpt lat="48.02559" lon="-4.44798">
        <ele>73.5</ele>
        <time>2022-04-06T13:31:07.274Z</time>
      </trkpt>
      <trkpt lat="48.02562" lon="-4.44777">
        <ele>74.2</ele>
        <time>2022-04-06T13:31:08.875Z</time>
      </trkpt>
      <trkpt lat="48.02569" lon="-4.44749">
        <ele>75.1</ele>
        <time>2022-04-06T13:31:11.098Z</time>
      </trkpt>
      <trkpt lat="48.0259" lon="-4.44728">
        <ele>76.5</ele>
        <time>2022-04-06T13:31:13.938Z</time>
      </trkpt>
      <trkpt lat="48.02623" lon="-4.44701">
        <ele>76.9</ele>
        <time>2022-04-06T13:31:18.099Z</time>
      </trkpt>
      <trkpt lat="48.02639" lon="-4.4467">
        <ele>77.3</ele>
        <time>2022-04-06T13:31:21.055Z</time>
      </trkpt>
      <trkpt lat="48.02615" lon="-4.4467">
        <ele>77.5</ele>
        <time>2022-04-06T13:31:23.728Z</time>
      </trkpt>
      <trkpt lat="48.026" lon="-4.44669">
        <ele>77.7</ele>
        <time>2022-04-06T13:31:25.399Z</time>
      </trkpt>
      <trkpt lat="48.02573" lon="-4.44664">
        <ele>77.8</ele>
        <time>2022-04-06T13:31:28.481Z</time>
      </trkpt>
      <trkpt lat="48.0256" lon="-4.44663">
        <ele>77.5</ele>
        <time>2022-04-06T13:31:29.913Z</time>
      </trkpt>
      <trkpt lat="48.02535" lon="-4.44671">
        <ele>76.7</ele>
        <time>2022-04-06T13:31:32.737Z</time>
      </trkpt>
      <trkpt lat="48.02506" lon="-4.44696">
        <ele>74.4</ele>
        <time>2022-04-06T13:31:36.509Z</time>
      </trkpt>
      <trkpt lat="48.02498" lon="-4.44699">
        <ele>74</ele>
        <time>2022-04-06T13:31:37.442Z</time>
      </trkpt>
      <trkpt lat="48.02494" lon="-4.44723">
        <ele>72.5</ele>
        <time>2022-04-06T13:31:39.237Z</time>
      </trkpt>
      <trkpt lat="48.02487" lon="-4.44742">
        <ele>71.3</ele>
        <time>2022-04-06T13:31:40.890Z</time>
      </trkpt>
      <trkpt lat="48.0247" lon="-4.44788">
        <ele>69.7</ele>
        <time>2022-04-06T13:31:44.798Z</time>
      </trkpt>
      <trkpt lat="48.02452" lon="-4.44856">
        <ele>67.1</ele>
        <time>2022-04-06T13:31:50.245Z</time>
      </trkpt>
      <trkpt lat="48.02441" lon="-4.44886">
        <ele>66</ele>
        <time>2022-04-06T13:31:52.742Z</time>
      </trkpt>
      <trkpt lat="48.02437" lon="-4.4489">
        <ele>65.8</ele>
        <time>2022-04-06T13:31:53.369Z</time>
      </trkpt>
      <trkpt lat="48.02432" lon="-4.44893">
        <ele>65.6</ele>
        <time>2022-04-06T13:31:53.894Z</time>
      </trkpt>
      <trkpt lat="48.02412" lon="-4.44942">
        <ele>64.3</ele>
        <time>2022-04-06T13:31:58.205Z</time>
      </trkpt>
      <trkpt lat="48.02397" lon="-4.4498">
        <ele>62.9</ele>
        <time>2022-04-06T13:32:01.425Z</time>
      </trkpt>
      <trkpt lat="48.02406" lon="-4.44991">
        <ele>62.8</ele>
        <time>2022-04-06T13:32:02.674Z</time>
      </trkpt>
      <trkpt lat="48.02396" lon="-4.45013">
        <ele>61.7</ele>
        <time>2022-04-06T13:32:04.633Z</time>
      </trkpt>
      <trkpt lat="48.02401" lon="-4.45026">
        <ele>61.2</ele>
        <time>2022-04-06T13:32:05.742Z</time>
      </trkpt>
      <trkpt lat="48.02427" lon="-4.45049">
        <ele>61</ele>
        <time>2022-04-06T13:32:09.129Z</time>
      </trkpt>
      <trkpt lat="48.02456" lon="-4.4507">
        <ele>61.4</ele>
        <time>2022-04-06T13:32:12.686Z</time>
      </trkpt>
      <trkpt lat="48.0247" lon="-4.45082">
        <ele>61.6</ele>
        <time>2022-04-06T13:32:14.499Z</time>
      </trkpt>
      <trkpt lat="48.02464" lon="-4.45092">
        <ele>61.2</ele>
        <time>2022-04-06T13:32:15.552Z</time>
      </trkpt>
      <trkpt lat="48.02451" lon="-4.45103">
        <ele>60.6</ele>
        <time>2022-04-06T13:32:17.246Z</time>
      </trkpt>
      <trkpt lat="48.02444" lon="-4.45109">
        <ele>60.3</ele>
        <time>2022-04-06T13:32:18.083Z</time>
      </trkpt>
      <trkpt lat="48.02424" lon="-4.45144">
        <ele>59.9</ele>
        <time>2022-04-06T13:32:21.521Z</time>
      </trkpt>
      <trkpt lat="48.0242" lon="-4.4515">
        <ele>59.9</ele>
        <time>2022-04-06T13:32:22.163Z</time>
      </trkpt>
      <trkpt lat="48.02418" lon="-4.45152">
        <ele>59.8</ele>
        <time>2022-04-06T13:32:22.435Z</time>
      </trkpt>
      <trkpt lat="48.02407" lon="-4.45148">
        <ele>59.8</ele>
        <time>2022-04-06T13:32:23.619Z</time>
      </trkpt>
      <trkpt lat="48.02394" lon="-4.45157">
        <ele>60.1</ele>
        <time>2022-04-06T13:32:25.296Z</time>
      </trkpt>
      <trkpt lat="48.02373" lon="-4.4519">
        <ele>60.9</ele>
        <time>2022-04-06T13:32:28.672Z</time>
      </trkpt>
      <trkpt lat="48.02368" lon="-4.45201">
        <ele>61.2</ele>
        <time>2022-04-06T13:32:29.657Z</time>
      </trkpt>
      <trkpt lat="48.02367" lon="-4.45205">
        <ele>61.2</ele>
        <time>2022-04-06T13:32:29.949Z</time>
      </trkpt>
      <trkpt lat="48.02349" lon="-4.45166">
        <ele>60.8</ele>
        <time>2022-04-06T13:32:33.446Z</time>
      </trkpt>
      <trkpt lat="48.02334" lon="-4.45144">
        <ele>60.2</ele>
        <time>2022-04-06T13:32:35.698Z</time>
      </trkpt>
      <trkpt lat="48.02327" lon="-4.45126">
        <ele>59.7</ele>
        <time>2022-04-06T13:32:37.296Z</time>
      </trkpt>
      <trkpt lat="48.02317" lon="-4.45105">
        <ele>59.2</ele>
        <time>2022-04-06T13:32:39.209Z</time>
      </trkpt>
      <trkpt lat="48.02304" lon="-4.45088">
        <ele>58.9</ele>
        <time>2022-04-06T13:32:41.078Z</time>
      </trkpt>
      <trkpt lat="48.02289" lon="-4.45081">
        <ele>59.1</ele>
        <time>2022-04-06T13:32:42.918Z</time>
      </trkpt>
      <trkpt lat="48.02275" lon="-4.45061">
        <ele>59.2</ele>
        <time>2022-04-06T13:32:45.041Z</time>
      </trkpt>
      <trkpt lat="48.02271" lon="-4.45044">
        <ele>59</ele>
        <time>2022-04-06T13:32:46.363Z</time>
      </trkpt>
      <trkpt lat="48.02261" lon="-4.45037">
        <ele>58.9</ele>
        <time>2022-04-06T13:32:47.598Z</time>
      </trkpt>
      <trkpt lat="48.02253" lon="-4.45031">
        <ele>58.8</ele>
        <time>2022-04-06T13:32:48.518Z</time>
      </trkpt>
      <trkpt lat="48.02243" lon="-4.45026">
        <ele>58.8</ele>
        <time>2022-04-06T13:32:49.772Z</time>
      </trkpt>
      <trkpt lat="48.02236" lon="-4.45025">
        <ele>59</ele>
        <time>2022-04-06T13:32:50.494Z</time>
      </trkpt>
      <trkpt lat="48.02228" lon="-4.45023">
        <ele>59.2</ele>
        <time>2022-04-06T13:32:51.433Z</time>
      </trkpt>
      <trkpt lat="48.02221" lon="-4.45035">
        <ele>59.7</ele>
        <time>2022-04-06T13:32:52.578Z</time>
      </trkpt>
      <trkpt lat="48.02216" lon="-4.45042">
        <ele>60.1</ele>
        <time>2022-04-06T13:32:53.390Z</time>
      </trkpt>
      <trkpt lat="48.0221" lon="-4.45049">
        <ele>60.4</ele>
        <time>2022-04-06T13:32:54.202Z</time>
      </trkpt>
      <trkpt lat="48.02187" lon="-4.45072">
        <ele>61.9</ele>
        <time>2022-04-06T13:32:57.287Z</time>
      </trkpt>
      <trkpt lat="48.02172" lon="-4.45086">
        <ele>62.8</ele>
        <time>2022-04-06T13:32:59.217Z</time>
      </trkpt>
      <trkpt lat="48.02169" lon="-4.45089">
        <ele>63</ele>
        <time>2022-04-06T13:32:59.641Z</time>
      </trkpt>
      <trkpt lat="48.0216" lon="-4.45101">
        <ele>63.1</ele>
        <time>2022-04-06T13:33:00.941Z</time>
      </trkpt>
      <trkpt lat="48.02152" lon="-4.45115">
        <ele>63.2</ele>
        <time>2022-04-06T13:33:02.355Z</time>
      </trkpt>
      <trkpt lat="48.02147" lon="-4.45126">
        <ele>63.2</ele>
        <time>2022-04-06T13:33:03.298Z</time>
      </trkpt>
      <trkpt lat="48.02142" lon="-4.45141">
        <ele>63.2</ele>
        <time>2022-04-06T13:33:04.603Z</time>
      </trkpt>
      <trkpt lat="48.02135" lon="-4.45168">
        <ele>63.3</ele>
        <time>2022-04-06T13:33:06.720Z</time>
      </trkpt>
      <trkpt lat="48.02129" lon="-4.45186">
        <ele>63.3</ele>
        <time>2022-04-06T13:33:08.262Z</time>
      </trkpt>
      <trkpt lat="48.02119" lon="-4.45217">
        <ele>63.5</ele>
        <time>2022-04-06T13:33:10.814Z</time>
      </trkpt>
      <trkpt lat="48.02111" lon="-4.4524">
        <ele>63.6</ele>
        <time>2022-04-06T13:33:12.736Z</time>
      </trkpt>
      <trkpt lat="48.02105" lon="-4.45261">
        <ele>63.5</ele>
        <time>2022-04-06T13:33:14.418Z</time>
      </trkpt>
      <trkpt lat="48.02099" lon="-4.45286">
        <ele>63.4</ele>
        <time>2022-04-06T13:33:16.378Z</time>
      </trkpt>
      <trkpt lat="48.02094" lon="-4.45313">
        <ele>63.2</ele>
        <time>2022-04-06T13:33:18.498Z</time>
      </trkpt>
      <trkpt lat="48.02065" lon="-4.45301">
        <ele>63.1</ele>
        <time>2022-04-06T13:33:21.791Z</time>
      </trkpt>
      <trkpt lat="48.02038" lon="-4.45288">
        <ele>63.3</ele>
        <time>2022-04-06T13:33:24.944Z</time>
      </trkpt>
      <trkpt lat="48.01927" lon="-4.45236">
        <ele>63.8</ele>
        <time>2022-04-06T13:33:37.846Z</time>
      </trkpt>
      <trkpt lat="48.01886" lon="-4.45216">
        <ele>63.8</ele>
        <time>2022-04-06T13:33:42.716Z</time>
      </trkpt>
      <trkpt lat="48.01839" lon="-4.45195">
        <ele>63.4</ele>
        <time>2022-04-06T13:33:48.101Z</time>
      </trkpt>
      <trkpt lat="48.01831" lon="-4.45192">
        <ele>63.3</ele>
        <time>2022-04-06T13:33:49.080Z</time>
      </trkpt>
      <trkpt lat="48.01824" lon="-4.45189">
        <ele>63.4</ele>
        <time>2022-04-06T13:33:49.909Z</time>
      </trkpt>
      <trkpt lat="48.01816" lon="-4.45189">
        <ele>63.5</ele>
        <time>2022-04-06T13:33:50.721Z</time>
      </trkpt>
      <trkpt lat="48.01811" lon="-4.4519">
        <ele>63.6</ele>
        <time>2022-04-06T13:33:51.348Z</time>
      </trkpt>
      <trkpt lat="48.01803" lon="-4.45192">
        <ele>63.7</ele>
        <time>2022-04-06T13:33:52.271Z</time>
      </trkpt>
      <trkpt lat="48.0177" lon="-4.45208">
        <ele>64.3</ele>
        <time>2022-04-06T13:33:56.036Z</time>
      </trkpt>
      <trkpt lat="48.01739" lon="-4.45222">
        <ele>64.6</ele>
        <time>2022-04-06T13:33:59.627Z</time>
      </trkpt>
      <trkpt lat="48.01725" lon="-4.45227">
        <ele>64.6</ele>
        <time>2022-04-06T13:34:01.249Z</time>
      </trkpt>
      <trkpt lat="48.01692" lon="-4.45237">
        <ele>64.4</ele>
        <time>2022-04-06T13:34:04.996Z</time>
      </trkpt>
      <trkpt lat="48.01681" lon="-4.4524">
        <ele>64.3</ele>
        <time>2022-04-06T13:34:06.248Z</time>
      </trkpt>
      <trkpt lat="48.01673" lon="-4.4524">
        <ele>64.2</ele>
        <time>2022-04-06T13:34:07.156Z</time>
      </trkpt>
      <trkpt lat="48.01659" lon="-4.45237">
        <ele>64.1</ele>
        <time>2022-04-06T13:34:08.739Z</time>
      </trkpt>
      <trkpt lat="48.01619" lon="-4.45226">
        <ele>63.9</ele>
        <time>2022-04-06T13:34:13.251Z</time>
      </trkpt>
      <trkpt lat="48.01578" lon="-4.45214">
        <ele>63.8</ele>
        <time>2022-04-06T13:34:17.876Z</time>
      </trkpt>
      <trkpt lat="48.01561" lon="-4.4521">
        <ele>63.6</ele>
        <time>2022-04-06T13:34:19.844Z</time>
      </trkpt>
      <trkpt lat="48.01558" lon="-4.45209">
        <ele>63.5</ele>
        <time>2022-04-06T13:34:20.199Z</time>
      </trkpt>
      <trkpt lat="48.01551" lon="-4.45208">
        <ele>63.4</ele>
        <time>2022-04-06T13:34:20.916Z</time>
      </trkpt>
      <trkpt lat="48.01547" lon="-4.45209">
        <ele>63.3</ele>
        <time>2022-04-06T13:34:21.396Z</time>
      </trkpt>
      <trkpt lat="48.01545" lon="-4.4521">
        <ele>63.3</ele>
        <time>2022-04-06T13:34:21.667Z</time>
      </trkpt>
      <trkpt lat="48.01543" lon="-4.45215">
        <ele>63.1</ele>
        <time>2022-04-06T13:34:22.078Z</time>
      </trkpt>
      <trkpt lat="48.01542" lon="-4.45234">
        <ele>62.8</ele>
        <time>2022-04-06T13:34:23.473Z</time>
      </trkpt>
      <trkpt lat="48.01536" lon="-4.45401">
        <ele>63.4</ele>
        <time>2022-04-06T13:34:35.919Z</time>
      </trkpt>
      <trkpt lat="48.01536" lon="-4.45411">
        <ele>63.5</ele>
        <time>2022-04-06T13:34:36.703Z</time>
      </trkpt>
      <trkpt lat="48.01532" lon="-4.4553">
        <ele>66.6</ele>
        <time>2022-04-06T13:34:45.544Z</time>
      </trkpt>
      <trkpt lat="48.01525" lon="-4.45699">
        <ele>73</ele>
        <time>2022-04-06T13:34:58.138Z</time>
      </trkpt>
      <trkpt lat="48.01524" lon="-4.45745">
        <ele>74.6</ele>
        <time>2022-04-06T13:35:01.544Z</time>
      </trkpt>
      <trkpt lat="48.01524" lon="-4.45762">
        <ele>75.4</ele>
        <time>2022-04-06T13:35:02.839Z</time>
      </trkpt>
      <trkpt lat="48.01521" lon="-4.45817">
        <ele>78</ele>
        <time>2022-04-06T13:35:06.986Z</time>
      </trkpt>
      <trkpt lat="48.01519" lon="-4.4586">
        <ele>78.8</ele>
        <time>2022-04-06T13:35:10.170Z</time>
      </trkpt>
      <trkpt lat="48.01518" lon="-4.45903">
        <ele>78.9</ele>
        <time>2022-04-06T13:35:13.345Z</time>
      </trkpt>
      <trkpt lat="48.01517" lon="-4.45972">
        <ele>77.8</ele>
        <time>2022-04-06T13:35:18.521Z</time>
      </trkpt>
      <trkpt lat="48.01513" lon="-4.46074">
        <ele>79.4</ele>
        <time>2022-04-06T13:35:26.128Z</time>
      </trkpt>
      <trkpt lat="48.01512" lon="-4.4611">
        <ele>80</ele>
        <time>2022-04-06T13:35:28.795Z</time>
      </trkpt>
      <trkpt lat="48.01512" lon="-4.46135">
        <ele>80.3</ele>
        <time>2022-04-06T13:35:30.623Z</time>
      </trkpt>
      <trkpt lat="48.01514" lon="-4.46158">
        <ele>80.6</ele>
        <time>2022-04-06T13:35:32.367Z</time>
      </trkpt>
      <trkpt lat="48.01515" lon="-4.46177">
        <ele>80.7</ele>
        <time>2022-04-06T13:35:33.805Z</time>
      </trkpt>
      <trkpt lat="48.01517" lon="-4.46195">
        <ele>80.7</ele>
        <time>2022-04-06T13:35:35.173Z</time>
      </trkpt>
      <trkpt lat="48.01516" lon="-4.46199">
        <ele>80.7</ele>
        <time>2022-04-06T13:35:35.467Z</time>
      </trkpt>
      <trkpt lat="48.01517" lon="-4.46202">
        <ele>80.7</ele>
        <time>2022-04-06T13:35:35.680Z</time>
      </trkpt>
      <trkpt lat="48.01517" lon="-4.46212">
        <ele>80.7</ele>
        <time>2022-04-06T13:35:36.419Z</time>
      </trkpt>
      <trkpt lat="48.01517" lon="-4.46222">
        <ele>80.7</ele>
        <time>2022-04-06T13:35:37.202Z</time>
      </trkpt>
      <trkpt lat="48.01515" lon="-4.46235">
        <ele>80.8</ele>
        <time>2022-04-06T13:35:38.125Z</time>
      </trkpt>
      <trkpt lat="48.01515" lon="-4.46247">
        <ele>80.8</ele>
        <time>2022-04-06T13:35:39.037Z</time>
      </trkpt>
      <trkpt lat="48.01514" lon="-4.46259">
        <ele>81</ele>
        <time>2022-04-06T13:35:39.971Z</time>
      </trkpt>
      <trkpt lat="48.01512" lon="-4.46265">
        <ele>81.1</ele>
        <time>2022-04-06T13:35:40.428Z</time>
      </trkpt>
      <trkpt lat="48.01511" lon="-4.46271">
        <ele>81.1</ele>
        <time>2022-04-06T13:35:40.886Z</time>
      </trkpt>
      <trkpt lat="48.01509" lon="-4.46277">
        <ele>81.3</ele>
        <time>2022-04-06T13:35:41.401Z</time>
      </trkpt>
      <trkpt lat="48.01507" lon="-4.46284">
        <ele>81.4</ele>
        <time>2022-04-06T13:35:41.936Z</time>
      </trkpt>
      <trkpt lat="48.01506" lon="-4.46286">
        <ele>81.4</ele>
        <time>2022-04-06T13:35:42.161Z</time>
      </trkpt>
      <trkpt lat="48.01506" lon="-4.46289">
        <ele>81.4</ele>
        <time>2022-04-06T13:35:42.402Z</time>
      </trkpt>
      <trkpt lat="48.01496" lon="-4.46285">
        <ele>81.4</ele>
        <time>2022-04-06T13:35:43.556Z</time>
      </trkpt>
      <trkpt lat="48.01488" lon="-4.46282">
        <ele>81.2</ele>
        <time>2022-04-06T13:35:44.487Z</time>
      </trkpt>
      <trkpt lat="48.01481" lon="-4.46278">
        <ele>81.1</ele>
        <time>2022-04-06T13:35:45.294Z</time>
      </trkpt>
      <trkpt lat="48.01473" lon="-4.46274">
        <ele>81</ele>
        <time>2022-04-06T13:35:46.221Z</time>
      </trkpt>
      <trkpt lat="48.01467" lon="-4.46271">
        <ele>80.9</ele>
        <time>2022-04-06T13:35:46.877Z</time>
      </trkpt>
      <trkpt lat="48.01461" lon="-4.46266">
        <ele>80.7</ele>
        <time>2022-04-06T13:35:47.717Z</time>
      </trkpt>
      <trkpt lat="48.01452" lon="-4.46261">
        <ele>80.6</ele>
        <time>2022-04-06T13:35:48.705Z</time>
      </trkpt>
      <trkpt lat="48.01448" lon="-4.46257">
        <ele>80.5</ele>
        <time>2022-04-06T13:35:49.290Z</time>
      </trkpt>
      <trkpt lat="48.01445" lon="-4.46257">
        <ele>80.4</ele>
        <time>2022-04-06T13:35:49.581Z</time>
      </trkpt>
      <trkpt lat="48.01443" lon="-4.46257">
        <ele>80.4</ele>
        <time>2022-04-06T13:35:49.868Z</time>
      </trkpt>
      <trkpt lat="48.0144" lon="-4.46257">
        <ele>80.4</ele>
        <time>2022-04-06T13:35:50.109Z</time>
      </trkpt>
      <trkpt lat="48.01438" lon="-4.46259">
        <ele>80.4</ele>
        <time>2022-04-06T13:35:50.409Z</time>
      </trkpt>
      <trkpt lat="48.01436" lon="-4.4626">
        <ele>80.4</ele>
        <time>2022-04-06T13:35:50.662Z</time>
      </trkpt>
      <trkpt lat="48.01433" lon="-4.46262">
        <ele>80.3</ele>
        <time>2022-04-06T13:35:51.039Z</time>
      </trkpt>
      <trkpt lat="48.0143" lon="-4.46265">
        <ele>80.3</ele>
        <time>2022-04-06T13:35:51.437Z</time>
      </trkpt>
      <trkpt lat="48.01427" lon="-4.46269">
        <ele>80.4</ele>
        <time>2022-04-06T13:35:51.862Z</time>
      </trkpt>
      <trkpt lat="48.01423" lon="-4.46273">
        <ele>80.4</ele>
        <time>2022-04-06T13:35:52.349Z</time>
      </trkpt>
      <trkpt lat="48.01421" lon="-4.46276">
        <ele>80.4</ele>
        <time>2022-04-06T13:35:52.737Z</time>
      </trkpt>
      <trkpt lat="48.01417" lon="-4.4628">
        <ele>80.4</ele>
        <time>2022-04-06T13:35:53.238Z</time>
      </trkpt>
      <trkpt lat="48.01413" lon="-4.46283">
        <ele>80.1</ele>
        <time>2022-04-06T13:35:53.764Z</time>
      </trkpt>
      <trkpt lat="48.01405" lon="-4.46287">
        <ele>79.6</ele>
        <time>2022-04-06T13:35:54.632Z</time>
      </trkpt>
      <trkpt lat="48.014" lon="-4.4629">
        <ele>79.2</ele>
        <time>2022-04-06T13:35:55.290Z</time>
      </trkpt>
      <trkpt lat="48.01394" lon="-4.46292">
        <ele>78.8</ele>
        <time>2022-04-06T13:35:55.949Z</time>
      </trkpt>
      <trkpt lat="48.0139" lon="-4.46294">
        <ele>78.5</ele>
        <time>2022-04-06T13:35:56.397Z</time>
      </trkpt>
      <trkpt lat="48.01387" lon="-4.46295">
        <ele>78.2</ele>
        <time>2022-04-06T13:35:56.736Z</time>
      </trkpt>
      <trkpt lat="48.01384" lon="-4.46295">
        <ele>78</ele>
        <time>2022-04-06T13:35:57.070Z</time>
      </trkpt>
      <trkpt lat="48.01382" lon="-4.46294">
        <ele>77.8</ele>
        <time>2022-04-06T13:35:57.325Z</time>
      </trkpt>
      <trkpt lat="48.01376" lon="-4.46292">
        <ele>77.4</ele>
        <time>2022-04-06T13:35:57.953Z</time>
      </trkpt>
      <trkpt lat="48.0137" lon="-4.4629">
        <ele>76.9</ele>
        <time>2022-04-06T13:35:58.691Z</time>
      </trkpt>
      <trkpt lat="48.01364" lon="-4.46288">
        <ele>76.4</ele>
        <time>2022-04-06T13:35:59.337Z</time>
      </trkpt>
      <trkpt lat="48.01351" lon="-4.46281">
        <ele>75.4</ele>
        <time>2022-04-06T13:36:00.909Z</time>
      </trkpt>
      <trkpt lat="48.01346" lon="-4.46278">
        <ele>75</ele>
        <time>2022-04-06T13:36:01.464Z</time>
      </trkpt>
      <trkpt lat="48.01341" lon="-4.46276">
        <ele>74.6</ele>
        <time>2022-04-06T13:36:02.063Z</time>
      </trkpt>
      <trkpt lat="48.01336" lon="-4.46275">
        <ele>74.2</ele>
        <time>2022-04-06T13:36:02.643Z</time>
      </trkpt>
      <trkpt lat="48.0133" lon="-4.46273">
        <ele>74</ele>
        <time>2022-04-06T13:36:03.323Z</time>
      </trkpt>
      <trkpt lat="48.01325" lon="-4.46273">
        <ele>73.9</ele>
        <time>2022-04-06T13:36:03.849Z</time>
      </trkpt>
      <trkpt lat="48.01321" lon="-4.46274">
        <ele>73.9</ele>
        <time>2022-04-06T13:36:04.328Z</time>
      </trkpt>
      <trkpt lat="48.01318" lon="-4.46274">
        <ele>73.9</ele>
        <time>2022-04-06T13:36:04.665Z</time>
      </trkpt>
      <trkpt lat="48.01316" lon="-4.46276">
        <ele>73.9</ele>
        <time>2022-04-06T13:36:04.919Z</time>
      </trkpt>
      <trkpt lat="48.01313" lon="-4.46277">
        <ele>73.8</ele>
        <time>2022-04-06T13:36:05.219Z</time>
      </trkpt>
      <trkpt lat="48.01312" lon="-4.46278">
        <ele>73.8</ele>
        <time>2022-04-06T13:36:05.385Z</time>
      </trkpt>
      <trkpt lat="48.01309" lon="-4.46281">
        <ele>73.8</ele>
        <time>2022-04-06T13:36:05.834Z</time>
      </trkpt>
      <trkpt lat="48.01303" lon="-4.46272">
        <ele>73.7</ele>
        <time>2022-04-06T13:36:06.783Z</time>
      </trkpt>
      <trkpt lat="48.01296" lon="-4.46262">
        <ele>73.6</ele>
        <time>2022-04-06T13:36:07.845Z</time>
      </trkpt>
      <trkpt lat="48.01291" lon="-4.46256">
        <ele>73.5</ele>
        <time>2022-04-06T13:36:08.592Z</time>
      </trkpt>
      <trkpt lat="48.01286" lon="-4.4625">
        <ele>73.4</ele>
        <time>2022-04-06T13:36:09.293Z</time>
      </trkpt>
      <trkpt lat="48.01278" lon="-4.46241">
        <ele>73.2</ele>
        <time>2022-04-06T13:36:10.427Z</time>
      </trkpt>
      <trkpt lat="48.0127" lon="-4.46233">
        <ele>73</ele>
        <time>2022-04-06T13:36:11.515Z</time>
      </trkpt>
      <trkpt lat="48.01272" lon="-4.46227">
        <ele>73</ele>
        <time>2022-04-06T13:36:12.050Z</time>
      </trkpt>
      <trkpt lat="48.01273" lon="-4.46223">
        <ele>73</ele>
        <time>2022-04-06T13:36:12.358Z</time>
      </trkpt>
      <trkpt lat="48.01273" lon="-4.46218">
        <ele>72.9</ele>
        <time>2022-04-06T13:36:12.749Z</time>
      </trkpt>
      <trkpt lat="48.01271" lon="-4.46205">
        <ele>72.7</ele>
        <time>2022-04-06T13:36:13.725Z</time>
      </trkpt>
      <trkpt lat="48.01268" lon="-4.4619">
        <ele>72.5</ele>
        <time>2022-04-06T13:36:14.848Z</time>
      </trkpt>
      <trkpt lat="48.01265" lon="-4.4618">
        <ele>72.4</ele>
        <time>2022-04-06T13:36:15.659Z</time>
      </trkpt>
      <trkpt lat="48.01262" lon="-4.46173">
        <ele>72.2</ele>
        <time>2022-04-06T13:36:16.342Z</time>
      </trkpt>
      <trkpt lat="48.01258" lon="-4.46165">
        <ele>72.1</ele>
        <time>2022-04-06T13:36:17.051Z</time>
      </trkpt>
      <trkpt lat="48.01254" lon="-4.4616">
        <ele>71.9</ele>
        <time>2022-04-06T13:36:17.633Z</time>
      </trkpt>
      <trkpt lat="48.01246" lon="-4.46153">
        <ele>71.7</ele>
        <time>2022-04-06T13:36:18.637Z</time>
      </trkpt>
      <trkpt lat="48.0124" lon="-4.46149">
        <ele>71.6</ele>
        <time>2022-04-06T13:36:19.372Z</time>
      </trkpt>
      <trkpt lat="48.01234" lon="-4.46144">
        <ele>71.4</ele>
        <time>2022-04-06T13:36:20.168Z</time>
      </trkpt>
      <trkpt lat="48.01228" lon="-4.46139">
        <ele>71.3</ele>
        <time>2022-04-06T13:36:20.900Z</time>
      </trkpt>
      <trkpt lat="48.01223" lon="-4.46133">
        <ele>71.1</ele>
        <time>2022-04-06T13:36:21.658Z</time>
      </trkpt>
      <trkpt lat="48.01221" lon="-4.46128">
        <ele>70.9</ele>
        <time>2022-04-06T13:36:22.094Z</time>
      </trkpt>
      <trkpt lat="48.01218" lon="-4.46121">
        <ele>70.7</ele>
        <time>2022-04-06T13:36:22.714Z</time>
      </trkpt>
      <trkpt lat="48.01216" lon="-4.46109">
        <ele>70.3</ele>
        <time>2022-04-06T13:36:23.629Z</time>
      </trkpt>
      <trkpt lat="48.0121" lon="-4.46066">
        <ele>69.7</ele>
        <time>2022-04-06T13:36:26.872Z</time>
      </trkpt>
      <trkpt lat="48.01203" lon="-4.46027">
        <ele>70.2</ele>
        <time>2022-04-06T13:36:29.925Z</time>
      </trkpt>
      <trkpt lat="48.01197" lon="-4.45997">
        <ele>70.8</ele>
        <time>2022-04-06T13:36:32.186Z</time>
      </trkpt>
      <trkpt lat="48.0119" lon="-4.45968">
        <ele>72.7</ele>
        <time>2022-04-06T13:36:34.536Z</time>
      </trkpt>
      <trkpt lat="48.01186" lon="-4.45945">
        <ele>74.3</ele>
        <time>2022-04-06T13:36:36.278Z</time>
      </trkpt>
      <trkpt lat="48.01183" lon="-4.45927">
        <ele>75.6</ele>
        <time>2022-04-06T13:36:37.671Z</time>
      </trkpt>
      <trkpt lat="48.01179" lon="-4.45901">
        <ele>77</ele>
        <time>2022-04-06T13:36:39.680Z</time>
      </trkpt>
      <trkpt lat="48.01176" lon="-4.45875">
        <ele>78</ele>
        <time>2022-04-06T13:36:41.623Z</time>
      </trkpt>
      <trkpt lat="48.01174" lon="-4.45853">
        <ele>78.9</ele>
        <time>2022-04-06T13:36:43.327Z</time>
      </trkpt>
      <trkpt lat="48.01175" lon="-4.45825">
        <ele>79.4</ele>
        <time>2022-04-06T13:36:45.370Z</time>
      </trkpt>
      <trkpt lat="48.01175" lon="-4.45801">
        <ele>79.2</ele>
        <time>2022-04-06T13:36:47.153Z</time>
      </trkpt>
      <trkpt lat="48.01175" lon="-4.45732">
        <ele>78</ele>
        <time>2022-04-06T13:36:52.293Z</time>
      </trkpt>
      <trkpt lat="48.01175" lon="-4.45716">
        <ele>77.5</ele>
        <time>2022-04-06T13:36:53.501Z</time>
      </trkpt>
      <trkpt lat="48.01174" lon="-4.45705">
        <ele>77.1</ele>
        <time>2022-04-06T13:36:54.331Z</time>
      </trkpt>
      <trkpt lat="48.01173" lon="-4.45692">
        <ele>76.7</ele>
        <time>2022-04-06T13:36:55.263Z</time>
      </trkpt>
      <trkpt lat="48.0117" lon="-4.45678">
        <ele>76.3</ele>
        <time>2022-04-06T13:36:56.360Z</time>
      </trkpt>
      <trkpt lat="48.01166" lon="-4.45664">
        <ele>76</ele>
        <time>2022-04-06T13:36:57.471Z</time>
      </trkpt>
      <trkpt lat="48.01165" lon="-4.4566">
        <ele>75.9</ele>
        <time>2022-04-06T13:36:57.841Z</time>
      </trkpt>
      <trkpt lat="48.01161" lon="-4.45648">
        <ele>75.8</ele>
        <time>2022-04-06T13:36:58.837Z</time>
      </trkpt>
      <trkpt lat="48.01157" lon="-4.45639">
        <ele>75.7</ele>
        <time>2022-04-06T13:36:59.654Z</time>
      </trkpt>
      <trkpt lat="48.0115" lon="-4.4563">
        <ele>75.5</ele>
        <time>2022-04-06T13:37:00.623Z</time>
      </trkpt>
      <trkpt lat="48.01146" lon="-4.45623">
        <ele>75.4</ele>
        <time>2022-04-06T13:37:01.265Z</time>
      </trkpt>
      <trkpt lat="48.01143" lon="-4.45615">
        <ele>75.2</ele>
        <time>2022-04-06T13:37:02.021Z</time>
      </trkpt>
      <trkpt lat="48.01135" lon="-4.45618">
        <ele>75.1</ele>
        <time>2022-04-06T13:37:02.890Z</time>
      </trkpt>
      <trkpt lat="48.01132" lon="-4.45618">
        <ele>75.1</ele>
        <time>2022-04-06T13:37:03.226Z</time>
      </trkpt>
      <trkpt lat="48.01124" lon="-4.45615">
        <ele>75</ele>
        <time>2022-04-06T13:37:04.137Z</time>
      </trkpt>
      <trkpt lat="48.01119" lon="-4.45623">
        <ele>75.2</ele>
        <time>2022-04-06T13:37:04.890Z</time>
      </trkpt>
      <trkpt lat="48.01098" lon="-4.45643">
        <ele>75.8</ele>
        <time>2022-04-06T13:37:07.680Z</time>
      </trkpt>
      <trkpt lat="48.01076" lon="-4.45672">
        <ele>76.6</ele>
        <time>2022-04-06T13:37:10.987Z</time>
      </trkpt>
      <trkpt lat="48.0107" lon="-4.45679">
        <ele>76.2</ele>
        <time>2022-04-06T13:37:11.813Z</time>
      </trkpt>
      <trkpt lat="48.01065" lon="-4.45686">
        <ele>76</ele>
        <time>2022-04-06T13:37:12.612Z</time>
      </trkpt>
      <trkpt lat="48.01057" lon="-4.45689">
        <ele>75.6</ele>
        <time>2022-04-06T13:37:13.465Z</time>
      </trkpt>
      <trkpt lat="48.01049" lon="-4.45692">
        <ele>75.2</ele>
        <time>2022-04-06T13:37:14.390Z</time>
      </trkpt>
      <trkpt lat="48.00998" lon="-4.45694">
        <ele>72.6</ele>
        <time>2022-04-06T13:37:20.123Z</time>
      </trkpt>
      <trkpt lat="48.00954" lon="-4.45695">
        <ele>71.8</ele>
        <time>2022-04-06T13:37:24.944Z</time>
      </trkpt>
      <trkpt lat="48.00917" lon="-4.45698">
        <ele>71.1</ele>
        <time>2022-04-06T13:37:29.052Z</time>
      </trkpt>
      <trkpt lat="48.00878" lon="-4.45701">
        <ele>69.8</ele>
        <time>2022-04-06T13:37:33.401Z</time>
      </trkpt>
      <trkpt lat="48.00829" lon="-4.457">
        <ele>68.1</ele>
        <time>2022-04-06T13:37:38.891Z</time>
      </trkpt>
      <trkpt lat="48.00801" lon="-4.45698">
        <ele>67.7</ele>
        <time>2022-04-06T13:37:41.999Z</time>
      </trkpt>
      <trkpt lat="48.00781" lon="-4.45698">
        <ele>67.4</ele>
        <time>2022-04-06T13:37:44.241Z</time>
      </trkpt>
      <trkpt lat="48.00776" lon="-4.45698">
        <ele>67.3</ele>
        <time>2022-04-06T13:37:44.814Z</time>
      </trkpt>
      <trkpt lat="48.00771" lon="-4.45699">
        <ele>67.2</ele>
        <time>2022-04-06T13:37:45.393Z</time>
      </trkpt>
      <trkpt lat="48.00764" lon="-4.45705">
        <ele>66.9</ele>
        <time>2022-04-06T13:37:46.227Z</time>
      </trkpt>
      <trkpt lat="48.00749" lon="-4.4568">
        <ele>67.5</ele>
        <time>2022-04-06T13:37:48.734Z</time>
      </trkpt>
      <trkpt lat="48.00697" lon="-4.45716">
        <ele>66</ele>
        <time>2022-04-06T13:37:55.137Z</time>
      </trkpt>
      <trkpt lat="48.00689" lon="-4.45727">
        <ele>65.6</ele>
        <time>2022-04-06T13:37:56.300Z</time>
      </trkpt>
      <trkpt lat="48.00687" lon="-4.45741">
        <ele>65.2</ele>
        <time>2022-04-06T13:37:57.360Z</time>
      </trkpt>
      <trkpt lat="48.00673" lon="-4.45916">
        <ele>65.9</ele>
        <time>2022-04-06T13:38:10.459Z</time>
      </trkpt>
      <trkpt lat="48.00662" lon="-4.45963">
        <ele>67.2</ele>
        <time>2022-04-06T13:38:14.194Z</time>
      </trkpt>
      <trkpt lat="48.00625" lon="-4.46091">
        <ele>69.2</ele>
        <time>2022-04-06T13:38:24.543Z</time>
      </trkpt>
      <trkpt lat="48.00565" lon="-4.46157">
        <ele>73.4</ele>
        <time>2022-04-06T13:38:32.859Z</time>
      </trkpt>
      <trkpt lat="48.00698" lon="-4.46542">
        <ele>83.8</ele>
        <time>2022-04-06T13:39:05.089Z</time>
      </trkpt>
      <trkpt lat="48.00641" lon="-4.46545">
        <ele>84.3</ele>
        <time>2022-04-06T13:39:11.400Z</time>
      </trkpt>
      <trkpt lat="48.00623" lon="-4.46546">
        <ele>84.6</ele>
        <time>2022-04-06T13:39:13.503Z</time>
      </trkpt>
      <trkpt lat="48.00608" lon="-4.46546">
        <ele>84.8</ele>
        <time>2022-04-06T13:39:15.173Z</time>
      </trkpt>
      <trkpt lat="48.00599" lon="-4.46546">
        <ele>84.9</ele>
        <time>2022-04-06T13:39:16.079Z</time>
      </trkpt>
      <trkpt lat="48.00594" lon="-4.46548">
        <ele>85</ele>
        <time>2022-04-06T13:39:16.730Z</time>
      </trkpt>
      <trkpt lat="48.0059" lon="-4.46553">
        <ele>85.2</ele>
        <time>2022-04-06T13:39:17.269Z</time>
      </trkpt>
      <trkpt lat="48.00588" lon="-4.46557">
        <ele>85.3</ele>
        <time>2022-04-06T13:39:17.656Z</time>
      </trkpt>
      <trkpt lat="48.00584" lon="-4.46566">
        <ele>85.6</ele>
        <time>2022-04-06T13:39:18.438Z</time>
      </trkpt>
      <trkpt lat="48.00573" lon="-4.46593">
        <ele>85.8</ele>
        <time>2022-04-06T13:39:20.861Z</time>
      </trkpt>
      <trkpt lat="48.0056" lon="-4.46624">
        <ele>85.6</ele>
        <time>2022-04-06T13:39:23.504Z</time>
      </trkpt>
      <trkpt lat="48.00552" lon="-4.46641">
        <ele>85.5</ele>
        <time>2022-04-06T13:39:25.056Z</time>
      </trkpt>
      <trkpt lat="48.00544" lon="-4.46673">
        <ele>85.4</ele>
        <time>2022-04-06T13:39:27.613Z</time>
      </trkpt>
      <trkpt lat="48.00539" lon="-4.46706">
        <ele>84.6</ele>
        <time>2022-04-06T13:39:30.105Z</time>
      </trkpt>
      <trkpt lat="48.00536" lon="-4.46725">
        <ele>84.1</ele>
        <time>2022-04-06T13:39:31.641Z</time>
      </trkpt>
      <trkpt lat="48.0052" lon="-4.46732">
        <ele>84.1</ele>
        <time>2022-04-06T13:39:33.457Z</time>
      </trkpt>
      <trkpt lat="48.00417" lon="-4.4679">
        <ele>84</ele>
        <time>2022-04-06T13:39:45.676Z</time>
      </trkpt>
      <trkpt lat="48.00408" lon="-4.46795">
        <ele>84.2</ele>
        <time>2022-04-06T13:39:46.797Z</time>
      </trkpt>
      <trkpt lat="48.00403" lon="-4.46795">
        <ele>84.2</ele>
        <time>2022-04-06T13:39:47.273Z</time>
      </trkpt>
      <trkpt lat="48.004" lon="-4.46794">
        <ele>84.2</ele>
        <time>2022-04-06T13:39:47.666Z</time>
      </trkpt>
      <trkpt lat="48.00397" lon="-4.4679">
        <ele>84.1</ele>
        <time>2022-04-06T13:39:48.053Z</time>
      </trkpt>
      <trkpt lat="48.00396" lon="-4.46786">
        <ele>84</ele>
        <time>2022-04-06T13:39:48.429Z</time>
      </trkpt>
      <trkpt lat="48.00398" lon="-4.46717">
        <ele>83</ele>
        <time>2022-04-06T13:39:53.563Z</time>
      </trkpt>
      <trkpt lat="48.00398" lon="-4.467">
        <ele>83</ele>
        <time>2022-04-06T13:39:54.780Z</time>
      </trkpt>
      <trkpt lat="48.00396" lon="-4.46694">
        <ele>83</ele>
        <time>2022-04-06T13:39:55.276Z</time>
      </trkpt>
      <trkpt lat="48.00391" lon="-4.46691">
        <ele>83</ele>
        <time>2022-04-06T13:39:55.820Z</time>
      </trkpt>
      <trkpt lat="48.00387" lon="-4.46687">
        <ele>83</ele>
        <time>2022-04-06T13:39:56.404Z</time>
      </trkpt>
      <trkpt lat="48.00174" lon="-4.46552">
        <ele>79.3</ele>
        <time>2022-04-06T13:40:22.075Z</time>
      </trkpt>
      <trkpt lat="48.00171" lon="-4.46551">
        <ele>79.2</ele>
        <time>2022-04-06T13:40:22.491Z</time>
      </trkpt>
      <trkpt lat="48.00162" lon="-4.46545">
        <ele>79</ele>
        <time>2022-04-06T13:40:23.527Z</time>
      </trkpt>
      <trkpt lat="47.99929" lon="-4.46432">
        <ele>64.5</ele>
        <time>2022-04-06T13:40:50.757Z</time>
      </trkpt>
      <trkpt lat="47.99852" lon="-4.46798">
        <ele>75.6</ele>
        <time>2022-04-06T13:41:19.378Z</time>
      </trkpt>
      <trkpt lat="47.99851" lon="-4.46806">
        <ele>75.8</ele>
        <time>2022-04-06T13:41:19.945Z</time>
      </trkpt>
      <trkpt lat="47.99851" lon="-4.46813">
        <ele>75.9</ele>
        <time>2022-04-06T13:41:20.440Z</time>
      </trkpt>
      <trkpt lat="47.99825" lon="-4.46808">
        <ele>75.1</ele>
        <time>2022-04-06T13:41:23.387Z</time>
      </trkpt>
      <trkpt lat="47.99825" lon="-4.46819">
        <ele>75.4</ele>
        <time>2022-04-06T13:41:24.190Z</time>
      </trkpt>
      <trkpt lat="47.99822" lon="-4.46834">
        <ele>75.6</ele>
        <time>2022-04-06T13:41:25.368Z</time>
      </trkpt>
      <trkpt lat="47.99816" lon="-4.46855">
        <ele>75.4</ele>
        <time>2022-04-06T13:41:27.052Z</time>
      </trkpt>
      <trkpt lat="47.99806" lon="-4.46888">
        <ele>75</ele>
        <time>2022-04-06T13:41:29.762Z</time>
      </trkpt>
      <trkpt lat="47.99801" lon="-4.46943">
        <ele>74.5</ele>
        <time>2022-04-06T13:41:33.847Z</time>
      </trkpt>
      <trkpt lat="47.99795" lon="-4.46955">
        <ele>74.2</ele>
        <time>2022-04-06T13:41:34.980Z</time>
      </trkpt>
      <trkpt lat="47.99789" lon="-4.46968">
        <ele>73.8</ele>
        <time>2022-04-06T13:41:36.147Z</time>
      </trkpt>
      <trkpt lat="47.99788" lon="-4.47004">
        <ele>73.4</ele>
        <time>2022-04-06T13:41:38.842Z</time>
      </trkpt>
      <trkpt lat="47.99793" lon="-4.47018">
        <ele>73.4</ele>
        <time>2022-04-06T13:41:39.972Z</time>
      </trkpt>
      <trkpt lat="47.99801" lon="-4.47028">
        <ele>73.6</ele>
        <time>2022-04-06T13:41:41.143Z</time>
      </trkpt>
      <trkpt lat="47.99809" lon="-4.47037">
        <ele>73.8</ele>
        <time>2022-04-06T13:41:42.276Z</time>
      </trkpt>
      <trkpt lat="47.99812" lon="-4.47047">
        <ele>73.8</ele>
        <time>2022-04-06T13:41:43.070Z</time>
      </trkpt>
      <trkpt lat="47.99815" lon="-4.47061">
        <ele>73.8</ele>
        <time>2022-04-06T13:41:44.151Z</time>
      </trkpt>
      <trkpt lat="47.99817" lon="-4.47109">
        <ele>73.9</ele>
        <time>2022-04-06T13:41:47.721Z</time>
      </trkpt>
      <trkpt lat="47.99818" lon="-4.47155">
        <ele>74.5</ele>
        <time>2022-04-06T13:41:51.161Z</time>
      </trkpt>
      <trkpt lat="47.99819" lon="-4.4719">
        <ele>74.7</ele>
        <time>2022-04-06T13:41:53.772Z</time>
      </trkpt>
      <trkpt lat="47.99818" lon="-4.47201">
        <ele>74.6</ele>
        <time>2022-04-06T13:41:54.615Z</time>
      </trkpt>
      <trkpt lat="47.99815" lon="-4.47224">
        <ele>74.6</ele>
        <time>2022-04-06T13:41:56.373Z</time>
      </trkpt>
      <trkpt lat="47.99784" lon="-4.47352">
        <ele>73.3</ele>
        <time>2022-04-06T13:42:06.489Z</time>
      </trkpt>
      <trkpt lat="47.99775" lon="-4.47385">
        <ele>73.1</ele>
        <time>2022-04-06T13:42:09.126Z</time>
      </trkpt>
      <trkpt lat="47.99713" lon="-4.47602">
        <ele>62.7</ele>
        <time>2022-04-06T13:42:26.709Z</time>
      </trkpt>
      <trkpt lat="47.997" lon="-4.47624">
        <ele>61.3</ele>
        <time>2022-04-06T13:42:28.899Z</time>
      </trkpt>
      <trkpt lat="47.9969" lon="-4.47633">
        <ele>60.6</ele>
        <time>2022-04-06T13:42:30.178Z</time>
      </trkpt>
      <trkpt lat="47.99682" lon="-4.47643">
        <ele>60</ele>
        <time>2022-04-06T13:42:31.349Z</time>
      </trkpt>
      <trkpt lat="47.99675" lon="-4.47654">
        <ele>59.5</ele>
        <time>2022-04-06T13:42:32.541Z</time>
      </trkpt>
      <trkpt lat="47.99669" lon="-4.47668">
        <ele>59.2</ele>
        <time>2022-04-06T13:42:33.779Z</time>
      </trkpt>
      <trkpt lat="47.99666" lon="-4.4768">
        <ele>59.6</ele>
        <time>2022-04-06T13:42:34.668Z</time>
      </trkpt>
      <trkpt lat="47.99649" lon="-4.47671">
        <ele>59.2</ele>
        <time>2022-04-06T13:42:36.666Z</time>
      </trkpt>
      <trkpt lat="47.99642" lon="-4.47668">
        <ele>59.1</ele>
        <time>2022-04-06T13:42:37.506Z</time>
      </trkpt>
      <trkpt lat="47.99633" lon="-4.47667">
        <ele>59</ele>
        <time>2022-04-06T13:42:38.469Z</time>
      </trkpt>
      <trkpt lat="47.99626" lon="-4.47667">
        <ele>59.1</ele>
        <time>2022-04-06T13:42:39.234Z</time>
      </trkpt>
      <trkpt lat="47.9962" lon="-4.47669">
        <ele>59.1</ele>
        <time>2022-04-06T13:42:39.955Z</time>
      </trkpt>
      <trkpt lat="47.99617" lon="-4.47668">
        <ele>59.1</ele>
        <time>2022-04-06T13:42:40.366Z</time>
      </trkpt>
      <trkpt lat="47.99611" lon="-4.47663">
        <ele>58.9</ele>
        <time>2022-04-06T13:42:41.076Z</time>
      </trkpt>
      <trkpt lat="47.99572" lon="-4.47604">
        <ele>55.6</ele>
        <time>2022-04-06T13:42:47.258Z</time>
      </trkpt>
      <trkpt lat="47.99566" lon="-4.47593">
        <ele>55.2</ele>
        <time>2022-04-06T13:42:48.289Z</time>
      </trkpt>
      <trkpt lat="47.99563" lon="-4.47582">
        <ele>54.7</ele>
        <time>2022-04-06T13:42:49.200Z</time>
      </trkpt>
      <trkpt lat="47.9956" lon="-4.47565">
        <ele>54.5</ele>
        <time>2022-04-06T13:42:50.477Z</time>
      </trkpt>
      <trkpt lat="47.99563" lon="-4.47563">
        <ele>54.4</ele>
        <time>2022-04-06T13:42:50.813Z</time>
      </trkpt>
      <trkpt lat="47.99565" lon="-4.47558">
        <ele>54.2</ele>
        <time>2022-04-06T13:42:51.272Z</time>
      </trkpt>
      <trkpt lat="47.99566" lon="-4.47548">
        <ele>54</ele>
        <time>2022-04-06T13:42:52.026Z</time>
      </trkpt>
      <trkpt lat="47.99571" lon="-4.47498">
        <ele>53.1</ele>
        <time>2022-04-06T13:42:55.751Z</time>
      </trkpt>
      <trkpt lat="47.99573" lon="-4.47457">
        <ele>52.9</ele>
        <time>2022-04-06T13:42:58.853Z</time>
      </trkpt>
      <trkpt lat="47.99571" lon="-4.47447">
        <ele>52.9</ele>
        <time>2022-04-06T13:42:59.629Z</time>
      </trkpt>
      <trkpt lat="47.99562" lon="-4.47435">
        <ele>52.7</ele>
        <time>2022-04-06T13:43:00.950Z</time>
      </trkpt>
      <trkpt lat="47.99547" lon="-4.47423">
        <ele>52.2</ele>
        <time>2022-04-06T13:43:02.833Z</time>
      </trkpt>
      <trkpt lat="47.99509" lon="-4.47407">
        <ele>51.6</ele>
        <time>2022-04-06T13:43:07.253Z</time>
      </trkpt>
      <trkpt lat="47.99485" lon="-4.47388">
        <ele>51.5</ele>
        <time>2022-04-06T13:43:10.307Z</time>
      </trkpt>
      <trkpt lat="47.99465" lon="-4.47385">
        <ele>50.8</ele>
        <time>2022-04-06T13:43:12.520Z</time>
      </trkpt>
      <trkpt lat="47.99416" lon="-4.47399">
        <ele>49.3</ele>
        <time>2022-04-06T13:43:18.076Z</time>
      </trkpt>
      <trkpt lat="47.99407" lon="-4.47401">
        <ele>49</ele>
        <time>2022-04-06T13:43:19.135Z</time>
      </trkpt>
      <trkpt lat="47.99398" lon="-4.47401">
        <ele>48.5</ele>
        <time>2022-04-06T13:43:20.092Z</time>
      </trkpt>
      <trkpt lat="47.9935" lon="-4.47383">
        <ele>44.9</ele>
        <time>2022-04-06T13:43:25.651Z</time>
      </trkpt>
      <trkpt lat="47.99274" lon="-4.47355">
        <ele>38.1</ele>
        <time>2022-04-06T13:43:34.381Z</time>
      </trkpt>
      <trkpt lat="47.99263" lon="-4.4733">
        <ele>35.5</ele>
        <time>2022-04-06T13:43:36.667Z</time>
      </trkpt>
      <trkpt lat="47.99232" lon="-4.47338">
        <ele>33.3</ele>
        <time>2022-04-06T13:43:40.105Z</time>
      </trkpt>
      <trkpt lat="47.99218" lon="-4.47355">
        <ele>34</ele>
        <time>2022-04-06T13:43:42.124Z</time>
      </trkpt>
      <trkpt lat="47.99187" lon="-4.474">
        <ele>36.1</ele>
        <time>2022-04-06T13:43:46.895Z</time>
      </trkpt>
      <trkpt lat="47.99174" lon="-4.47392">
        <ele>34.2</ele>
        <time>2022-04-06T13:43:48.506Z</time>
      </trkpt>
      <trkpt lat="47.99152" lon="-4.4741">
        <ele>33.2</ele>
        <time>2022-04-06T13:43:51.290Z</time>
      </trkpt>
      <trkpt lat="47.99149" lon="-4.47429">
        <ele>33.8</ele>
        <time>2022-04-06T13:43:52.776Z</time>
      </trkpt>
      <trkpt lat="47.99139" lon="-4.47458">
        <ele>33.5</ele>
        <time>2022-04-06T13:43:55.212Z</time>
      </trkpt>
      <trkpt lat="47.99136" lon="-4.47463">
        <ele>33.3</ele>
        <time>2022-04-06T13:43:55.706Z</time>
      </trkpt>
      <trkpt lat="47.99126" lon="-4.47469">
        <ele>31.8</ele>
        <time>2022-04-06T13:43:56.904Z</time>
      </trkpt>
      <trkpt lat="47.99115" lon="-4.47486">
        <ele>30.7</ele>
        <time>2022-04-06T13:43:58.676Z</time>
      </trkpt>
      <trkpt lat="47.99107" lon="-4.47498">
        <ele>30</ele>
        <time>2022-04-06T13:43:59.901Z</time>
      </trkpt>
      <trkpt lat="47.99098" lon="-4.4751">
        <ele>28.3</ele>
        <time>2022-04-06T13:44:01.339Z</time>
      </trkpt>
      <trkpt lat="47.99086" lon="-4.47533">
        <ele>26</ele>
        <time>2022-04-06T13:44:03.480Z</time>
      </trkpt>
      <trkpt lat="47.99083" lon="-4.47552">
        <ele>25.3</ele>
        <time>2022-04-06T13:44:04.955Z</time>
      </trkpt>
      <trkpt lat="47.99082" lon="-4.47577">
        <ele>24.9</ele>
        <time>2022-04-06T13:44:06.784Z</time>
      </trkpt>
      <trkpt lat="47.99084" lon="-4.47585">
        <ele>25.1</ele>
        <time>2022-04-06T13:44:07.423Z</time>
      </trkpt>
      <trkpt lat="47.99097" lon="-4.47609">
        <ele>26.8</ele>
        <time>2022-04-06T13:44:09.716Z</time>
      </trkpt>
      <trkpt lat="47.99098" lon="-4.47655">
        <ele>26.3</ele>
        <time>2022-04-06T13:44:13.154Z</time>
      </trkpt>
      <trkpt lat="47.99096" lon="-4.47662">
        <ele>25.9</ele>
        <time>2022-04-06T13:44:13.739Z</time>
      </trkpt>
      <trkpt lat="47.99071" lon="-4.47774">
        <ele>17.8</ele>
        <time>2022-04-06T13:44:22.534Z</time>
      </trkpt>
      <trkpt lat="47.99058" lon="-4.47767">
        <ele>16.7</ele>
        <time>2022-04-06T13:44:24.087Z</time>
      </trkpt>
      <trkpt lat="47.99051" lon="-4.47763">
        <ele>16</ele>
        <time>2022-04-06T13:44:24.956Z</time>
      </trkpt>
      <trkpt lat="47.99043" lon="-4.4776">
        <ele>15.1</ele>
        <time>2022-04-06T13:44:25.893Z</time>
      </trkpt>
      <trkpt lat="47.99037" lon="-4.47761">
        <ele>14.4</ele>
        <time>2022-04-06T13:44:26.523Z</time>
      </trkpt>
      <trkpt lat="47.9903" lon="-4.47759">
        <ele>13.6</ele>
        <time>2022-04-06T13:44:27.349Z</time>
      </trkpt>
      <trkpt lat="47.99023" lon="-4.47753">
        <ele>13</ele>
        <time>2022-04-06T13:44:28.252Z</time>
      </trkpt>
      <trkpt lat="47.99022" lon="-4.47753">
        <ele>12.8</ele>
        <time>2022-04-06T13:44:28.365Z</time>
      </trkpt>
      <trkpt lat="47.99023" lon="-4.47753">
        <ele>13</ele>
        <time>2022-04-06T13:44:28.477Z</time>
      </trkpt>
      <trkpt lat="47.99023" lon="-4.47742">
        <ele>13.2</ele>
        <time>2022-04-06T13:44:29.260Z</time>
      </trkpt>
      <trkpt lat="47.99023" lon="-4.47726">
        <ele>13.5</ele>
        <time>2022-04-06T13:44:30.434Z</time>
      </trkpt>
      <trkpt lat="47.99022" lon="-4.4771">
        <ele>13.6</ele>
        <time>2022-04-06T13:44:31.656Z</time>
      </trkpt>
      <trkpt lat="47.9902" lon="-4.47688">
        <ele>13.7</ele>
        <time>2022-04-06T13:44:33.314Z</time>
      </trkpt>
      <trkpt lat="47.99016" lon="-4.47619">
        <ele>14</ele>
        <time>2022-04-06T13:44:38.480Z</time>
      </trkpt>
      <trkpt lat="47.99012" lon="-4.47514">
        <ele>14.7</ele>
        <time>2022-04-06T13:44:46.275Z</time>
      </trkpt>
      <trkpt lat="47.99008" lon="-4.47411">
        <ele>16</ele>
        <time>2022-04-06T13:44:53.981Z</time>
      </trkpt>
      <trkpt lat="47.99007" lon="-4.47353">
        <ele>18.4</ele>
        <time>2022-04-06T13:44:58.296Z</time>
      </trkpt>
      <trkpt lat="47.99007" lon="-4.47305">
        <ele>20.2</ele>
        <time>2022-04-06T13:45:01.866Z</time>
      </trkpt>
      <trkpt lat="47.99007" lon="-4.47279">
        <ele>21.3</ele>
        <time>2022-04-06T13:45:03.825Z</time>
      </trkpt>
      <trkpt lat="47.99006" lon="-4.47265">
        <ele>21.7</ele>
        <time>2022-04-06T13:45:04.875Z</time>
      </trkpt>
      <trkpt lat="47.99005" lon="-4.47256">
        <ele>22.1</ele>
        <time>2022-04-06T13:45:05.528Z</time>
      </trkpt>
      <trkpt lat="47.99004" lon="-4.47245">
        <ele>22.4</ele>
        <time>2022-04-06T13:45:06.336Z</time>
      </trkpt>
      <trkpt lat="47.99" lon="-4.47224">
        <ele>22.9</ele>
        <time>2022-04-06T13:45:07.948Z</time>
      </trkpt>
      <trkpt lat="47.98992" lon="-4.47178">
        <ele>25</ele>
        <time>2022-04-06T13:45:11.561Z</time>
      </trkpt>
      <trkpt lat="47.98984" lon="-4.4714">
        <ele>27.2</ele>
        <time>2022-04-06T13:45:14.508Z</time>
      </trkpt>
      <trkpt lat="47.9898" lon="-4.47117">
        <ele>28.6</ele>
        <time>2022-04-06T13:45:16.265Z</time>
      </trkpt>
      <trkpt lat="47.98977" lon="-4.47091">
        <ele>30.1</ele>
        <time>2022-04-06T13:45:18.231Z</time>
      </trkpt>
      <trkpt lat="47.98975" lon="-4.4708">
        <ele>30.7</ele>
        <time>2022-04-06T13:45:19.114Z</time>
      </trkpt>
      <trkpt lat="47.98975" lon="-4.4707">
        <ele>30.9</ele>
        <time>2022-04-06T13:45:19.855Z</time>
      </trkpt>
      <trkpt lat="47.98975" lon="-4.47057">
        <ele>31.3</ele>
        <time>2022-04-06T13:45:20.769Z</time>
      </trkpt>
      <trkpt lat="47.98974" lon="-4.47049">
        <ele>31.5</ele>
        <time>2022-04-06T13:45:21.424Z</time>
      </trkpt>
      <trkpt lat="47.98973" lon="-4.47039">
        <ele>31.7</ele>
        <time>2022-04-06T13:45:22.187Z</time>
      </trkpt>
      <trkpt lat="47.98971" lon="-4.47035">
        <ele>31.8</ele>
        <time>2022-04-06T13:45:22.485Z</time>
      </trkpt>
      <trkpt lat="47.98969" lon="-4.47033">
        <ele>31.9</ele>
        <time>2022-04-06T13:45:22.821Z</time>
      </trkpt>
      <trkpt lat="47.98964" lon="-4.47029">
        <ele>32</ele>
        <time>2022-04-06T13:45:23.463Z</time>
      </trkpt>
      <trkpt lat="47.9896" lon="-4.47025">
        <ele>32</ele>
        <time>2022-04-06T13:45:23.938Z</time>
      </trkpt>
      <trkpt lat="47.9896" lon="-4.47023">
        <ele>32.1</ele>
        <time>2022-04-06T13:45:24.118Z</time>
      </trkpt>
      <trkpt lat="47.98959" lon="-4.47021">
        <ele>32.1</ele>
        <time>2022-04-06T13:45:24.311Z</time>
      </trkpt>
      <trkpt lat="47.98955" lon="-4.47018">
        <ele>32.2</ele>
        <time>2022-04-06T13:45:24.815Z</time>
      </trkpt>
      <trkpt lat="47.98953" lon="-4.47012">
        <ele>32.2</ele>
        <time>2022-04-06T13:45:25.302Z</time>
      </trkpt>
      <trkpt lat="47.9895" lon="-4.47011">
        <ele>32.2</ele>
        <time>2022-04-06T13:45:25.594Z</time>
      </trkpt>
      <trkpt lat="47.98942" lon="-4.47009">
        <ele>32.2</ele>
        <time>2022-04-06T13:45:26.510Z</time>
      </trkpt>
      <trkpt lat="47.98935" lon="-4.47007">
        <ele>32.2</ele>
        <time>2022-04-06T13:45:27.339Z</time>
      </trkpt>
      <trkpt lat="47.9893" lon="-4.47004">
        <ele>32.1</ele>
        <time>2022-04-06T13:45:27.926Z</time>
      </trkpt>
      <trkpt lat="47.98926" lon="-4.47002">
        <ele>32.1</ele>
        <time>2022-04-06T13:45:28.318Z</time>
      </trkpt>
      <trkpt lat="47.98916" lon="-4.47">
        <ele>32</ele>
        <time>2022-04-06T13:45:29.429Z</time>
      </trkpt>
      <trkpt lat="47.98909" lon="-4.46999">
        <ele>32.1</ele>
        <time>2022-04-06T13:45:30.304Z</time>
      </trkpt>
      <trkpt lat="47.98906" lon="-4.46999">
        <ele>32.1</ele>
        <time>2022-04-06T13:45:30.582Z</time>
      </trkpt>
      <trkpt lat="47.98902" lon="-4.46998">
        <ele>32.2</ele>
        <time>2022-04-06T13:45:31.013Z</time>
      </trkpt>
      <trkpt lat="47.98895" lon="-4.46997">
        <ele>32.3</ele>
        <time>2022-04-06T13:45:31.877Z</time>
      </trkpt>
      <trkpt lat="47.9888" lon="-4.46994">
        <ele>32.5</ele>
        <time>2022-04-06T13:45:33.561Z</time>
      </trkpt>
      <trkpt lat="47.98865" lon="-4.46992">
        <ele>32.6</ele>
        <time>2022-04-06T13:45:35.146Z</time>
      </trkpt>
      <trkpt lat="47.98856" lon="-4.46991">
        <ele>32.8</ele>
        <time>2022-04-06T13:45:36.244Z</time>
      </trkpt>
      <trkpt lat="47.98844" lon="-4.46991">
        <ele>32.9</ele>
        <time>2022-04-06T13:45:37.486Z</time>
      </trkpt>
      <trkpt lat="47.98837" lon="-4.46992">
        <ele>33</ele>
        <time>2022-04-06T13:45:38.255Z</time>
      </trkpt>
      <trkpt lat="47.98827" lon="-4.46994">
        <ele>33</ele>
        <time>2022-04-06T13:45:39.455Z</time>
      </trkpt>
      <trkpt lat="47.98808" lon="-4.47001">
        <ele>33</ele>
        <time>2022-04-06T13:45:41.573Z</time>
      </trkpt>
      <trkpt lat="47.98773" lon="-4.47016">
        <ele>32.8</ele>
        <time>2022-04-06T13:45:45.681Z</time>
      </trkpt>
      <trkpt lat="47.98744" lon="-4.47027">
        <ele>32.6</ele>
        <time>2022-04-06T13:45:48.984Z</time>
      </trkpt>
      <trkpt lat="47.98735" lon="-4.47032">
        <ele>32.4</ele>
        <time>2022-04-06T13:45:50.063Z</time>
      </trkpt>
      <trkpt lat="47.98728" lon="-4.4698">
        <ele>32.7</ele>
        <time>2022-04-06T13:45:54.013Z</time>
      </trkpt>
      <trkpt lat="47.98722" lon="-4.46942">
        <ele>32.7</ele>
        <time>2022-04-06T13:45:56.875Z</time>
      </trkpt>
      <trkpt lat="47.98715" lon="-4.46905">
        <ele>32.5</ele>
        <time>2022-04-06T13:45:59.762Z</time>
      </trkpt>
      <trkpt lat="47.9871" lon="-4.46881">
        <ele>32.1</ele>
        <time>2022-04-06T13:46:01.619Z</time>
      </trkpt>
      <trkpt lat="47.98707" lon="-4.46864">
        <ele>31.8</ele>
        <time>2022-04-06T13:46:02.912Z</time>
      </trkpt>
      <trkpt lat="47.98704" lon="-4.46854">
        <ele>31.6</ele>
        <time>2022-04-06T13:46:03.735Z</time>
      </trkpt>
      <trkpt lat="47.98692" lon="-4.46788">
        <ele>30.2</ele>
        <time>2022-04-06T13:46:08.819Z</time>
      </trkpt>
      <trkpt lat="47.98681" lon="-4.46727">
        <ele>28.8</ele>
        <time>2022-04-06T13:46:13.559Z</time>
      </trkpt>
      <trkpt lat="47.98676" lon="-4.46696">
        <ele>28</ele>
        <time>2022-04-06T13:46:15.893Z</time>
      </trkpt>
      <trkpt lat="47.98671" lon="-4.46668">
        <ele>27.2</ele>
        <time>2022-04-06T13:46:18.088Z</time>
      </trkpt>
      <trkpt lat="47.98668" lon="-4.46651">
        <ele>26.5</ele>
        <time>2022-04-06T13:46:19.395Z</time>
      </trkpt>
      <trkpt lat="47.98666" lon="-4.46638">
        <ele>26</ele>
        <time>2022-04-06T13:46:20.373Z</time>
      </trkpt>
      <trkpt lat="47.98665" lon="-4.46622">
        <ele>25.4</ele>
        <time>2022-04-06T13:46:21.557Z</time>
      </trkpt>
      <trkpt lat="47.98664" lon="-4.46608">
        <ele>24.8</ele>
        <time>2022-04-06T13:46:22.612Z</time>
      </trkpt>
      <trkpt lat="47.98663" lon="-4.46596">
        <ele>24.4</ele>
        <time>2022-04-06T13:46:23.494Z</time>
      </trkpt>
      <trkpt lat="47.98663" lon="-4.46587">
        <ele>24.1</ele>
        <time>2022-04-06T13:46:24.186Z</time>
      </trkpt>
      <trkpt lat="47.98663" lon="-4.46578">
        <ele>23.9</ele>
        <time>2022-04-06T13:46:24.841Z</time>
      </trkpt>
      <trkpt lat="47.98664" lon="-4.46565">
        <ele>23.7</ele>
        <time>2022-04-06T13:46:25.843Z</time>
      </trkpt>
      <trkpt lat="47.98664" lon="-4.46551">
        <ele>23.6</ele>
        <time>2022-04-06T13:46:26.842Z</time>
      </trkpt>
      <trkpt lat="47.98665" lon="-4.46544">
        <ele>23.5</ele>
        <time>2022-04-06T13:46:27.384Z</time>
      </trkpt>
      <trkpt lat="47.98666" lon="-4.4654">
        <ele>23.5</ele>
        <time>2022-04-06T13:46:27.721Z</time>
      </trkpt>
      <trkpt lat="47.98668" lon="-4.46536">
        <ele>23.5</ele>
        <time>2022-04-06T13:46:28.058Z</time>
      </trkpt>
      <trkpt lat="47.98666" lon="-4.46529">
        <ele>23.3</ele>
        <time>2022-04-06T13:46:28.606Z</time>
      </trkpt>
      <trkpt lat="47.98679" lon="-4.4647">
        <ele>24.1</ele>
        <time>2022-04-06T13:46:33.196Z</time>
      </trkpt>
      <trkpt lat="47.9867" lon="-4.46458">
        <ele>23.7</ele>
        <time>2022-04-06T13:46:34.494Z</time>
      </trkpt>
      <trkpt lat="47.98665" lon="-4.46453">
        <ele>23.5</ele>
        <time>2022-04-06T13:46:35.188Z</time>
      </trkpt>
      <trkpt lat="47.98661" lon="-4.46448">
        <ele>23.3</ele>
        <time>2022-04-06T13:46:35.756Z</time>
      </trkpt>
      <trkpt lat="47.98659" lon="-4.46447">
        <ele>23.2</ele>
        <time>2022-04-06T13:46:35.986Z</time>
      </trkpt>
      <trkpt lat="47.98615" lon="-4.46415">
        <ele>20.2</ele>
        <time>2022-04-06T13:46:41.504Z</time>
      </trkpt>
      <trkpt lat="47.98612" lon="-4.46412">
        <ele>20</ele>
        <time>2022-04-06T13:46:41.883Z</time>
      </trkpt>
      <trkpt lat="47.98609" lon="-4.46409">
        <ele>19.7</ele>
        <time>2022-04-06T13:46:42.282Z</time>
      </trkpt>
      <trkpt lat="47.98606" lon="-4.46406">
        <ele>19.4</ele>
        <time>2022-04-06T13:46:42.669Z</time>
      </trkpt>
      <trkpt lat="47.98604" lon="-4.46402">
        <ele>19.2</ele>
        <time>2022-04-06T13:46:43.025Z</time>
      </trkpt>
      <trkpt lat="47.98601" lon="-4.46398">
        <ele>19</ele>
        <time>2022-04-06T13:46:43.476Z</time>
      </trkpt>
      <trkpt lat="47.986" lon="-4.46392">
        <ele>18.8</ele>
        <time>2022-04-06T13:46:43.951Z</time>
      </trkpt>
      <trkpt lat="47.98598" lon="-4.46385">
        <ele>18.6</ele>
        <time>2022-04-06T13:46:44.451Z</time>
      </trkpt>
      <trkpt lat="47.98598" lon="-4.4638">
        <ele>18.5</ele>
        <time>2022-04-06T13:46:44.842Z</time>
      </trkpt>
      <trkpt lat="47.98598" lon="-4.46375">
        <ele>18.4</ele>
        <time>2022-04-06T13:46:45.241Z</time>
      </trkpt>
      <trkpt lat="47.98597" lon="-4.46364">
        <ele>18.2</ele>
        <time>2022-04-06T13:46:46.036Z</time>
      </trkpt>
      <trkpt lat="47.98598" lon="-4.46349">
        <ele>18</ele>
        <time>2022-04-06T13:46:47.160Z</time>
      </trkpt>
      <trkpt lat="47.98601" lon="-4.46338">
        <ele>18</ele>
        <time>2022-04-06T13:46:48.050Z</time>
      </trkpt>
      <trkpt lat="47.98605" lon="-4.46329">
        <ele>17.8</ele>
        <time>2022-04-06T13:46:48.826Z</time>
      </trkpt>
      <trkpt lat="47.98607" lon="-4.46323">
        <ele>17.5</ele>
        <time>2022-04-06T13:46:49.327Z</time>
      </trkpt>
      <trkpt lat="47.98618" lon="-4.46295">
        <ele>15.7</ele>
        <time>2022-04-06T13:46:51.714Z</time>
      </trkpt>
      <trkpt lat="47.98621" lon="-4.46282">
        <ele>14.9</ele>
        <time>2022-04-06T13:46:52.779Z</time>
      </trkpt>
      <trkpt lat="47.98623" lon="-4.46282">
        <ele>14.9</ele>
        <time>2022-04-06T13:46:53.021Z</time>
      </trkpt>
      <trkpt lat="47.98625" lon="-4.46281">
        <ele>14.9</ele>
        <time>2022-04-06T13:46:53.217Z</time>
      </trkpt>
      <trkpt lat="47.98626" lon="-4.4628">
        <ele>14.9</ele>
        <time>2022-04-06T13:46:53.365Z</time>
      </trkpt>
      <trkpt lat="47.98628" lon="-4.46281">
        <ele>15</ele>
        <time>2022-04-06T13:46:53.599Z</time>
      </trkpt>
      <trkpt lat="47.98629" lon="-4.46281">
        <ele>15.1</ele>
        <time>2022-04-06T13:46:53.789Z</time>
      </trkpt>
      <trkpt lat="47.98632" lon="-4.46281">
        <ele>15.2</ele>
        <time>2022-04-06T13:46:54.076Z</time>
      </trkpt>
      <trkpt lat="47.98636" lon="-4.46278">
        <ele>15.2</ele>
        <time>2022-04-06T13:46:54.580Z</time>
      </trkpt>
      <trkpt lat="47.98645" lon="-4.46271">
        <ele>14.9</ele>
        <time>2022-04-06T13:46:55.751Z</time>
      </trkpt>
      <trkpt lat="47.9865" lon="-4.46266">
        <ele>14.7</ele>
        <time>2022-04-06T13:46:56.408Z</time>
      </trkpt>
      <trkpt lat="47.98656" lon="-4.46263">
        <ele>14.7</ele>
        <time>2022-04-06T13:46:57.097Z</time>
      </trkpt>
      <trkpt lat="47.98661" lon="-4.46262">
        <ele>14.9</ele>
        <time>2022-04-06T13:46:57.675Z</time>
      </trkpt>
      <trkpt lat="47.98663" lon="-4.46262">
        <ele>14.8</ele>
        <time>2022-04-06T13:46:57.918Z</time>
      </trkpt>
      <trkpt lat="47.98676" lon="-4.46259">
        <ele>15.8</ele>
        <time>2022-04-06T13:46:59.411Z</time>
      </trkpt>
      <trkpt lat="47.98683" lon="-4.46259">
        <ele>16.5</ele>
        <time>2022-04-06T13:47:00.181Z</time>
      </trkpt>
      <trkpt lat="47.98689" lon="-4.46259">
        <ele>17</ele>
        <time>2022-04-06T13:47:00.756Z</time>
      </trkpt>
      <trkpt lat="47.98694" lon="-4.4626">
        <ele>17.6</ele>
        <time>2022-04-06T13:47:01.347Z</time>
      </trkpt>
      <trkpt lat="47.987" lon="-4.46264">
        <ele>18.5</ele>
        <time>2022-04-06T13:47:02.070Z</time>
      </trkpt>
      <trkpt lat="47.98705" lon="-4.46266">
        <ele>19.1</ele>
        <time>2022-04-06T13:47:02.659Z</time>
      </trkpt>
      <trkpt lat="47.9871" lon="-4.46266">
        <ele>19.6</ele>
        <time>2022-04-06T13:47:03.283Z</time>
      </trkpt>
      <trkpt lat="47.98716" lon="-4.46265">
        <ele>20.2</ele>
        <time>2022-04-06T13:47:03.908Z</time>
      </trkpt>
      <trkpt lat="47.98724" lon="-4.46264">
        <ele>20.9</ele>
        <time>2022-04-06T13:47:04.774Z</time>
      </trkpt>
      <trkpt lat="47.98728" lon="-4.46263">
        <ele>21.2</ele>
        <time>2022-04-06T13:47:05.214Z</time>
      </trkpt>
      <trkpt lat="47.98731" lon="-4.46262">
        <ele>21.5</ele>
        <time>2022-04-06T13:47:05.653Z</time>
      </trkpt>
      <trkpt lat="47.98738" lon="-4.46257">
        <ele>22</ele>
        <time>2022-04-06T13:47:06.432Z</time>
      </trkpt>
      <trkpt lat="47.98743" lon="-4.46252">
        <ele>22.4</ele>
        <time>2022-04-06T13:47:07.153Z</time>
      </trkpt>
      <trkpt lat="47.98746" lon="-4.46246">
        <ele>22.5</ele>
        <time>2022-04-06T13:47:07.730Z</time>
      </trkpt>
      <trkpt lat="47.98749" lon="-4.46242">
        <ele>22.7</ele>
        <time>2022-04-06T13:47:08.119Z</time>
      </trkpt>
      <trkpt lat="47.98753" lon="-4.46239">
        <ele>23.2</ele>
        <time>2022-04-06T13:47:08.666Z</time>
      </trkpt>
      <trkpt lat="47.98758" lon="-4.46235">
        <ele>23.8</ele>
        <time>2022-04-06T13:47:09.276Z</time>
      </trkpt>
      <trkpt lat="47.98763" lon="-4.46229">
        <ele>24.4</ele>
        <time>2022-04-06T13:47:09.957Z</time>
      </trkpt>
      <trkpt lat="47.98768" lon="-4.46224">
        <ele>25.1</ele>
        <time>2022-04-06T13:47:10.670Z</time>
      </trkpt>
      <trkpt lat="47.98777" lon="-4.46217">
        <ele>26.3</ele>
        <time>2022-04-06T13:47:11.807Z</time>
      </trkpt>
      <trkpt lat="47.98781" lon="-4.46212">
        <ele>26.8</ele>
        <time>2022-04-06T13:47:12.362Z</time>
      </trkpt>
      <trkpt lat="47.98786" lon="-4.46207">
        <ele>27.4</ele>
        <time>2022-04-06T13:47:13.046Z</time>
      </trkpt>
      <trkpt lat="47.98805" lon="-4.46187">
        <ele>30</ele>
        <time>2022-04-06T13:47:15.667Z</time>
      </trkpt>
      <trkpt lat="47.98816" lon="-4.4616">
        <ele>31</ele>
        <time>2022-04-06T13:47:17.974Z</time>
      </trkpt>
      <trkpt lat="47.9882" lon="-4.46152">
        <ele>31.3</ele>
        <time>2022-04-06T13:47:18.748Z</time>
      </trkpt>
      <trkpt lat="47.98829" lon="-4.46142">
        <ele>32.3</ele>
        <time>2022-04-06T13:47:20.013Z</time>
      </trkpt>
      <trkpt lat="47.98835" lon="-4.46138">
        <ele>32.6</ele>
        <time>2022-04-06T13:47:20.725Z</time>
      </trkpt>
      <trkpt lat="47.98839" lon="-4.46134">
        <ele>32.4</ele>
        <time>2022-04-06T13:47:21.251Z</time>
      </trkpt>
      <trkpt lat="47.9884" lon="-4.46131">
        <ele>32.3</ele>
        <time>2022-04-06T13:47:21.510Z</time>
      </trkpt>
      <trkpt lat="47.98841" lon="-4.46128">
        <ele>32.1</ele>
        <time>2022-04-06T13:47:21.789Z</time>
      </trkpt>
      <trkpt lat="47.98842" lon="-4.46121">
        <ele>31.8</ele>
        <time>2022-04-06T13:47:22.278Z</time>
      </trkpt>
      <trkpt lat="47.98845" lon="-4.46097">
        <ele>30.7</ele>
        <time>2022-04-06T13:47:24.095Z</time>
      </trkpt>
      <trkpt lat="47.98848" lon="-4.46072">
        <ele>29.2</ele>
        <time>2022-04-06T13:47:25.999Z</time>
      </trkpt>
      <trkpt lat="47.98849" lon="-4.46047">
        <ele>27.3</ele>
        <time>2022-04-06T13:47:27.884Z</time>
      </trkpt>
      <trkpt lat="47.9885" lon="-4.46014">
        <ele>24.9</ele>
        <time>2022-04-06T13:47:30.376Z</time>
      </trkpt>
      <trkpt lat="47.98851" lon="-4.46006">
        <ele>24.3</ele>
        <time>2022-04-06T13:47:31.004Z</time>
      </trkpt>
      <trkpt lat="47.98854" lon="-4.45997">
        <ele>23.6</ele>
        <time>2022-04-06T13:47:31.701Z</time>
      </trkpt>
      <trkpt lat="47.98859" lon="-4.4599">
        <ele>23.3</ele>
        <time>2022-04-06T13:47:32.476Z</time>
      </trkpt>
      <trkpt lat="47.98866" lon="-4.45985">
        <ele>23</ele>
        <time>2022-04-06T13:47:33.355Z</time>
      </trkpt>
      <trkpt lat="47.98871" lon="-4.45982">
        <ele>22.8</ele>
        <time>2022-04-06T13:47:33.953Z</time>
      </trkpt>
      <trkpt lat="47.98876" lon="-4.4598">
        <ele>22.7</ele>
        <time>2022-04-06T13:47:34.495Z</time>
      </trkpt>
      <trkpt lat="47.98883" lon="-4.45978">
        <ele>22.5</ele>
        <time>2022-04-06T13:47:35.233Z</time>
      </trkpt>
      <trkpt lat="47.98889" lon="-4.45977">
        <ele>22.4</ele>
        <time>2022-04-06T13:47:35.908Z</time>
      </trkpt>
      <trkpt lat="47.98896" lon="-4.45976">
        <ele>22.2</ele>
        <time>2022-04-06T13:47:36.720Z</time>
      </trkpt>
      <trkpt lat="47.98902" lon="-4.45977">
        <ele>22.2</ele>
        <time>2022-04-06T13:47:37.437Z</time>
      </trkpt>
      <trkpt lat="47.98924" lon="-4.45981">
        <ele>22.3</ele>
        <time>2022-04-06T13:47:39.897Z</time>
      </trkpt>
      <trkpt lat="47.98943" lon="-4.45987">
        <ele>23.4</ele>
        <time>2022-04-06T13:47:42.050Z</time>
      </trkpt>
      <trkpt lat="47.98969" lon="-4.45996">
        <ele>24.7</ele>
        <time>2022-04-06T13:47:45.037Z</time>
      </trkpt>
      <trkpt lat="47.9899" lon="-4.46007">
        <ele>25.7</ele>
        <time>2022-04-06T13:47:47.520Z</time>
      </trkpt>
      <trkpt lat="47.98995" lon="-4.46011">
        <ele>25.9</ele>
        <time>2022-04-06T13:47:48.085Z</time>
      </trkpt>
      <trkpt lat="47.99" lon="-4.46017">
        <ele>26</ele>
        <time>2022-04-06T13:47:48.806Z</time>
      </trkpt>
      <trkpt lat="47.99001" lon="-4.46023">
        <ele>26.1</ele>
        <time>2022-04-06T13:47:49.223Z</time>
      </trkpt>
      <trkpt lat="47.99005" lon="-4.46038">
        <ele>26.5</ele>
        <time>2022-04-06T13:47:50.432Z</time>
      </trkpt>
      <trkpt lat="47.99009" lon="-4.46058">
        <ele>26.8</ele>
        <time>2022-04-06T13:47:52.015Z</time>
      </trkpt>
      <trkpt lat="47.99011" lon="-4.46069">
        <ele>27.1</ele>
        <time>2022-04-06T13:47:52.833Z</time>
      </trkpt>
      <trkpt lat="47.99011" lon="-4.46075">
        <ele>27.1</ele>
        <time>2022-04-06T13:47:53.293Z</time>
      </trkpt>
      <trkpt lat="47.99014" lon="-4.46084">
        <ele>27.4</ele>
        <time>2022-04-06T13:47:54.047Z</time>
      </trkpt>
      <trkpt lat="47.99016" lon="-4.46089">
        <ele>27.6</ele>
        <time>2022-04-06T13:47:54.423Z</time>
      </trkpt>
      <trkpt lat="47.99021" lon="-4.46098">
        <ele>28.3</ele>
        <time>2022-04-06T13:47:55.361Z</time>
      </trkpt>
      <trkpt lat="47.99027" lon="-4.46109">
        <ele>29</ele>
        <time>2022-04-06T13:47:56.425Z</time>
      </trkpt>
      <trkpt lat="47.99041" lon="-4.46124">
        <ele>30.5</ele>
        <time>2022-04-06T13:47:58.369Z</time>
      </trkpt>
      <trkpt lat="47.99086" lon="-4.46171">
        <ele>34.4</ele>
        <time>2022-04-06T13:48:04.403Z</time>
      </trkpt>
      <trkpt lat="47.99092" lon="-4.46104">
        <ele>35.1</ele>
        <time>2022-04-06T13:48:09.396Z</time>
      </trkpt>
      <trkpt lat="47.99098" lon="-4.46056">
        <ele>35.6</ele>
        <time>2022-04-06T13:48:13.026Z</time>
      </trkpt>
      <trkpt lat="47.99109" lon="-4.45986">
        <ele>35.2</ele>
        <time>2022-04-06T13:48:18.420Z</time>
      </trkpt>
      <trkpt lat="47.99128" lon="-4.45897">
        <ele>32.6</ele>
        <time>2022-04-06T13:48:25.372Z</time>
      </trkpt>
      <trkpt lat="47.99135" lon="-4.45869">
        <ele>33.6</ele>
        <time>2022-04-06T13:48:27.598Z</time>
      </trkpt>
      <trkpt lat="47.99146" lon="-4.45822">
        <ele>35.3</ele>
        <time>2022-04-06T13:48:31.295Z</time>
      </trkpt>
      <trkpt lat="47.9915" lon="-4.45805">
        <ele>35.6</ele>
        <time>2022-04-06T13:48:32.644Z</time>
      </trkpt>
      <trkpt lat="47.99154" lon="-4.45789">
        <ele>36</ele>
        <time>2022-04-06T13:48:33.931Z</time>
      </trkpt>
      <trkpt lat="47.99141" lon="-4.45757">
        <ele>34.9</ele>
        <time>2022-04-06T13:48:36.691Z</time>
      </trkpt>
      <trkpt lat="47.99135" lon="-4.45735">
        <ele>34.4</ele>
        <time>2022-04-06T13:48:38.512Z</time>
      </trkpt>
      <trkpt lat="47.99135" lon="-4.45697">
        <ele>34.8</ele>
        <time>2022-04-06T13:48:41.339Z</time>
      </trkpt>
      <trkpt lat="47.99132" lon="-4.45663">
        <ele>34.9</ele>
        <time>2022-04-06T13:48:43.882Z</time>
      </trkpt>
      <trkpt lat="47.99128" lon="-4.45555">
        <ele>39.5</ele>
        <time>2022-04-06T13:48:51.991Z</time>
      </trkpt>
      <trkpt lat="47.99129" lon="-4.45413">
        <ele>41.6</ele>
        <time>2022-04-06T13:49:02.559Z</time>
      </trkpt>
      <trkpt lat="47.99129" lon="-4.45411">
        <ele>41.6</ele>
        <time>2022-04-06T13:49:02.646Z</time>
      </trkpt>
      <trkpt lat="47.99128" lon="-4.4525">
        <ele>42.9</ele>
        <time>2022-04-06T13:49:14.692Z</time>
      </trkpt>
      <trkpt lat="47.99126" lon="-4.45233">
        <ele>42.8</ele>
        <time>2022-04-06T13:49:15.909Z</time>
      </trkpt>
      <trkpt lat="47.99127" lon="-4.45213">
        <ele>43.3</ele>
        <time>2022-04-06T13:49:17.450Z</time>
      </trkpt>
      <trkpt lat="47.99145" lon="-4.45125">
        <ele>46.2</ele>
        <time>2022-04-06T13:49:24.320Z</time>
      </trkpt>
      <trkpt lat="47.99153" lon="-4.45088">
        <ele>47.2</ele>
        <time>2022-04-06T13:49:27.170Z</time>
      </trkpt>
      <trkpt lat="47.99166" lon="-4.45064">
        <ele>48.5</ele>
        <time>2022-04-06T13:49:29.467Z</time>
      </trkpt>
      <trkpt lat="47.99179" lon="-4.45047">
        <ele>49.7</ele>
        <time>2022-04-06T13:49:31.373Z</time>
      </trkpt>
      <trkpt lat="47.99192" lon="-4.45039">
        <ele>51.2</ele>
        <time>2022-04-06T13:49:32.919Z</time>
      </trkpt>
      <trkpt lat="47.99199" lon="-4.45032">
        <ele>52.1</ele>
        <time>2022-04-06T13:49:33.952Z</time>
      </trkpt>
      <trkpt lat="47.99227" lon="-4.44982">
        <ele>54.1</ele>
        <time>2022-04-06T13:49:38.780Z</time>
      </trkpt>
      <trkpt lat="47.99237" lon="-4.44966">
        <ele>54.3</ele>
        <time>2022-04-06T13:49:40.389Z</time>
      </trkpt>
      <trkpt lat="47.99244" lon="-4.44956">
        <ele>54.3</ele>
        <time>2022-04-06T13:49:41.487Z</time>
      </trkpt>
      <trkpt lat="47.99252" lon="-4.44949">
        <ele>54.5</ele>
        <time>2022-04-06T13:49:42.512Z</time>
      </trkpt>
      <trkpt lat="47.99271" lon="-4.44939">
        <ele>55</ele>
        <time>2022-04-06T13:49:44.754Z</time>
      </trkpt>
      <trkpt lat="47.99291" lon="-4.44933">
        <ele>56</ele>
        <time>2022-04-06T13:49:46.994Z</time>
      </trkpt>
      <trkpt lat="47.99318" lon="-4.44926">
        <ele>57.4</ele>
        <time>2022-04-06T13:49:50.050Z</time>
      </trkpt>
      <trkpt lat="47.99348" lon="-4.44922">
        <ele>58.9</ele>
        <time>2022-04-06T13:49:53.456Z</time>
      </trkpt>
      <trkpt lat="47.99377" lon="-4.44919">
        <ele>60.1</ele>
        <time>2022-04-06T13:49:56.616Z</time>
      </trkpt>
      <trkpt lat="47.99393" lon="-4.44915">
        <ele>60.9</ele>
        <time>2022-04-06T13:49:58.456Z</time>
      </trkpt>
      <trkpt lat="47.99409" lon="-4.44907">
        <ele>61.8</ele>
        <time>2022-04-06T13:50:00.358Z</time>
      </trkpt>
      <trkpt lat="47.99427" lon="-4.44894">
        <ele>62.7</ele>
        <time>2022-04-06T13:50:02.537Z</time>
      </trkpt>
      <trkpt lat="47.99445" lon="-4.44879">
        <ele>63.6</ele>
        <time>2022-04-06T13:50:04.882Z</time>
      </trkpt>
      <trkpt lat="47.99457" lon="-4.44867">
        <ele>64.3</ele>
        <time>2022-04-06T13:50:06.501Z</time>
      </trkpt>
      <trkpt lat="47.99468" lon="-4.4485">
        <ele>65.1</ele>
        <time>2022-04-06T13:50:08.240Z</time>
      </trkpt>
      <trkpt lat="47.99473" lon="-4.44838">
        <ele>65.6</ele>
        <time>2022-04-06T13:50:09.283Z</time>
      </trkpt>
      <trkpt lat="47.9948" lon="-4.44796">
        <ele>66.5</ele>
        <time>2022-04-06T13:50:12.494Z</time>
      </trkpt>
      <trkpt lat="47.99483" lon="-4.44772">
        <ele>66.9</ele>
        <time>2022-04-06T13:50:14.348Z</time>
      </trkpt>
      <trkpt lat="47.9949" lon="-4.44676">
        <ele>68.2</ele>
        <time>2022-04-06T13:50:21.492Z</time>
      </trkpt>
      <trkpt lat="47.99493" lon="-4.44621">
        <ele>68.5</ele>
        <time>2022-04-06T13:50:25.590Z</time>
      </trkpt>
      <trkpt lat="47.99495" lon="-4.446">
        <ele>68.7</ele>
        <time>2022-04-06T13:50:27.209Z</time>
      </trkpt>
      <trkpt lat="47.99497" lon="-4.44583">
        <ele>68.8</ele>
        <time>2022-04-06T13:50:28.460Z</time>
      </trkpt>
      <trkpt lat="47.99502" lon="-4.44561">
        <ele>69.1</ele>
        <time>2022-04-06T13:50:30.254Z</time>
      </trkpt>
      <trkpt lat="47.99509" lon="-4.44527">
        <ele>69.4</ele>
        <time>2022-04-06T13:50:32.828Z</time>
      </trkpt>
      <trkpt lat="47.99513" lon="-4.44488">
        <ele>69.5</ele>
        <time>2022-04-06T13:50:35.824Z</time>
      </trkpt>
      <trkpt lat="47.99518" lon="-4.44463">
        <ele>69.5</ele>
        <time>2022-04-06T13:50:37.712Z</time>
      </trkpt>
      <trkpt lat="47.99503" lon="-4.44467">
        <ele>68.8</ele>
        <time>2022-04-06T13:50:39.404Z</time>
      </trkpt>
      <trkpt lat="47.99481" lon="-4.44473">
        <ele>67.5</ele>
        <time>2022-04-06T13:50:41.881Z</time>
      </trkpt>
      <trkpt lat="47.99461" lon="-4.44479">
        <ele>66.2</ele>
        <time>2022-04-06T13:50:44.168Z</time>
      </trkpt>
      <trkpt lat="47.9945" lon="-4.44481">
        <ele>65.5</ele>
        <time>2022-04-06T13:50:45.370Z</time>
      </trkpt>
      <trkpt lat="47.99372" lon="-4.44469">
        <ele>63.6</ele>
        <time>2022-04-06T13:50:54.124Z</time>
      </trkpt>
      <trkpt lat="47.99107" lon="-4.44343">
        <ele>61.7</ele>
        <time>2022-04-06T13:51:25.097Z</time>
      </trkpt>
      <trkpt lat="47.99107" lon="-4.44327">
        <ele>61.7</ele>
        <time>2022-04-06T13:51:26.313Z</time>
      </trkpt>
      <trkpt lat="47.99104" lon="-4.44304">
        <ele>61.9</ele>
        <time>2022-04-06T13:51:28.041Z</time>
      </trkpt>
      <trkpt lat="47.99094" lon="-4.44248">
        <ele>62.4</ele>
        <time>2022-04-06T13:51:32.369Z</time>
      </trkpt>
      <trkpt lat="47.99087" lon="-4.44221">
        <ele>62.5</ele>
        <time>2022-04-06T13:51:34.511Z</time>
      </trkpt>
      <trkpt lat="47.99079" lon="-4.44201">
        <ele>62.6</ele>
        <time>2022-04-06T13:51:36.221Z</time>
      </trkpt>
      <trkpt lat="47.99073" lon="-4.44188">
        <ele>62.8</ele>
        <time>2022-04-06T13:51:37.415Z</time>
      </trkpt>
      <trkpt lat="47.99065" lon="-4.44176">
        <ele>62.9</ele>
        <time>2022-04-06T13:51:38.702Z</time>
      </trkpt>
      <trkpt lat="47.9905" lon="-4.4416">
        <ele>63</ele>
        <time>2022-04-06T13:51:40.680Z</time>
      </trkpt>
      <trkpt lat="47.99031" lon="-4.44142">
        <ele>63.1</ele>
        <time>2022-04-06T13:51:43.216Z</time>
      </trkpt>
      <trkpt lat="47.99016" lon="-4.44125">
        <ele>63.1</ele>
        <time>2022-04-06T13:51:45.347Z</time>
      </trkpt>
      <trkpt lat="47.99011" lon="-4.44116">
        <ele>63.1</ele>
        <time>2022-04-06T13:51:46.189Z</time>
      </trkpt>
      <trkpt lat="47.99009" lon="-4.44102">
        <ele>63.1</ele>
        <time>2022-04-06T13:51:47.245Z</time>
      </trkpt>
      <trkpt lat="47.98995" lon="-4.44103">
        <ele>63</ele>
        <time>2022-04-06T13:51:48.794Z</time>
      </trkpt>
      <trkpt lat="47.98987" lon="-4.44108">
        <ele>62.9</ele>
        <time>2022-04-06T13:51:49.811Z</time>
      </trkpt>
      <trkpt lat="47.98911" lon="-4.44144">
        <ele>62.5</ele>
        <time>2022-04-06T13:51:58.633Z</time>
      </trkpt>
      <trkpt lat="47.98897" lon="-4.44148">
        <ele>62.1</ele>
        <time>2022-04-06T13:52:00.280Z</time>
      </trkpt>
      <trkpt lat="47.98886" lon="-4.44148">
        <ele>61.7</ele>
        <time>2022-04-06T13:52:01.522Z</time>
      </trkpt>
      <trkpt lat="47.98874" lon="-4.44145">
        <ele>61.2</ele>
        <time>2022-04-06T13:52:02.876Z</time>
      </trkpt>
      <trkpt lat="47.98863" lon="-4.44139">
        <ele>60.7</ele>
        <time>2022-04-06T13:52:04.087Z</time>
      </trkpt>
      <trkpt lat="47.98849" lon="-4.44128">
        <ele>60.1</ele>
        <time>2022-04-06T13:52:05.825Z</time>
      </trkpt>
      <trkpt lat="47.9884" lon="-4.44117">
        <ele>59.6</ele>
        <time>2022-04-06T13:52:07.227Z</time>
      </trkpt>
      <trkpt lat="47.98827" lon="-4.44106">
        <ele>59.1</ele>
        <time>2022-04-06T13:52:08.839Z</time>
      </trkpt>
      <trkpt lat="47.98815" lon="-4.44098">
        <ele>58.7</ele>
        <time>2022-04-06T13:52:10.275Z</time>
      </trkpt>
      <trkpt lat="47.98802" lon="-4.44094">
        <ele>58.3</ele>
        <time>2022-04-06T13:52:11.793Z</time>
      </trkpt>
      <trkpt lat="47.98802" lon="-4.44087">
        <ele>58.3</ele>
        <time>2022-04-06T13:52:12.321Z</time>
      </trkpt>
      <trkpt lat="47.98801" lon="-4.44077">
        <ele>58.2</ele>
        <time>2022-04-06T13:52:13.025Z</time>
      </trkpt>
      <trkpt lat="47.98661" lon="-4.43806">
        <ele>64.5</ele>
        <time>2022-04-06T13:52:38.513Z</time>
      </trkpt>
      <trkpt lat="47.9864" lon="-4.43766">
        <ele>66.8</ele>
        <time>2022-04-06T13:52:42.346Z</time>
      </trkpt>
      <trkpt lat="47.98661" lon="-4.43714">
        <ele>69.5</ele>
        <time>2022-04-06T13:52:46.838Z</time>
      </trkpt>
      <trkpt lat="47.98737" lon="-4.43531">
        <ele>75.3</ele>
        <time>2022-04-06T13:53:02.850Z</time>
      </trkpt>
      <trkpt lat="47.98741" lon="-4.43523">
        <ele>75.2</ele>
        <time>2022-04-06T13:53:03.596Z</time>
      </trkpt>
      <trkpt lat="47.9877" lon="-4.4326">
        <ele>76.1</ele>
        <time>2022-04-06T13:53:23.438Z</time>
      </trkpt>
      <trkpt lat="47.98786" lon="-4.43128">
        <ele>74.3</ele>
        <time>2022-04-06T13:53:33.419Z</time>
      </trkpt>
      <trkpt lat="47.98804" lon="-4.43141">
        <ele>74.2</ele>
        <time>2022-04-06T13:53:35.651Z</time>
      </trkpt>
      <trkpt lat="47.98869" lon="-4.43151">
        <ele>74</ele>
        <time>2022-04-06T13:53:42.943Z</time>
      </trkpt>
      <trkpt lat="47.98875" lon="-4.43153">
        <ele>74</ele>
        <time>2022-04-06T13:53:43.625Z</time>
      </trkpt>
      <trkpt lat="47.98902" lon="-4.43175">
        <ele>74</ele>
        <time>2022-04-06T13:53:47.002Z</time>
      </trkpt>
      <trkpt lat="47.98913" lon="-4.43182">
        <ele>74</ele>
        <time>2022-04-06T13:53:48.404Z</time>
      </trkpt>
      <trkpt lat="47.98939" lon="-4.43192">
        <ele>74.4</ele>
        <time>2022-04-06T13:53:51.369Z</time>
      </trkpt>
      <trkpt lat="47.98951" lon="-4.43063">
        <ele>74.9</ele>
        <time>2022-04-06T13:54:01.082Z</time>
      </trkpt>
      <trkpt lat="47.98979" lon="-4.43106">
        <ele>75.3</ele>
        <time>2022-04-06T13:54:05.501Z</time>
      </trkpt>
      <trkpt lat="47.98986" lon="-4.43103">
        <ele>75.5</ele>
        <time>2022-04-06T13:54:06.270Z</time>
      </trkpt>
      <trkpt lat="47.98992" lon="-4.43103">
        <ele>75.6</ele>
        <time>2022-04-06T13:54:06.893Z</time>
      </trkpt>
      <trkpt lat="47.99014" lon="-4.43101">
        <ele>76.4</ele>
        <time>2022-04-06T13:54:09.342Z</time>
      </trkpt>
      <trkpt lat="47.99014" lon="-4.43086">
        <ele>76.6</ele>
        <time>2022-04-06T13:54:10.463Z</time>
      </trkpt>
      <trkpt lat="47.99022" lon="-4.43021">
        <ele>77.4</ele>
        <time>2022-04-06T13:54:15.365Z</time>
      </trkpt>
      <trkpt lat="47.99025" lon="-4.42997">
        <ele>77.6</ele>
        <time>2022-04-06T13:54:17.179Z</time>
      </trkpt>
      <trkpt lat="47.99027" lon="-4.42977">
        <ele>77.6</ele>
        <time>2022-04-06T13:54:18.719Z</time>
      </trkpt>
      <trkpt lat="47.99029" lon="-4.42968">
        <ele>77.7</ele>
        <time>2022-04-06T13:54:19.399Z</time>
      </trkpt>
      <trkpt lat="47.99032" lon="-4.42957">
        <ele>77.8</ele>
        <time>2022-04-06T13:54:20.251Z</time>
      </trkpt>
      <trkpt lat="47.99059" lon="-4.42911">
        <ele>78.4</ele>
        <time>2022-04-06T13:54:24.816Z</time>
      </trkpt>
      <trkpt lat="47.99067" lon="-4.42894">
        <ele>78.8</ele>
        <time>2022-04-06T13:54:26.398Z</time>
      </trkpt>
      <trkpt lat="47.99077" lon="-4.4288">
        <ele>79.2</ele>
        <time>2022-04-06T13:54:27.947Z</time>
      </trkpt>
      <trkpt lat="47.99072" lon="-4.4287">
        <ele>79.1</ele>
        <time>2022-04-06T13:54:28.891Z</time>
      </trkpt>
      <trkpt lat="47.99075" lon="-4.42857">
        <ele>79.4</ele>
        <time>2022-04-06T13:54:29.860Z</time>
      </trkpt>
      <trkpt lat="47.99118" lon="-4.42756">
        <ele>79.1</ele>
        <time>2022-04-06T13:54:38.742Z</time>
      </trkpt>
      <trkpt lat="47.99128" lon="-4.42583">
        <ele>79.5</ele>
        <time>2022-04-06T13:54:51.675Z</time>
      </trkpt>
      <trkpt lat="47.99309" lon="-4.42699">
        <ele>81.7</ele>
        <time>2022-04-06T13:55:13.534Z</time>
      </trkpt>
      <trkpt lat="47.99344" lon="-4.42723">
        <ele>82</ele>
        <time>2022-04-06T13:55:17.757Z</time>
      </trkpt>
      <trkpt lat="47.99341" lon="-4.42741">
        <ele>82.5</ele>
        <time>2022-04-06T13:55:19.157Z</time>
      </trkpt>
      <trkpt lat="47.99349" lon="-4.42749">
        <ele>82.4</ele>
        <time>2022-04-06T13:55:20.212Z</time>
      </trkpt>
      <trkpt lat="47.99352" lon="-4.42729">
        <ele>81.9</ele>
        <time>2022-04-06T13:55:21.752Z</time>
      </trkpt>
      <trkpt lat="47.99356" lon="-4.42704">
        <ele>81.2</ele>
        <time>2022-04-06T13:55:23.668Z</time>
      </trkpt>
      <trkpt lat="47.99355" lon="-4.42704">
        <ele>81.3</ele>
        <time>2022-04-06T13:55:23.778Z</time>
      </trkpt>
      <trkpt lat="47.99356" lon="-4.42704">
        <ele>81.2</ele>
        <time>2022-04-06T13:55:23.888Z</time>
      </trkpt>
      <trkpt lat="47.9938" lon="-4.42707">
        <ele>80.6</ele>
        <time>2022-04-06T13:55:26.621Z</time>
      </trkpt>
      <trkpt lat="47.99397" lon="-4.42719">
        <ele>80.3</ele>
        <time>2022-04-06T13:55:28.677Z</time>
      </trkpt>
      <trkpt lat="47.99427" lon="-4.42673">
        <ele>78.7</ele>
        <time>2022-04-06T13:55:33.470Z</time>
      </trkpt>
      <trkpt lat="47.99462" lon="-4.42638">
        <ele>77.4</ele>
        <time>2022-04-06T13:55:38.112Z</time>
      </trkpt>
      <trkpt lat="47.99475" lon="-4.42637">
        <ele>77</ele>
        <time>2022-04-06T13:55:39.578Z</time>
      </trkpt>
      <trkpt lat="47.99487" lon="-4.42635">
        <ele>76.7</ele>
        <time>2022-04-06T13:55:40.986Z</time>
      </trkpt>
      <trkpt lat="47.99507" lon="-4.42621">
        <ele>76.4</ele>
        <time>2022-04-06T13:55:43.416Z</time>
      </trkpt>
      <trkpt lat="47.99549" lon="-4.42554">
        <ele>75.7</ele>
        <time>2022-04-06T13:55:50.269Z</time>
      </trkpt>
      <trkpt lat="47.99669" lon="-4.42515">
        <ele>77.1</ele>
        <time>2022-04-06T13:56:03.861Z</time>
      </trkpt>
      <trkpt lat="47.99659" lon="-4.42489">
        <ele>76.8</ele>
        <time>2022-04-06T13:56:06.078Z</time>
      </trkpt>
      <trkpt lat="47.99654" lon="-4.42472">
        <ele>76.5</ele>
        <time>2022-04-06T13:56:07.404Z</time>
      </trkpt>
      <trkpt lat="47.99651" lon="-4.42449">
        <ele>76.1</ele>
        <time>2022-04-06T13:56:09.182Z</time>
      </trkpt>
      <trkpt lat="47.99662" lon="-4.42448">
        <ele>76.3</ele>
        <time>2022-04-06T13:56:10.411Z</time>
      </trkpt>
      <trkpt lat="47.99766" lon="-4.42421">
        <ele>80.6</ele>
        <time>2022-04-06T13:56:22.187Z</time>
      </trkpt>
      <trkpt lat="47.99788" lon="-4.42416">
        <ele>81.4</ele>
        <time>2022-04-06T13:56:24.695Z</time>
      </trkpt>
      <trkpt lat="47.998" lon="-4.42408">
        <ele>81.7</ele>
        <time>2022-04-06T13:56:26.164Z</time>
      </trkpt>
      <trkpt lat="47.99839" lon="-4.42377">
        <ele>82.6</ele>
        <time>2022-04-06T13:56:31.100Z</time>
      </trkpt>
      <trkpt lat="47.9986" lon="-4.4236">
        <ele>82.4</ele>
        <time>2022-04-06T13:56:33.758Z</time>
      </trkpt>
      <trkpt lat="47.99871" lon="-4.42353">
        <ele>82.3</ele>
        <time>2022-04-06T13:56:35.095Z</time>
      </trkpt>
      <trkpt lat="47.99875" lon="-4.42351">
        <ele>82.3</ele>
        <time>2022-04-06T13:56:35.463Z</time>
      </trkpt>
      <trkpt lat="47.99908" lon="-4.42336">
        <ele>82.1</ele>
        <time>2022-04-06T13:56:39.384Z</time>
      </trkpt>
      <trkpt lat="47.9993" lon="-4.42326">
        <ele>81.7</ele>
        <time>2022-04-06T13:56:41.897Z</time>
      </trkpt>
      <trkpt lat="47.99935" lon="-4.42324">
        <ele>81.6</ele>
        <time>2022-04-06T13:56:42.530Z</time>
      </trkpt>
      <trkpt lat="47.99941" lon="-4.42322">
        <ele>81.5</ele>
        <time>2022-04-06T13:56:43.213Z</time>
      </trkpt>
      <trkpt lat="47.99948" lon="-4.42322">
        <ele>81.4</ele>
        <time>2022-04-06T13:56:43.977Z</time>
      </trkpt>
      <trkpt lat="47.99964" lon="-4.42322">
        <ele>81.2</ele>
        <time>2022-04-06T13:56:45.696Z</time>
      </trkpt>
      <trkpt lat="48.0002" lon="-4.4233">
        <ele>80</ele>
        <time>2022-04-06T13:56:51.974Z</time>
      </trkpt>
      <trkpt lat="48.00026" lon="-4.42331">
        <ele>79.7</ele>
        <time>2022-04-06T13:56:52.647Z</time>
      </trkpt>
      <trkpt lat="48.00032" lon="-4.42332">
        <ele>79.4</ele>
        <time>2022-04-06T13:56:53.320Z</time>
      </trkpt>
      <trkpt lat="48.00035" lon="-4.42332">
        <ele>79.3</ele>
        <time>2022-04-06T13:56:53.654Z</time>
      </trkpt>
      <trkpt lat="48.0004" lon="-4.4233">
        <ele>79</ele>
        <time>2022-04-06T13:56:54.233Z</time>
      </trkpt>
      <trkpt lat="48.00042" lon="-4.4233">
        <ele>78.9</ele>
        <time>2022-04-06T13:56:54.430Z</time>
      </trkpt>
      <trkpt lat="48.00044" lon="-4.42327">
        <ele>78.8</ele>
        <time>2022-04-06T13:56:54.775Z</time>
      </trkpt>
      <trkpt lat="48.00047" lon="-4.42323">
        <ele>78.6</ele>
        <time>2022-04-06T13:56:55.173Z</time>
      </trkpt>
      <trkpt lat="48.00049" lon="-4.42315">
        <ele>78.3</ele>
        <time>2022-04-06T13:56:55.827Z</time>
      </trkpt>
      <trkpt lat="48.0005" lon="-4.42295">
        <ele>78</ele>
        <time>2022-04-06T13:56:57.308Z</time>
      </trkpt>
      <trkpt lat="48.00053" lon="-4.42219">
        <ele>77.4</ele>
        <time>2022-04-06T13:57:02.934Z</time>
      </trkpt>
      <trkpt lat="48.00058" lon="-4.42137">
        <ele>77.9</ele>
        <time>2022-04-06T13:57:09.070Z</time>
      </trkpt>
      <trkpt lat="48.00062" lon="-4.42064">
        <ele>77.4</ele>
        <time>2022-04-06T13:57:14.571Z</time>
      </trkpt>
      <trkpt lat="48.00068" lon="-4.42065">
        <ele>77.2</ele>
        <time>2022-04-06T13:57:15.175Z</time>
      </trkpt>
      <trkpt lat="48.00137" lon="-4.41886">
        <ele>74.4</ele>
        <time>2022-04-06T13:57:30.560Z</time>
      </trkpt>
      <trkpt lat="48.00149" lon="-4.41756">
        <ele>70.6</ele>
        <time>2022-04-06T13:57:40.341Z</time>
      </trkpt>
      <trkpt lat="48.00114" lon="-4.41663">
        <ele>70.6</ele>
        <time>2022-04-06T13:57:48.324Z</time>
      </trkpt>
      <trkpt lat="48.00091" lon="-4.41569">
        <ele>70</ele>
        <time>2022-04-06T13:57:55.749Z</time>
      </trkpt>
      <trkpt lat="48.00079" lon="-4.41543">
        <ele>69.9</ele>
        <time>2022-04-06T13:57:58.099Z</time>
      </trkpt>
      <trkpt lat="48.00078" lon="-4.41541">
        <ele>69.9</ele>
        <time>2022-04-06T13:57:58.275Z</time>
      </trkpt>
      <trkpt lat="48.00067" lon="-4.41526">
        <ele>69.7</ele>
        <time>2022-04-06T13:57:59.918Z</time>
      </trkpt>
      <trkpt lat="48.00056" lon="-4.41513">
        <ele>69.4</ele>
        <time>2022-04-06T13:58:01.523Z</time>
      </trkpt>
      <trkpt lat="48.00027" lon="-4.41498">
        <ele>68.6</ele>
        <time>2022-04-06T13:58:04.871Z</time>
      </trkpt>
      <trkpt lat="48.00013" lon="-4.41486">
        <ele>68.1</ele>
        <time>2022-04-06T13:58:06.692Z</time>
      </trkpt>
      <trkpt lat="48.00006" lon="-4.41476">
        <ele>67.8</ele>
        <time>2022-04-06T13:58:07.761Z</time>
      </trkpt>
      <trkpt lat="48.00002" lon="-4.41469">
        <ele>67.7</ele>
        <time>2022-04-06T13:58:08.408Z</time>
      </trkpt>
      <trkpt lat="48.00003" lon="-4.4146">
        <ele>67.6</ele>
        <time>2022-04-06T13:58:09.105Z</time>
      </trkpt>
      <trkpt lat="48.00009" lon="-4.41439">
        <ele>67.4</ele>
        <time>2022-04-06T13:58:10.807Z</time>
      </trkpt>
      <trkpt lat="48.00011" lon="-4.41422">
        <ele>67.2</ele>
        <time>2022-04-06T13:58:12.083Z</time>
      </trkpt>
      <trkpt lat="48.00008" lon="-4.41412">
        <ele>67.1</ele>
        <time>2022-04-06T13:58:12.894Z</time>
      </trkpt>
      <trkpt lat="47.99999" lon="-4.41396">
        <ele>67</ele>
        <time>2022-04-06T13:58:14.441Z</time>
      </trkpt>
      <trkpt lat="47.99987" lon="-4.41378">
        <ele>67.2</ele>
        <time>2022-04-06T13:58:16.289Z</time>
      </trkpt>
      <trkpt lat="47.99994" lon="-4.41368">
        <ele>67.1</ele>
        <time>2022-04-06T13:58:17.353Z</time>
      </trkpt>
      <trkpt lat="48.00018" lon="-4.41297">
        <ele>67.5</ele>
        <time>2022-04-06T13:58:23.253Z</time>
      </trkpt>
      <trkpt lat="48.00025" lon="-4.41276">
        <ele>67.8</ele>
        <time>2022-04-06T13:58:24.994Z</time>
      </trkpt>
      <trkpt lat="48.00035" lon="-4.41259">
        <ele>67.9</ele>
        <time>2022-04-06T13:58:26.700Z</time>
      </trkpt>
      <trkpt lat="48.00065" lon="-4.41273">
        <ele>67.9</ele>
        <time>2022-04-06T13:58:30.213Z</time>
      </trkpt>
      <trkpt lat="48.00093" lon="-4.41285">
        <ele>68</ele>
        <time>2022-04-06T13:58:33.480Z</time>
      </trkpt>
      <trkpt lat="48.00154" lon="-4.41256">
        <ele>68.1</ele>
        <time>2022-04-06T13:58:40.597Z</time>
      </trkpt>
      <trkpt lat="48.00174" lon="-4.41236">
        <ele>68.3</ele>
        <time>2022-04-06T13:58:43.307Z</time>
      </trkpt>
      <trkpt lat="48.00196" lon="-4.41189">
        <ele>68.9</ele>
        <time>2022-04-06T13:58:47.580Z</time>
      </trkpt>
      <trkpt lat="48.00207" lon="-4.41117">
        <ele>68.7</ele>
        <time>2022-04-06T13:58:53.015Z</time>
      </trkpt>
      <trkpt lat="48.00196" lon="-4.41058">
        <ele>68.5</ele>
        <time>2022-04-06T13:58:57.633Z</time>
      </trkpt>
      <trkpt lat="48.002" lon="-4.41015">
        <ele>68.1</ele>
        <time>2022-04-06T13:59:00.884Z</time>
      </trkpt>
      <trkpt lat="48.00094" lon="-4.40964">
        <ele>69.7</ele>
        <time>2022-04-06T13:59:13.182Z</time>
      </trkpt>
      <trkpt lat="47.9985" lon="-4.40846">
        <ele>72.8</ele>
        <time>2022-04-06T13:59:41.721Z</time>
      </trkpt>
      <trkpt lat="47.99746" lon="-4.40795">
        <ele>72.5</ele>
        <time>2022-04-06T13:59:53.897Z</time>
      </trkpt>
      <trkpt lat="47.99765" lon="-4.40631">
        <ele>74.3</ele>
        <time>2022-04-06T14:00:06.313Z</time>
      </trkpt>
      <trkpt lat="47.99785" lon="-4.40451">
        <ele>78.2</ele>
        <time>2022-04-06T14:00:19.881Z</time>
      </trkpt>
      <trkpt lat="47.99779" lon="-4.40449">
        <ele>78.1</ele>
        <time>2022-04-06T14:00:20.569Z</time>
      </trkpt>
      <trkpt lat="47.99773" lon="-4.40447">
        <ele>78.1</ele>
        <time>2022-04-06T14:00:21.250Z</time>
      </trkpt>
      <trkpt lat="47.99767" lon="-4.40447">
        <ele>78.1</ele>
        <time>2022-04-06T14:00:21.948Z</time>
      </trkpt>
      <trkpt lat="47.99772" lon="-4.40432">
        <ele>78</ele>
        <time>2022-04-06T14:00:23.183Z</time>
      </trkpt>
      <trkpt lat="47.99822" lon="-4.40311">
        <ele>77.1</ele>
        <time>2022-04-06T14:00:33.749Z</time>
      </trkpt>
      <trkpt lat="47.99831" lon="-4.40286">
        <ele>76.3</ele>
        <time>2022-04-06T14:00:35.883Z</time>
      </trkpt>
      <trkpt lat="47.99839" lon="-4.40261">
        <ele>75.4</ele>
        <time>2022-04-06T14:00:37.962Z</time>
      </trkpt>
      <trkpt lat="47.99849" lon="-4.40226">
        <ele>74.5</ele>
        <time>2022-04-06T14:00:40.737Z</time>
      </trkpt>
      <trkpt lat="47.99856" lon="-4.40201">
        <ele>74</ele>
        <time>2022-04-06T14:00:42.773Z</time>
      </trkpt>
      <trkpt lat="47.99859" lon="-4.40195">
        <ele>73.9</ele>
        <time>2022-04-06T14:00:43.332Z</time>
      </trkpt>
      <trkpt lat="47.9986" lon="-4.40191">
        <ele>73.8</ele>
        <time>2022-04-06T14:00:43.655Z</time>
      </trkpt>
      <trkpt lat="47.99863" lon="-4.40189">
        <ele>73.8</ele>
        <time>2022-04-06T14:00:44.043Z</time>
      </trkpt>
      <trkpt lat="47.99864" lon="-4.4018">
        <ele>73.6</ele>
        <time>2022-04-06T14:00:44.745Z</time>
      </trkpt>
      <trkpt lat="47.99866" lon="-4.40169">
        <ele>73.4</ele>
        <time>2022-04-06T14:00:45.585Z</time>
      </trkpt>
      <trkpt lat="47.99875" lon="-4.40141">
        <ele>73.2</ele>
        <time>2022-04-06T14:00:47.900Z</time>
      </trkpt>
      <trkpt lat="47.99885" lon="-4.40103">
        <ele>72.7</ele>
        <time>2022-04-06T14:00:50.928Z</time>
      </trkpt>
      <trkpt lat="47.99888" lon="-4.40089">
        <ele>72.4</ele>
        <time>2022-04-06T14:00:52.064Z</time>
      </trkpt>
      <trkpt lat="47.99891" lon="-4.40066">
        <ele>72.2</ele>
        <time>2022-04-06T14:00:53.751Z</time>
      </trkpt>
      <trkpt lat="47.99894" lon="-4.40035">
        <ele>72</ele>
        <time>2022-04-06T14:00:56.133Z</time>
      </trkpt>
      <trkpt lat="47.99896" lon="-4.40009">
        <ele>71.8</ele>
        <time>2022-04-06T14:00:58.087Z</time>
      </trkpt>
      <trkpt lat="47.99902" lon="-4.39933">
        <ele>70.7</ele>
        <time>2022-04-06T14:01:03.730Z</time>
      </trkpt>
      <trkpt lat="47.99906" lon="-4.39882">
        <ele>71.1</ele>
        <time>2022-04-06T14:01:07.548Z</time>
      </trkpt>
      <trkpt lat="47.99908" lon="-4.39853">
        <ele>71.7</ele>
        <time>2022-04-06T14:01:09.736Z</time>
      </trkpt>
      <trkpt lat="47.99908" lon="-4.39843">
        <ele>71.9</ele>
        <time>2022-04-06T14:01:10.520Z</time>
      </trkpt>
      <trkpt lat="47.99909" lon="-4.39834">
        <ele>72.1</ele>
        <time>2022-04-06T14:01:11.185Z</time>
      </trkpt>
      <trkpt lat="47.99915" lon="-4.39831">
        <ele>72.1</ele>
        <time>2022-04-06T14:01:11.928Z</time>
      </trkpt>
      <trkpt lat="47.99924" lon="-4.39827">
        <ele>72.2</ele>
        <time>2022-04-06T14:01:12.930Z</time>
      </trkpt>
      <trkpt lat="48.00242" lon="-4.39615">
        <ele>73.7</ele>
        <time>2022-04-06T14:01:51.605Z</time>
      </trkpt>
      <trkpt lat="48.00148" lon="-4.39444">
        <ele>71</ele>
        <time>2022-04-06T14:02:08.011Z</time>
      </trkpt>
      <trkpt lat="48.00096" lon="-4.39393">
        <ele>70.9</ele>
        <time>2022-04-06T14:02:14.983Z</time>
      </trkpt>
      <trkpt lat="47.99968" lon="-4.39266">
        <ele>72.9</ele>
        <time>2022-04-06T14:02:32.078Z</time>
      </trkpt>
      <trkpt lat="47.99905" lon="-4.3906">
        <ele>74.1</ele>
        <time>2022-04-06T14:02:48.945Z</time>
      </trkpt>
      <trkpt lat="47.99958" lon="-4.3903">
        <ele>76.1</ele>
        <time>2022-04-06T14:02:55.243Z</time>
      </trkpt>
      <trkpt lat="48.00095" lon="-4.38968">
        <ele>79.5</ele>
        <time>2022-04-06T14:03:11.153Z</time>
      </trkpt>
      <trkpt lat="48.00148" lon="-4.38945">
        <ele>79.1</ele>
        <time>2022-04-06T14:03:17.275Z</time>
      </trkpt>
      <trkpt lat="48.00382" lon="-4.38902">
        <ele>82.6</ele>
        <time>2022-04-06T14:03:43.448Z</time>
      </trkpt>
      <trkpt lat="48.0038" lon="-4.38896">
        <ele>82.7</ele>
        <time>2022-04-06T14:03:43.974Z</time>
      </trkpt>
      <trkpt lat="48.00283" lon="-4.38528">
        <ele>83.4</ele>
        <time>2022-04-06T14:04:13.367Z</time>
      </trkpt>
      <trkpt lat="48.00306" lon="-4.38518">
        <ele>84</ele>
        <time>2022-04-06T14:04:16.098Z</time>
      </trkpt>
      <trkpt lat="48.00347" lon="-4.3851">
        <ele>85.1</ele>
        <time>2022-04-06T14:04:20.714Z</time>
      </trkpt>
      <trkpt lat="48.00402" lon="-4.38519">
        <ele>85</ele>
        <time>2022-04-06T14:04:26.763Z</time>
      </trkpt>
      <trkpt lat="48.00417" lon="-4.3852">
        <ele>85</ele>
        <time>2022-04-06T14:04:28.480Z</time>
      </trkpt>
      <trkpt lat="48.00459" lon="-4.38521">
        <ele>85.4</ele>
        <time>2022-04-06T14:04:33.112Z</time>
      </trkpt>
      <trkpt lat="48.00559" lon="-4.38469">
        <ele>85.4</ele>
        <time>2022-04-06T14:04:44.973Z</time>
      </trkpt>
      <trkpt lat="48.00597" lon="-4.38461">
        <ele>86.1</ele>
        <time>2022-04-06T14:04:49.210Z</time>
      </trkpt>
      <trkpt lat="48.00628" lon="-4.38464">
        <ele>87.2</ele>
        <time>2022-04-06T14:04:52.592Z</time>
      </trkpt>
      <trkpt lat="48.0065" lon="-4.3848">
        <ele>88.2</ele>
        <time>2022-04-06T14:04:55.395Z</time>
      </trkpt>
      <trkpt lat="48.00766" lon="-4.38577">
        <ele>89.8</ele>
        <time>2022-04-06T14:05:10.121Z</time>
      </trkpt>
      <trkpt lat="48.00843" lon="-4.38626">
        <ele>88.4</ele>
        <time>2022-04-06T14:05:19.459Z</time>
      </trkpt>
      <trkpt lat="48.00814" lon="-4.38686">
        <ele>88.2</ele>
        <time>2022-04-06T14:05:24.976Z</time>
      </trkpt>
      <trkpt lat="48.00782" lon="-4.38734">
        <ele>88.3</ele>
        <time>2022-04-06T14:05:30.011Z</time>
      </trkpt>
      <trkpt lat="48.0074" lon="-4.38817">
        <ele>88.1</ele>
        <time>2022-04-06T14:05:37.738Z</time>
      </trkpt>
      <trkpt lat="48.00703" lon="-4.38851">
        <ele>88.8</ele>
        <time>2022-04-06T14:05:42.578Z</time>
      </trkpt>
      <trkpt lat="48.00681" lon="-4.38883">
        <ele>89.4</ele>
        <time>2022-04-06T14:05:45.958Z</time>
      </trkpt>
      <trkpt lat="48.00662" lon="-4.38934">
        <ele>90.2</ele>
        <time>2022-04-06T14:05:50.294Z</time>
      </trkpt>
      <trkpt lat="48.00511" lon="-4.39303">
        <ele>80</ele>
        <time>2022-04-06T14:06:22.514Z</time>
      </trkpt>
      <trkpt lat="48.00691" lon="-4.39298">
        <ele>84.9</ele>
        <time>2022-04-06T14:06:42.490Z</time>
      </trkpt>
      <trkpt lat="48.00726" lon="-4.39302">
        <ele>85.7</ele>
        <time>2022-04-06T14:06:46.367Z</time>
      </trkpt>
      <trkpt lat="48.00706" lon="-4.3942">
        <ele>81.7</ele>
        <time>2022-04-06T14:06:55.414Z</time>
      </trkpt>
      <trkpt lat="48.00698" lon="-4.39483">
        <ele>78.5</ele>
        <time>2022-04-06T14:07:00.215Z</time>
      </trkpt>
      <trkpt lat="48.00692" lon="-4.39531">
        <ele>76.2</ele>
        <time>2022-04-06T14:07:03.806Z</time>
      </trkpt>
      <trkpt lat="48.00689" lon="-4.39605">
        <ele>73.4</ele>
        <time>2022-04-06T14:07:09.382Z</time>
      </trkpt>
      <trkpt lat="48.00692" lon="-4.39658">
        <ele>72.5</ele>
        <time>2022-04-06T14:07:13.303Z</time>
      </trkpt>
      <trkpt lat="48.0069" lon="-4.39688">
        <ele>72</ele>
        <time>2022-04-06T14:07:15.568Z</time>
      </trkpt>
      <trkpt lat="48.00692" lon="-4.39741">
        <ele>71.4</ele>
        <time>2022-04-06T14:07:19.527Z</time>
      </trkpt>
      <trkpt lat="48.00694" lon="-4.39776">
        <ele>71.3</ele>
        <time>2022-04-06T14:07:22.102Z</time>
      </trkpt>
      <trkpt lat="48.00697" lon="-4.39826">
        <ele>71.4</ele>
        <time>2022-04-06T14:07:25.812Z</time>
      </trkpt>
      <trkpt lat="48.00698" lon="-4.3985">
        <ele>71.3</ele>
        <time>2022-04-06T14:07:27.605Z</time>
      </trkpt>
      <trkpt lat="48.007" lon="-4.39868">
        <ele>71.3</ele>
        <time>2022-04-06T14:07:29.008Z</time>
      </trkpt>
      <trkpt lat="48.00702" lon="-4.3989">
        <ele>71.3</ele>
        <time>2022-04-06T14:07:30.624Z</time>
      </trkpt>
      <trkpt lat="48.00701" lon="-4.3991">
        <ele>71.2</ele>
        <time>2022-04-06T14:07:32.147Z</time>
      </trkpt>
      <trkpt lat="48.007" lon="-4.39928">
        <ele>71.2</ele>
        <time>2022-04-06T14:07:33.433Z</time>
      </trkpt>
      <trkpt lat="48.00704" lon="-4.39927">
        <ele>71.3</ele>
        <time>2022-04-06T14:07:33.883Z</time>
      </trkpt>
      <trkpt lat="48.00712" lon="-4.39928">
        <ele>71.6</ele>
        <time>2022-04-06T14:07:34.743Z</time>
      </trkpt>
      <trkpt lat="48.0072" lon="-4.39927">
        <ele>71.9</ele>
        <time>2022-04-06T14:07:35.699Z</time>
      </trkpt>
      <trkpt lat="48.00729" lon="-4.39928">
        <ele>72.2</ele>
        <time>2022-04-06T14:07:36.654Z</time>
      </trkpt>
      <trkpt lat="48.00735" lon="-4.39928">
        <ele>72.4</ele>
        <time>2022-04-06T14:07:37.278Z</time>
      </trkpt>
      <trkpt lat="48.0074" lon="-4.3993">
        <ele>72.6</ele>
        <time>2022-04-06T14:07:37.865Z</time>
      </trkpt>
      <trkpt lat="48.00744" lon="-4.39933">
        <ele>72.8</ele>
        <time>2022-04-06T14:07:38.432Z</time>
      </trkpt>
      <trkpt lat="48.00748" lon="-4.39938">
        <ele>72.9</ele>
        <time>2022-04-06T14:07:38.986Z</time>
      </trkpt>
      <trkpt lat="48.00753" lon="-4.39945">
        <ele>73</ele>
        <time>2022-04-06T14:07:39.724Z</time>
      </trkpt>
      <trkpt lat="48.0076" lon="-4.39957">
        <ele>72.9</ele>
        <time>2022-04-06T14:07:40.883Z</time>
      </trkpt>
      <trkpt lat="48.00765" lon="-4.39969">
        <ele>72.8</ele>
        <time>2022-04-06T14:07:41.997Z</time>
      </trkpt>
      <trkpt lat="48.00768" lon="-4.39976">
        <ele>72.8</ele>
        <time>2022-04-06T14:07:42.577Z</time>
      </trkpt>
      <trkpt lat="48.00771" lon="-4.39983">
        <ele>72.8</ele>
        <time>2022-04-06T14:07:43.210Z</time>
      </trkpt>
      <trkpt lat="48.00773" lon="-4.39988">
        <ele>72.7</ele>
        <time>2022-04-06T14:07:43.652Z</time>
      </trkpt>
      <trkpt lat="48.00778" lon="-4.39993">
        <ele>72.7</ele>
        <time>2022-04-06T14:07:44.300Z</time>
      </trkpt>
      <trkpt lat="48.00789" lon="-4.4">
        <ele>72.5</ele>
        <time>2022-04-06T14:07:45.689Z</time>
      </trkpt>
      <trkpt lat="48.00853" lon="-4.40034">
        <ele>72.2</ele>
        <time>2022-04-06T14:07:53.189Z</time>
      </trkpt>
      <trkpt lat="48.00874" lon="-4.40048">
        <ele>72.1</ele>
        <time>2022-04-06T14:07:55.749Z</time>
      </trkpt>
      <trkpt lat="48.00883" lon="-4.40055">
        <ele>72.1</ele>
        <time>2022-04-06T14:07:56.858Z</time>
      </trkpt>
      <trkpt lat="48.00892" lon="-4.40065">
        <ele>72.1</ele>
        <time>2022-04-06T14:07:58.106Z</time>
      </trkpt>
      <trkpt lat="48.00898" lon="-4.40054">
        <ele>71.9</ele>
        <time>2022-04-06T14:07:59.174Z</time>
      </trkpt>
      <trkpt lat="48.00906" lon="-4.40034">
        <ele>71.6</ele>
        <time>2022-04-06T14:08:00.846Z</time>
      </trkpt>
      <trkpt lat="48.00915" lon="-4.4001">
        <ele>71.1</ele>
        <time>2022-04-06T14:08:02.914Z</time>
      </trkpt>
      <trkpt lat="48.00921" lon="-4.39995">
        <ele>71.2</ele>
        <time>2022-04-06T14:08:04.205Z</time>
      </trkpt>
      <trkpt lat="48.00925" lon="-4.39986">
        <ele>71.5</ele>
        <time>2022-04-06T14:08:05.048Z</time>
      </trkpt>
      <trkpt lat="48.0093" lon="-4.39981">
        <ele>71.7</ele>
        <time>2022-04-06T14:08:05.677Z</time>
      </trkpt>
      <trkpt lat="48.00934" lon="-4.39979">
        <ele>71.8</ele>
        <time>2022-04-06T14:08:06.126Z</time>
      </trkpt>
      <trkpt lat="48.00941" lon="-4.3998">
        <ele>72</ele>
        <time>2022-04-06T14:08:06.895Z</time>
      </trkpt>
      <trkpt lat="48.00955" lon="-4.39987">
        <ele>72.5</ele>
        <time>2022-04-06T14:08:08.542Z</time>
      </trkpt>
      <trkpt lat="48.0097" lon="-4.39994">
        <ele>72.9</ele>
        <time>2022-04-06T14:08:10.305Z</time>
      </trkpt>
      <trkpt lat="48.00983" lon="-4.40002">
        <ele>73.4</ele>
        <time>2022-04-06T14:08:11.934Z</time>
      </trkpt>
      <trkpt lat="48.00993" lon="-4.40007">
        <ele>73.7</ele>
        <time>2022-04-06T14:08:13.086Z</time>
      </trkpt>
      <trkpt lat="48.0101" lon="-4.40013">
        <ele>74</ele>
        <time>2022-04-06T14:08:14.951Z</time>
      </trkpt>
      <trkpt lat="48.01028" lon="-4.40016">
        <ele>74.2</ele>
        <time>2022-04-06T14:08:16.967Z</time>
      </trkpt>
      <trkpt lat="48.01031" lon="-4.40016">
        <ele>74.2</ele>
        <time>2022-04-06T14:08:17.303Z</time>
      </trkpt>
      <trkpt lat="48.01049" lon="-4.40018">
        <ele>74.5</ele>
        <time>2022-04-06T14:08:19.312Z</time>
      </trkpt>
      <trkpt lat="48.01076" lon="-4.4002">
        <ele>74.9</ele>
        <time>2022-04-06T14:08:22.319Z</time>
      </trkpt>
      <trkpt lat="48.01088" lon="-4.40021">
        <ele>75.2</ele>
        <time>2022-04-06T14:08:23.663Z</time>
      </trkpt>
      <trkpt lat="48.01105" lon="-4.40022">
        <ele>76</ele>
        <time>2022-04-06T14:08:25.622Z</time>
      </trkpt>
      <trkpt lat="48.01122" lon="-4.40024">
        <ele>76.7</ele>
        <time>2022-04-06T14:08:27.538Z</time>
      </trkpt>
      <trkpt lat="48.01129" lon="-4.40025">
        <ele>77</ele>
        <time>2022-04-06T14:08:28.256Z</time>
      </trkpt>
      <trkpt lat="48.01134" lon="-4.40029">
        <ele>77.2</ele>
        <time>2022-04-06T14:08:28.903Z</time>
      </trkpt>
      <trkpt lat="48.01139" lon="-4.40022">
        <ele>77.5</ele>
        <time>2022-04-06T14:08:29.651Z</time>
      </trkpt>
      <trkpt lat="48.01146" lon="-4.40003">
        <ele>78</ele>
        <time>2022-04-06T14:08:31.276Z</time>
      </trkpt>
      <trkpt lat="48.01153" lon="-4.39984">
        <ele>78.7</ele>
        <time>2022-04-06T14:08:32.887Z</time>
      </trkpt>
      <trkpt lat="48.01159" lon="-4.39971">
        <ele>79.2</ele>
        <time>2022-04-06T14:08:34.029Z</time>
      </trkpt>
      <trkpt lat="48.01168" lon="-4.39956">
        <ele>80.1</ele>
        <time>2022-04-06T14:08:35.542Z</time>
      </trkpt>
      <trkpt lat="48.01173" lon="-4.39947">
        <ele>80.6</ele>
        <time>2022-04-06T14:08:36.411Z</time>
      </trkpt>
      <trkpt lat="48.01179" lon="-4.39943">
        <ele>81.1</ele>
        <time>2022-04-06T14:08:37.102Z</time>
      </trkpt>
      <trkpt lat="48.01191" lon="-4.39935">
        <ele>82</ele>
        <time>2022-04-06T14:08:38.556Z</time>
      </trkpt>
      <trkpt lat="48.01207" lon="-4.39926">
        <ele>83.2</ele>
        <time>2022-04-06T14:08:40.562Z</time>
      </trkpt>
      <trkpt lat="48.01214" lon="-4.39923">
        <ele>83.7</ele>
        <time>2022-04-06T14:08:41.358Z</time>
      </trkpt>
      <trkpt lat="48.01218" lon="-4.39919">
        <ele>84</ele>
        <time>2022-04-06T14:08:41.884Z</time>
      </trkpt>
      <trkpt lat="48.01224" lon="-4.39911">
        <ele>84.5</ele>
        <time>2022-04-06T14:08:42.724Z</time>
      </trkpt>
      <trkpt lat="48.01226" lon="-4.39905">
        <ele>84.7</ele>
        <time>2022-04-06T14:08:43.245Z</time>
      </trkpt>
      <trkpt lat="48.01229" lon="-4.39891">
        <ele>84.9</ele>
        <time>2022-04-06T14:08:44.328Z</time>
      </trkpt>
      <trkpt lat="48.01231" lon="-4.39872">
        <ele>85.1</ele>
        <time>2022-04-06T14:08:45.738Z</time>
      </trkpt>
      <trkpt lat="48.01238" lon="-4.39815">
        <ele>85.8</ele>
        <time>2022-04-06T14:08:50.076Z</time>
      </trkpt>
      <trkpt lat="48.01241" lon="-4.39794">
        <ele>86.1</ele>
        <time>2022-04-06T14:08:51.675Z</time>
      </trkpt>
      <trkpt lat="48.01244" lon="-4.39785">
        <ele>86.3</ele>
        <time>2022-04-06T14:08:52.428Z</time>
      </trkpt>
      <trkpt lat="48.01247" lon="-4.39778">
        <ele>86.5</ele>
        <time>2022-04-06T14:08:53.047Z</time>
      </trkpt>
      <trkpt lat="48.01252" lon="-4.3977">
        <ele>86.8</ele>
        <time>2022-04-06T14:08:53.883Z</time>
      </trkpt>
      <trkpt lat="48.01259" lon="-4.3976">
        <ele>87.2</ele>
        <time>2022-04-06T14:08:54.917Z</time>
      </trkpt>
      <trkpt lat="48.01264" lon="-4.39754">
        <ele>87.4</ele>
        <time>2022-04-06T14:08:55.626Z</time>
      </trkpt>
      <trkpt lat="48.01267" lon="-4.39748">
        <ele>87.6</ele>
        <time>2022-04-06T14:08:56.175Z</time>
      </trkpt>
      <trkpt lat="48.01269" lon="-4.39741">
        <ele>87.7</ele>
        <time>2022-04-06T14:08:56.733Z</time>
      </trkpt>
      <trkpt lat="48.01271" lon="-4.39727">
        <ele>87.8</ele>
        <time>2022-04-06T14:08:57.837Z</time>
      </trkpt>
      <trkpt lat="48.01272" lon="-4.39697">
        <ele>87.9</ele>
        <time>2022-04-06T14:09:00.058Z</time>
      </trkpt>
      <trkpt lat="48.01274" lon="-4.39671">
        <ele>88</ele>
        <time>2022-04-06T14:09:02.024Z</time>
      </trkpt>
      <trkpt lat="48.01276" lon="-4.39653">
        <ele>88.1</ele>
        <time>2022-04-06T14:09:03.392Z</time>
      </trkpt>
      <trkpt lat="48.01279" lon="-4.39645">
        <ele>88.2</ele>
        <time>2022-04-06T14:09:04.048Z</time>
      </trkpt>
      <trkpt lat="48.01283" lon="-4.3964">
        <ele>88.2</ele>
        <time>2022-04-06T14:09:04.638Z</time>
      </trkpt>
      <trkpt lat="48.01289" lon="-4.39637">
        <ele>88.2</ele>
        <time>2022-04-06T14:09:05.340Z</time>
      </trkpt>
      <trkpt lat="48.01292" lon="-4.39636">
        <ele>88.2</ele>
        <time>2022-04-06T14:09:05.685Z</time>
      </trkpt>
      <trkpt lat="48.01308" lon="-4.39639">
        <ele>88.1</ele>
        <time>2022-04-06T14:09:07.417Z</time>
      </trkpt>
      <trkpt lat="48.01316" lon="-4.3964">
        <ele>88.1</ele>
        <time>2022-04-06T14:09:08.375Z</time>
      </trkpt>
      <trkpt lat="48.01323" lon="-4.3964">
        <ele>88</ele>
        <time>2022-04-06T14:09:09.138Z</time>
      </trkpt>
      <trkpt lat="48.0133" lon="-4.39635">
        <ele>88</ele>
        <time>2022-04-06T14:09:09.954Z</time>
      </trkpt>
      <trkpt lat="48.01331" lon="-4.39629">
        <ele>88</ele>
        <time>2022-04-06T14:09:10.427Z</time>
      </trkpt>
      <trkpt lat="48.01332" lon="-4.39621">
        <ele>88</ele>
        <time>2022-04-06T14:09:11.081Z</time>
      </trkpt>
      <trkpt lat="48.01331" lon="-4.39609">
        <ele>88</ele>
        <time>2022-04-06T14:09:11.962Z</time>
      </trkpt>
      <trkpt lat="48.01326" lon="-4.39571">
        <ele>88.1</ele>
        <time>2022-04-06T14:09:14.785Z</time>
      </trkpt>
      <trkpt lat="48.01319" lon="-4.39521">
        <ele>88.3</ele>
        <time>2022-04-06T14:09:18.609Z</time>
      </trkpt>
      <trkpt lat="48.01315" lon="-4.39497">
        <ele>88.4</ele>
        <time>2022-04-06T14:09:20.484Z</time>
      </trkpt>
      <trkpt lat="48.01307" lon="-4.3946">
        <ele>88.2</ele>
        <time>2022-04-06T14:09:23.343Z</time>
      </trkpt>
      <trkpt lat="48.01296" lon="-4.39412">
        <ele>87.8</ele>
        <time>2022-04-06T14:09:27.128Z</time>
      </trkpt>
      <trkpt lat="48.01289" lon="-4.3938">
        <ele>87.6</ele>
        <time>2022-04-06T14:09:29.611Z</time>
      </trkpt>
      <trkpt lat="48.01289" lon="-4.39376">
        <ele>87.6</ele>
        <time>2022-04-06T14:09:29.962Z</time>
      </trkpt>
      <trkpt lat="48.01288" lon="-4.39366">
        <ele>87.5</ele>
        <time>2022-04-06T14:09:30.721Z</time>
      </trkpt>
      <trkpt lat="48.01299" lon="-4.39368">
        <ele>87.2</ele>
        <time>2022-04-06T14:09:32.039Z</time>
      </trkpt>
      <trkpt lat="48.01325" lon="-4.39376">
        <ele>86.7</ele>
        <time>2022-04-06T14:09:34.919Z</time>
      </trkpt>
      <trkpt lat="48.01352" lon="-4.39383">
        <ele>86.1</ele>
        <time>2022-04-06T14:09:37.963Z</time>
      </trkpt>
      <trkpt lat="48.01377" lon="-4.3939">
        <ele>85.5</ele>
        <time>2022-04-06T14:09:40.874Z</time>
      </trkpt>
      <trkpt lat="48.01403" lon="-4.39395">
        <ele>84.9</ele>
        <time>2022-04-06T14:09:43.716Z</time>
      </trkpt>
      <trkpt lat="48.01451" lon="-4.39407">
        <ele>83.7</ele>
        <time>2022-04-06T14:09:49.132Z</time>
      </trkpt>
      <trkpt lat="48.01479" lon="-4.39414">
        <ele>82.8</ele>
        <time>2022-04-06T14:09:52.277Z</time>
      </trkpt>
      <trkpt lat="48.01499" lon="-4.3942">
        <ele>82</ele>
        <time>2022-04-06T14:09:54.562Z</time>
      </trkpt>
      <trkpt lat="48.01508" lon="-4.39424">
        <ele>81.7</ele>
        <time>2022-04-06T14:09:55.654Z</time>
      </trkpt>
      <trkpt lat="48.01519" lon="-4.39418">
        <ele>81.3</ele>
        <time>2022-04-06T14:09:56.971Z</time>
      </trkpt>
      <trkpt lat="48.01575" lon="-4.39384">
        <ele>79.7</ele>
        <time>2022-04-06T14:10:03.608Z</time>
      </trkpt>
      <trkpt lat="48.01626" lon="-4.39351">
        <ele>78.3</ele>
        <time>2022-04-06T14:10:09.847Z</time>
      </trkpt>
      <trkpt lat="48.01652" lon="-4.39339">
        <ele>77.5</ele>
        <time>2022-04-06T14:10:12.793Z</time>
      </trkpt>
      <trkpt lat="48.01661" lon="-4.39338">
        <ele>77.2</ele>
        <time>2022-04-06T14:10:13.899Z</time>
      </trkpt>
      <trkpt lat="48.0167" lon="-4.39338">
        <ele>77</ele>
        <time>2022-04-06T14:10:14.854Z</time>
      </trkpt>
      <trkpt lat="48.01684" lon="-4.39346">
        <ele>77.1</ele>
        <time>2022-04-06T14:10:16.527Z</time>
      </trkpt>
      <trkpt lat="48.01816" lon="-4.39445">
        <ele>76.1</ele>
        <time>2022-04-06T14:10:32.974Z</time>
      </trkpt>
      <trkpt lat="48.01829" lon="-4.3945">
        <ele>76</ele>
        <time>2022-04-06T14:10:34.446Z</time>
      </trkpt>
      <trkpt lat="48.0184" lon="-4.39452">
        <ele>75.9</ele>
        <time>2022-04-06T14:10:35.652Z</time>
      </trkpt>
      <trkpt lat="48.0186" lon="-4.39433">
        <ele>75.7</ele>
        <time>2022-04-06T14:10:38.308Z</time>
      </trkpt>
      <trkpt lat="48.01887" lon="-4.39403">
        <ele>75.5</ele>
        <time>2022-04-06T14:10:42.012Z</time>
      </trkpt>
      <trkpt lat="48.01905" lon="-4.39377">
        <ele>75.5</ele>
        <time>2022-04-06T14:10:44.812Z</time>
      </trkpt>
      <trkpt lat="48.01919" lon="-4.39365">
        <ele>75.6</ele>
        <time>2022-04-06T14:10:46.609Z</time>
      </trkpt>
      <trkpt lat="48.01936" lon="-4.39365">
        <ele>75.9</ele>
        <time>2022-04-06T14:10:48.526Z</time>
      </trkpt>
      <trkpt lat="48.01946" lon="-4.39369">
        <ele>76.1</ele>
        <time>2022-04-06T14:10:49.659Z</time>
      </trkpt>
      <trkpt lat="48.01965" lon="-4.39377">
        <ele>76.4</ele>
        <time>2022-04-06T14:10:51.844Z</time>
      </trkpt>
      <trkpt lat="48.01981" lon="-4.39385">
        <ele>76.6</ele>
        <time>2022-04-06T14:10:53.758Z</time>
      </trkpt>
      <trkpt lat="48.01998" lon="-4.39394">
        <ele>77</ele>
        <time>2022-04-06T14:10:55.729Z</time>
      </trkpt>
      <trkpt lat="48.02017" lon="-4.39404">
        <ele>77.6</ele>
        <time>2022-04-06T14:10:57.955Z</time>
      </trkpt>
      <trkpt lat="48.02045" lon="-4.3942">
        <ele>78.7</ele>
        <time>2022-04-06T14:11:01.332Z</time>
      </trkpt>
      <trkpt lat="48.02092" lon="-4.39444">
        <ele>80.3</ele>
        <time>2022-04-06T14:11:06.832Z</time>
      </trkpt>
      <trkpt lat="48.02127" lon="-4.39464">
        <ele>80.6</ele>
        <time>2022-04-06T14:11:11.012Z</time>
      </trkpt>
      <trkpt lat="48.02142" lon="-4.39473">
        <ele>80.7</ele>
        <time>2022-04-06T14:11:12.865Z</time>
      </trkpt>
      <trkpt lat="48.02169" lon="-4.3949">
        <ele>80.8</ele>
        <time>2022-04-06T14:11:16.108Z</time>
      </trkpt>
      <trkpt lat="48.02172" lon="-4.39491">
        <ele>80.8</ele>
        <time>2022-04-06T14:11:16.466Z</time>
      </trkpt>
      <trkpt lat="48.02191" lon="-4.39502">
        <ele>80.4</ele>
        <time>2022-04-06T14:11:18.710Z</time>
      </trkpt>
      <trkpt lat="48.02195" lon="-4.39504">
        <ele>80.3</ele>
        <time>2022-04-06T14:11:19.165Z</time>
      </trkpt>
      <trkpt lat="48.02229" lon="-4.3952">
        <ele>79.5</ele>
        <time>2022-04-06T14:11:23.162Z</time>
      </trkpt>
      <trkpt lat="48.02266" lon="-4.39532">
        <ele>78.8</ele>
        <time>2022-04-06T14:11:27.370Z</time>
      </trkpt>
      <trkpt lat="48.02306" lon="-4.39547">
        <ele>78.3</ele>
        <time>2022-04-06T14:11:31.932Z</time>
      </trkpt>
      <trkpt lat="48.02328" lon="-4.39554">
        <ele>78.1</ele>
        <time>2022-04-06T14:11:34.466Z</time>
      </trkpt>
      <trkpt lat="48.02354" lon="-4.39563">
        <ele>78.2</ele>
        <time>2022-04-06T14:11:37.355Z</time>
      </trkpt>
      <trkpt lat="48.02373" lon="-4.39569">
        <ele>78.5</ele>
        <time>2022-04-06T14:11:39.495Z</time>
      </trkpt>
      <trkpt lat="48.02391" lon="-4.39573">
        <ele>78.7</ele>
        <time>2022-04-06T14:11:41.578Z</time>
      </trkpt>
      <trkpt lat="48.02398" lon="-4.39574">
        <ele>78.8</ele>
        <time>2022-04-06T14:11:42.297Z</time>
      </trkpt>
      <trkpt lat="48.02402" lon="-4.39575">
        <ele>78.8</ele>
        <time>2022-04-06T14:11:42.825Z</time>
      </trkpt>
      <trkpt lat="48.02408" lon="-4.39577">
        <ele>78.9</ele>
        <time>2022-04-06T14:11:43.467Z</time>
      </trkpt>
      <trkpt lat="48.02418" lon="-4.39577">
        <ele>78.9</ele>
        <time>2022-04-06T14:11:44.605Z</time>
      </trkpt>
      <trkpt lat="48.02431" lon="-4.3958">
        <ele>78.5</ele>
        <time>2022-04-06T14:11:45.998Z</time>
      </trkpt>
      <trkpt lat="48.02444" lon="-4.39584">
        <ele>78</ele>
        <time>2022-04-06T14:11:47.519Z</time>
      </trkpt>
      <trkpt lat="48.02443" lon="-4.39585">
        <ele>78</ele>
        <time>2022-04-06T14:11:47.626Z</time>
      </trkpt>
      <trkpt lat="48.02444" lon="-4.39584">
        <ele>78</ele>
        <time>2022-04-06T14:11:47.733Z</time>
      </trkpt>
      <trkpt lat="48.02475" lon="-4.39588">
        <ele>76.8</ele>
        <time>2022-04-06T14:11:51.228Z</time>
      </trkpt>
      <trkpt lat="48.02483" lon="-4.3959">
        <ele>76.5</ele>
        <time>2022-04-06T14:11:52.092Z</time>
      </trkpt>
      <trkpt lat="48.02495" lon="-4.39589">
        <ele>76.1</ele>
        <time>2022-04-06T14:11:53.426Z</time>
      </trkpt>
      <trkpt lat="48.025" lon="-4.39607">
        <ele>75.7</ele>
        <time>2022-04-06T14:11:54.876Z</time>
      </trkpt>
      <trkpt lat="48.02524" lon="-4.39597">
        <ele>73.6</ele>
        <time>2022-04-06T14:11:57.638Z</time>
      </trkpt>
      <trkpt lat="48.02569" lon="-4.3958">
        <ele>69.6</ele>
        <time>2022-04-06T14:12:02.818Z</time>
      </trkpt>
      <trkpt lat="48.02595" lon="-4.39568">
        <ele>66.8</ele>
        <time>2022-04-06T14:12:05.866Z</time>
      </trkpt>
      <trkpt lat="48.02615" lon="-4.39564">
        <ele>63.3</ele>
        <time>2022-04-06T14:12:08.205Z</time>
      </trkpt>
      <trkpt lat="48.02636" lon="-4.39568">
        <ele>59.5</ele>
        <time>2022-04-06T14:12:10.592Z</time>
      </trkpt>
      <trkpt lat="48.02649" lon="-4.3957">
        <ele>57.2</ele>
        <time>2022-04-06T14:12:12.053Z</time>
      </trkpt>
      <trkpt lat="48.02661" lon="-4.39569">
        <ele>55.2</ele>
        <time>2022-04-06T14:12:13.360Z</time>
      </trkpt>
      <trkpt lat="48.02671" lon="-4.3956">
        <ele>54</ele>
        <time>2022-04-06T14:12:14.622Z</time>
      </trkpt>
      <trkpt lat="48.02681" lon="-4.39549">
        <ele>53.3</ele>
        <time>2022-04-06T14:12:15.994Z</time>
      </trkpt>
      <trkpt lat="48.0269" lon="-4.39531">
        <ele>52.5</ele>
        <time>2022-04-06T14:12:17.712Z</time>
      </trkpt>
      <trkpt lat="48.02699" lon="-4.39502">
        <ele>51.5</ele>
        <time>2022-04-06T14:12:20.086Z</time>
      </trkpt>
      <trkpt lat="48.02732" lon="-4.39401">
        <ele>45.4</ele>
        <time>2022-04-06T14:12:28.415Z</time>
      </trkpt>
      <trkpt lat="48.02757" lon="-4.39365">
        <ele>42.2</ele>
        <time>2022-04-06T14:12:32.290Z</time>
      </trkpt>
      <trkpt lat="48.02773" lon="-4.39338">
        <ele>41.6</ele>
        <time>2022-04-06T14:12:35.020Z</time>
      </trkpt>
      <trkpt lat="48.02789" lon="-4.39315">
        <ele>40.2</ele>
        <time>2022-04-06T14:12:37.506Z</time>
      </trkpt>
      <trkpt lat="48.02802" lon="-4.39291">
        <ele>38.1</ele>
        <time>2022-04-06T14:12:39.779Z</time>
      </trkpt>
      <trkpt lat="48.02812" lon="-4.39299">
        <ele>38.5</ele>
        <time>2022-04-06T14:12:41.076Z</time>
      </trkpt>
      <trkpt lat="48.02822" lon="-4.39299">
        <ele>38.3</ele>
        <time>2022-04-06T14:12:42.172Z</time>
      </trkpt>
      <trkpt lat="48.02829" lon="-4.39299">
        <ele>38.1</ele>
        <time>2022-04-06T14:12:42.937Z</time>
      </trkpt>
      <trkpt lat="48.02835" lon="-4.39293">
        <ele>37.2</ele>
        <time>2022-04-06T14:12:43.762Z</time>
      </trkpt>
      <trkpt lat="48.02845" lon="-4.3928">
        <ele>36.2</ele>
        <time>2022-04-06T14:12:45.229Z</time>
      </trkpt>
      <trkpt lat="48.02855" lon="-4.39266">
        <ele>34.3</ele>
        <time>2022-04-06T14:12:46.784Z</time>
      </trkpt>
      <trkpt lat="48.02868" lon="-4.39245">
        <ele>31.8</ele>
        <time>2022-04-06T14:12:48.918Z</time>
      </trkpt>
      <trkpt lat="48.0288" lon="-4.39229">
        <ele>31.1</ele>
        <time>2022-04-06T14:12:50.692Z</time>
      </trkpt>
      <trkpt lat="48.02886" lon="-4.39218">
        <ele>30.6</ele>
        <time>2022-04-06T14:12:51.816Z</time>
      </trkpt>
      <trkpt lat="48.02892" lon="-4.39212">
        <ele>30.3</ele>
        <time>2022-04-06T14:12:52.601Z</time>
      </trkpt>
      <trkpt lat="48.02896" lon="-4.39211">
        <ele>30.2</ele>
        <time>2022-04-06T14:12:53.032Z</time>
      </trkpt>
      <trkpt lat="48.02901" lon="-4.39213">
        <ele>30.3</ele>
        <time>2022-04-06T14:12:53.585Z</time>
      </trkpt>
      <trkpt lat="48.02908" lon="-4.3922">
        <ele>30.6</ele>
        <time>2022-04-06T14:12:54.550Z</time>
      </trkpt>
      <trkpt lat="48.02919" lon="-4.39233">
        <ele>31.1</ele>
        <time>2022-04-06T14:12:56.090Z</time>
      </trkpt>
      <trkpt lat="48.02943" lon="-4.39256">
        <ele>31.6</ele>
        <time>2022-04-06T14:12:59.314Z</time>
      </trkpt>
      <trkpt lat="48.03391" lon="-4.39536">
        <ele>24.8</ele>
        <time>2022-04-06T14:13:53.251Z</time>
      </trkpt>
      <trkpt lat="48.03435" lon="-4.39639">
        <ele>25.7</ele>
        <time>2022-04-06T14:14:02.339Z</time>
      </trkpt>
      <trkpt lat="48.03449" lon="-4.39653">
        <ele>25.5</ele>
        <time>2022-04-06T14:14:04.222Z</time>
      </trkpt>
      <trkpt lat="48.03426" lon="-4.39689">
        <ele>28.7</ele>
        <time>2022-04-06T14:14:07.980Z</time>
      </trkpt>
      <trkpt lat="48.03343" lon="-4.39746">
        <ele>39.9</ele>
        <time>2022-04-06T14:14:18.207Z</time>
      </trkpt>
      <trkpt lat="48.03265" lon="-4.39815">
        <ele>43.3</ele>
        <time>2022-04-06T14:14:28.292Z</time>
      </trkpt>
      <trkpt lat="48.03229" lon="-4.39851">
        <ele>45.4</ele>
        <time>2022-04-06T14:14:33.147Z</time>
      </trkpt>
      <trkpt lat="48.03188" lon="-4.39889">
        <ele>49.7</ele>
        <time>2022-04-06T14:14:38.464Z</time>
      </trkpt>
      <trkpt lat="48.03155" lon="-4.39926">
        <ele>52.6</ele>
        <time>2022-04-06T14:14:43.091Z</time>
      </trkpt>
      <trkpt lat="48.03134" lon="-4.39961">
        <ele>53.8</ele>
        <time>2022-04-06T14:14:46.529Z</time>
      </trkpt>
      <trkpt lat="48.03126" lon="-4.39986">
        <ele>54.3</ele>
        <time>2022-04-06T14:14:48.606Z</time>
      </trkpt>
      <trkpt lat="48.03125" lon="-4.39992">
        <ele>54.4</ele>
        <time>2022-04-06T14:14:49.102Z</time>
      </trkpt>
      <trkpt lat="48.0312" lon="-4.40032">
        <ele>55.7</ele>
        <time>2022-04-06T14:14:52.112Z</time>
      </trkpt>
      <trkpt lat="48.03119" lon="-4.40087">
        <ele>57.8</ele>
        <time>2022-04-06T14:14:56.245Z</time>
      </trkpt>
      <trkpt lat="48.03118" lon="-4.40125">
        <ele>59.8</ele>
        <time>2022-04-06T14:14:59.027Z</time>
      </trkpt>
      <trkpt lat="48.03118" lon="-4.40167">
        <ele>62</ele>
        <time>2022-04-06T14:15:02.197Z</time>
      </trkpt>
      <trkpt lat="48.03109" lon="-4.40338">
        <ele>65.8</ele>
        <time>2022-04-06T14:15:14.949Z</time>
      </trkpt>
      <trkpt lat="48.03095" lon="-4.40516">
        <ele>67</ele>
        <time>2022-04-06T14:15:28.304Z</time>
      </trkpt>
      <trkpt lat="48.03146" lon="-4.40538">
        <ele>62</ele>
        <time>2022-04-06T14:15:34.270Z</time>
      </trkpt>
      <trkpt lat="48.03174" lon="-4.4055">
        <ele>58.9</ele>
        <time>2022-04-06T14:15:37.504Z</time>
      </trkpt>
      <trkpt lat="48.03191" lon="-4.40561">
        <ele>57.2</ele>
        <time>2022-04-06T14:15:39.527Z</time>
      </trkpt>
      <trkpt lat="48.03227" lon="-4.4059">
        <ele>53.9</ele>
        <time>2022-04-06T14:15:44.139Z</time>
      </trkpt>
      <trkpt lat="48.03243" lon="-4.40602">
        <ele>52.8</ele>
        <time>2022-04-06T14:15:46.171Z</time>
      </trkpt>
      <trkpt lat="48.03261" lon="-4.40612">
        <ele>52</ele>
        <time>2022-04-06T14:15:48.262Z</time>
      </trkpt>
      <trkpt lat="48.03288" lon="-4.40618">
        <ele>51.2</ele>
        <time>2022-04-06T14:15:51.352Z</time>
      </trkpt>
      <trkpt lat="48.03311" lon="-4.40624">
        <ele>50.6</ele>
        <time>2022-04-06T14:15:53.862Z</time>
      </trkpt>
      <trkpt lat="48.03383" lon="-4.40624">
        <ele>47</ele>
        <time>2022-04-06T14:16:01.914Z</time>
      </trkpt>
      <trkpt lat="48.03415" lon="-4.40467">
        <ele>39.8</ele>
        <time>2022-04-06T14:16:14.191Z</time>
      </trkpt>
      <trkpt lat="48.03431" lon="-4.40459">
        <ele>37.7</ele>
        <time>2022-04-06T14:16:16.101Z</time>
      </trkpt>
      <trkpt lat="48.03466" lon="-4.40478">
        <ele>33.4</ele>
        <time>2022-04-06T14:16:20.229Z</time>
      </trkpt>
      <trkpt lat="48.03477" lon="-4.40477">
        <ele>32</ele>
        <time>2022-04-06T14:16:21.479Z</time>
      </trkpt>
      <trkpt lat="48.03531" lon="-4.4044">
        <ele>25</ele>
        <time>2022-04-06T14:16:28.058Z</time>
      </trkpt>
      <trkpt lat="48.03543" lon="-4.40421">
        <ele>23.4</ele>
        <time>2022-04-06T14:16:30.023Z</time>
      </trkpt>
      <trkpt lat="48.03583" lon="-4.40195">
        <ele>22</ele>
        <time>2022-04-06T14:16:47.394Z</time>
      </trkpt>
      <trkpt lat="48.03622" lon="-4.40188">
        <ele>24.7</ele>
        <time>2022-04-06T14:16:51.772Z</time>
      </trkpt>
      <trkpt lat="48.03637" lon="-4.40174">
        <ele>25.8</ele>
        <time>2022-04-06T14:16:53.744Z</time>
      </trkpt>
      <trkpt lat="48.0366" lon="-4.40158">
        <ele>27.5</ele>
        <time>2022-04-06T14:16:56.529Z</time>
      </trkpt>
      <trkpt lat="48.03682" lon="-4.40135">
        <ele>31.8</ele>
        <time>2022-04-06T14:16:59.501Z</time>
      </trkpt>
      <trkpt lat="48.03699" lon="-4.40127">
        <ele>36.2</ele>
        <time>2022-04-06T14:17:01.607Z</time>
      </trkpt>
      <trkpt lat="48.03743" lon="-4.40143">
        <ele>47.4</ele>
        <time>2022-04-06T14:17:06.810Z</time>
      </trkpt>
      <trkpt lat="48.03805" lon="-4.39917">
        <ele>57</ele>
        <time>2022-04-06T14:17:25.020Z</time>
      </trkpt>
      <trkpt lat="48.03818" lon="-4.39653">
        <ele>61.2</ele>
        <time>2022-04-06T14:17:44.661Z</time>
      </trkpt>
      <trkpt lat="48.03927" lon="-4.39649">
        <ele>62</ele>
        <time>2022-04-06T14:17:56.776Z</time>
      </trkpt>
      <trkpt lat="48.03955" lon="-4.39649">
        <ele>62.2</ele>
        <time>2022-04-06T14:17:59.929Z</time>
      </trkpt>
      <trkpt lat="48.03964" lon="-4.39757">
        <ele>65</ele>
        <time>2022-04-06T14:18:08.027Z</time>
      </trkpt>
      <trkpt lat="48.03987" lon="-4.39978">
        <ele>62.1</ele>
        <time>2022-04-06T14:18:24.630Z</time>
      </trkpt>
      <trkpt lat="48.03985" lon="-4.40161">
        <ele>56.2</ele>
        <time>2022-04-06T14:18:38.284Z</time>
      </trkpt>
      <trkpt lat="48.03982" lon="-4.40325">
        <ele>52</ele>
        <time>2022-04-06T14:18:50.474Z</time>
      </trkpt>
      <trkpt lat="48.03983" lon="-4.40403">
        <ele>51.8</ele>
        <time>2022-04-06T14:18:56.277Z</time>
      </trkpt>
      <trkpt lat="48.03982" lon="-4.40478">
        <ele>54.9</ele>
        <time>2022-04-06T14:19:01.851Z</time>
      </trkpt>
      <trkpt lat="48.03988" lon="-4.40609">
        <ele>55.8</ele>
        <time>2022-04-06T14:19:11.599Z</time>
      </trkpt>
      <trkpt lat="48.03988" lon="-4.4062">
        <ele>55.8</ele>
        <time>2022-04-06T14:19:12.457Z</time>
      </trkpt>
      <trkpt lat="48.03989" lon="-4.40631">
        <ele>55.8</ele>
        <time>2022-04-06T14:19:13.264Z</time>
      </trkpt>
      <trkpt lat="48.04011" lon="-4.40887">
        <ele>55.5</ele>
        <time>2022-04-06T14:19:32.497Z</time>
      </trkpt>
      <trkpt lat="48.04026" lon="-4.41057">
        <ele>52.5</ele>
        <time>2022-04-06T14:19:45.200Z</time>
      </trkpt>
      <trkpt lat="48.04053" lon="-4.41198">
        <ele>48.5</ele>
        <time>2022-04-06T14:19:56.098Z</time>
      </trkpt>
      <trkpt lat="48.04093" lon="-4.41389">
        <ele>42.6</ele>
        <time>2022-04-06T14:20:10.976Z</time>
      </trkpt>
      <trkpt lat="48.04112" lon="-4.41442">
        <ele>38.3</ele>
        <time>2022-04-06T14:20:15.522Z</time>
      </trkpt>
      <trkpt lat="48.04124" lon="-4.41477">
        <ele>35.7</ele>
        <time>2022-04-06T14:20:18.495Z</time>
      </trkpt>
      <trkpt lat="48.0414" lon="-4.4188">
        <ele>32.6</ele>
        <time>2022-04-06T14:20:48.507Z</time>
      </trkpt>
      <trkpt lat="48.04155" lon="-4.42189">
        <ele>20.5</ele>
        <time>2022-04-06T14:21:11.562Z</time>
      </trkpt>
      <trkpt lat="48.04131" lon="-4.42189">
        <ele>21.1</ele>
        <time>2022-04-06T14:21:14.244Z</time>
      </trkpt>
      <trkpt lat="48.04055" lon="-4.42112">
        <ele>23.7</ele>
        <time>2022-04-06T14:21:24.491Z</time>
      </trkpt>
      <trkpt lat="48.03997" lon="-4.41917">
        <ele>25.7</ele>
        <time>2022-04-06T14:21:40.345Z</time>
      </trkpt>
      <trkpt lat="48.03954" lon="-4.41869">
        <ele>23.2</ele>
        <time>2022-04-06T14:21:46.276Z</time>
      </trkpt>
      <trkpt lat="48.03933" lon="-4.4187">
        <ele>20.6</ele>
        <time>2022-04-06T14:21:48.693Z</time>
      </trkpt>
      <trkpt lat="48.03927" lon="-4.41869">
        <ele>19.9</ele>
        <time>2022-04-06T14:21:49.347Z</time>
      </trkpt>
      <trkpt lat="48.03864" lon="-4.41871">
        <ele>17.7</ele>
        <time>2022-04-06T14:21:56.294Z</time>
      </trkpt>
      <trkpt lat="48.03847" lon="-4.41871">
        <ele>17.4</ele>
        <time>2022-04-06T14:21:58.203Z</time>
      </trkpt>
      <trkpt lat="48.03768" lon="-4.41872">
        <ele>18.6</ele>
        <time>2022-04-06T14:22:07.028Z</time>
      </trkpt>
      <trkpt lat="48.0373" lon="-4.41911">
        <ele>20.4</ele>
        <time>2022-04-06T14:22:12.147Z</time>
      </trkpt>
      <trkpt lat="48.03686" lon="-4.41957">
        <ele>22.9</ele>
        <time>2022-04-06T14:22:18.112Z</time>
      </trkpt>
      <trkpt lat="48.0365" lon="-4.42007">
        <ele>24.3</ele>
        <time>2022-04-06T14:22:23.561Z</time>
      </trkpt>
      <trkpt lat="48.03566" lon="-4.42357">
        <ele>33.3</ele>
        <time>2022-04-06T14:22:51.242Z</time>
      </trkpt>
      <trkpt lat="48.03538" lon="-4.4241">
        <ele>35.1</ele>
        <time>2022-04-06T14:22:56.264Z</time>
      </trkpt>
      <trkpt lat="48.03511" lon="-4.42425">
        <ele>36.5</ele>
        <time>2022-04-06T14:22:59.457Z</time>
      </trkpt>
      <trkpt lat="48.03391" lon="-4.42425">
        <ele>44.6</ele>
        <time>2022-04-06T14:23:12.864Z</time>
      </trkpt>
      <trkpt lat="48.03388" lon="-4.42445">
        <ele>44.8</ele>
        <time>2022-04-06T14:23:14.393Z</time>
      </trkpt>
      <trkpt lat="48.0338" lon="-4.42612">
        <ele>41.4</ele>
        <time>2022-04-06T14:23:26.855Z</time>
      </trkpt>
      <trkpt lat="48.03381" lon="-4.42636">
        <ele>40.7</ele>
        <time>2022-04-06T14:23:28.648Z</time>
      </trkpt>
      <trkpt lat="48.03388" lon="-4.42659">
        <ele>39.9</ele>
        <time>2022-04-06T14:23:30.508Z</time>
      </trkpt>
      <trkpt lat="48.03402" lon="-4.42688">
        <ele>38.9</ele>
        <time>2022-04-06T14:23:33.165Z</time>
      </trkpt>
      <trkpt lat="48.03446" lon="-4.42764">
        <ele>33.7</ele>
        <time>2022-04-06T14:23:40.666Z</time>
      </trkpt>
      <trkpt lat="48.03478" lon="-4.42815">
        <ele>30.3</ele>
        <time>2022-04-06T14:23:45.848Z</time>
      </trkpt>
      <trkpt lat="48.03485" lon="-4.4283">
        <ele>29.7</ele>
        <time>2022-04-06T14:23:47.262Z</time>
      </trkpt>
      <trkpt lat="48.03489" lon="-4.42839">
        <ele>29.3</ele>
        <time>2022-04-06T14:23:48.084Z</time>
      </trkpt>
      <trkpt lat="48.035" lon="-4.42865">
        <ele>27.8</ele>
        <time>2022-04-06T14:23:50.342Z</time>
      </trkpt>
      <trkpt lat="48.0351" lon="-4.42895">
        <ele>26.5</ele>
        <time>2022-04-06T14:23:52.817Z</time>
      </trkpt>
      <trkpt lat="48.03518" lon="-4.42924">
        <ele>25.7</ele>
        <time>2022-04-06T14:23:55.173Z</time>
      </trkpt>
      <trkpt lat="48.03521" lon="-4.42938">
        <ele>25.6</ele>
        <time>2022-04-06T14:23:56.266Z</time>
      </trkpt>
      <trkpt lat="48.03524" lon="-4.42953">
        <ele>25.5</ele>
        <time>2022-04-06T14:23:57.390Z</time>
      </trkpt>
      <trkpt lat="48.03526" lon="-4.42983">
        <ele>25.2</ele>
        <time>2022-04-06T14:23:59.667Z</time>
      </trkpt>
      <trkpt lat="48.03527" lon="-4.43013">
        <ele>25.3</ele>
        <time>2022-04-06T14:24:01.886Z</time>
      </trkpt>
      <trkpt lat="48.03527" lon="-4.43021">
        <ele>25.5</ele>
        <time>2022-04-06T14:24:02.494Z</time>
      </trkpt>
      <trkpt lat="48.03528" lon="-4.4304">
        <ele>26</ele>
        <time>2022-04-06T14:24:03.929Z</time>
      </trkpt>
      <trkpt lat="48.03528" lon="-4.43062">
        <ele>26.5</ele>
        <time>2022-04-06T14:24:05.515Z</time>
      </trkpt>
      <trkpt lat="48.03495" lon="-4.43064">
        <ele>29.4</ele>
        <time>2022-04-06T14:24:09.195Z</time>
      </trkpt>
      <trkpt lat="48.03474" lon="-4.43065">
        <ele>30.8</ele>
        <time>2022-04-06T14:24:11.536Z</time>
      </trkpt>
      <trkpt lat="48.03441" lon="-4.43088">
        <ele>33.7</ele>
        <time>2022-04-06T14:24:15.567Z</time>
      </trkpt>
      <trkpt lat="48.03416" lon="-4.43108">
        <ele>35.6</ele>
        <time>2022-04-06T14:24:18.750Z</time>
      </trkpt>
      <trkpt lat="48.03399" lon="-4.43119">
        <ele>36.5</ele>
        <time>2022-04-06T14:24:20.816Z</time>
      </trkpt>
      <trkpt lat="48.03377" lon="-4.43129">
        <ele>37.6</ele>
        <time>2022-04-06T14:24:23.314Z</time>
      </trkpt>
      <trkpt lat="48.03366" lon="-4.43134">
        <ele>38.2</ele>
        <time>2022-04-06T14:24:24.616Z</time>
      </trkpt>
      <trkpt lat="48.03346" lon="-4.43154">
        <ele>39.8</ele>
        <time>2022-04-06T14:24:27.266Z</time>
      </trkpt>
      <trkpt lat="48.03329" lon="-4.43165">
        <ele>41</ele>
        <time>2022-04-06T14:24:29.409Z</time>
      </trkpt>
      <trkpt lat="48.03313" lon="-4.43172">
        <ele>41.9</ele>
        <time>2022-04-06T14:24:31.193Z</time>
      </trkpt>
      <trkpt lat="48.03294" lon="-4.43193">
        <ele>44</ele>
        <time>2022-04-06T14:24:33.856Z</time>
      </trkpt>
      <trkpt lat="48.03278" lon="-4.43221">
        <ele>46.7</ele>
        <time>2022-04-06T14:24:36.571Z</time>
      </trkpt>
      <trkpt lat="48.03272" lon="-4.43229">
        <ele>47.5</ele>
        <time>2022-04-06T14:24:37.478Z</time>
      </trkpt>
      <trkpt lat="48.03258" lon="-4.43248">
        <ele>49.6</ele>
        <time>2022-04-06T14:24:39.617Z</time>
      </trkpt>
      <trkpt lat="48.0324" lon="-4.4327">
        <ele>50.2</ele>
        <time>2022-04-06T14:24:42.183Z</time>
      </trkpt>
      <trkpt lat="48.0323" lon="-4.43289">
        <ele>50.7</ele>
        <time>2022-04-06T14:24:43.957Z</time>
      </trkpt>
      <trkpt lat="48.03218" lon="-4.433">
        <ele>50.9</ele>
        <time>2022-04-06T14:24:45.608Z</time>
      </trkpt>
      <trkpt lat="48.03203" lon="-4.4331">
        <ele>51.2</ele>
        <time>2022-04-06T14:24:47.346Z</time>
      </trkpt>
      <trkpt lat="48.03188" lon="-4.43322">
        <ele>52.1</ele>
        <time>2022-04-06T14:24:49.292Z</time>
      </trkpt>
      <trkpt lat="48.0316" lon="-4.43327">
        <ele>52.3</ele>
        <time>2022-04-06T14:24:52.363Z</time>
      </trkpt>
      <trkpt lat="48.03138" lon="-4.43337">
        <ele>53.2</ele>
        <time>2022-04-06T14:24:54.967Z</time>
      </trkpt>
      <trkpt lat="48.03127" lon="-4.43341">
        <ele>53.5</ele>
        <time>2022-04-06T14:24:56.186Z</time>
      </trkpt>
      <trkpt lat="48.03086" lon="-4.4335">
        <ele>54.4</ele>
        <time>2022-04-06T14:25:00.817Z</time>
      </trkpt>
      <trkpt lat="48.03073" lon="-4.43361">
        <ele>55.3</ele>
        <time>2022-04-06T14:25:02.473Z</time>
      </trkpt>
      <trkpt lat="48.03055" lon="-4.43378">
        <ele>56.7</ele>
        <time>2022-04-06T14:25:04.923Z</time>
      </trkpt>
      <trkpt lat="48.03046" lon="-4.43385">
        <ele>57.2</ele>
        <time>2022-04-06T14:25:06.007Z</time>
      </trkpt>
      <trkpt lat="48.03043" lon="-4.43386">
        <ele>57.3</ele>
        <time>2022-04-06T14:25:06.360Z</time>
      </trkpt>
      <trkpt lat="48.03041" lon="-4.43387">
        <ele>57.3</ele>
        <time>2022-04-06T14:25:06.555Z</time>
      </trkpt>
      <trkpt lat="48.03024" lon="-4.43379">
        <ele>56.5</ele>
        <time>2022-04-06T14:25:08.604Z</time>
      </trkpt>
      <trkpt lat="48.03014" lon="-4.43381">
        <ele>56.7</ele>
        <time>2022-04-06T14:25:09.668Z</time>
      </trkpt>
      <trkpt lat="48.02989" lon="-4.43368">
        <ele>55.9</ele>
        <time>2022-04-06T14:25:12.654Z</time>
      </trkpt>
      <trkpt lat="48.02974" lon="-4.43357">
        <ele>55.6</ele>
        <time>2022-04-06T14:25:14.499Z</time>
      </trkpt>
      <trkpt lat="48.02958" lon="-4.43353">
        <ele>56.1</ele>
        <time>2022-04-06T14:25:16.243Z</time>
      </trkpt>
      <trkpt lat="48.02952" lon="-4.43352">
        <ele>56.5</ele>
        <time>2022-04-06T14:25:17.007Z</time>
      </trkpt>
      <trkpt lat="48.0295" lon="-4.43372">
        <ele>58.2</ele>
        <time>2022-04-06T14:25:18.500Z</time>
      </trkpt>
      <trkpt lat="48.02928" lon="-4.43361">
        <ele>58.4</ele>
        <time>2022-04-06T14:25:21.085Z</time>
      </trkpt>
      <trkpt lat="48.02913" lon="-4.43352">
        <ele>58.7</ele>
        <time>2022-04-06T14:25:22.906Z</time>
      </trkpt>
      <trkpt lat="48.02893" lon="-4.43341">
        <ele>59.2</ele>
        <time>2022-04-06T14:25:25.232Z</time>
      </trkpt>
      <trkpt lat="48.02886" lon="-4.43337">
        <ele>59.4</ele>
        <time>2022-04-06T14:25:26.028Z</time>
      </trkpt>
      <trkpt lat="48.02883" lon="-4.43336">
        <ele>59.6</ele>
        <time>2022-04-06T14:25:26.419Z</time>
      </trkpt>
      <trkpt lat="48.0288" lon="-4.43335">
        <ele>59.8</ele>
        <time>2022-04-06T14:25:26.756Z</time>
      </trkpt>
      <trkpt lat="48.02874" lon="-4.43337">
        <ele>60.3</ele>
        <time>2022-04-06T14:25:27.385Z</time>
      </trkpt>
      <trkpt lat="48.02866" lon="-4.43339">
        <ele>61.1</ele>
        <time>2022-04-06T14:25:28.358Z</time>
      </trkpt>
      <trkpt lat="48.02857" lon="-4.43342">
        <ele>61.9</ele>
        <time>2022-04-06T14:25:29.420Z</time>
      </trkpt>
      <trkpt lat="48.02859" lon="-4.43359">
        <ele>62.8</ele>
        <time>2022-04-06T14:25:30.723Z</time>
      </trkpt>
      <trkpt lat="48.02862" lon="-4.43375">
        <ele>63.6</ele>
        <time>2022-04-06T14:25:31.945Z</time>
      </trkpt>
      <trkpt lat="48.02868" lon="-4.43404">
        <ele>65.1</ele>
        <time>2022-04-06T14:25:34.278Z</time>
      </trkpt>
      <trkpt lat="48.02902" lon="-4.43525">
        <ele>68.5</ele>
        <time>2022-04-06T14:25:44.029Z</time>
      </trkpt>
      <trkpt lat="48.02906" lon="-4.43547">
        <ele>68.7</ele>
        <time>2022-04-06T14:25:45.708Z</time>
      </trkpt>
      <trkpt lat="48.02907" lon="-4.43549">
        <ele>68.8</ele>
        <time>2022-04-06T14:25:45.862Z</time>
      </trkpt>
      <trkpt lat="48.02908" lon="-4.43551">
        <ele>68.7</ele>
        <time>2022-04-06T14:25:46.061Z</time>
      </trkpt>
      <trkpt lat="48.02908" lon="-4.43554">
        <ele>68.8</ele>
        <time>2022-04-06T14:25:46.271Z</time>
      </trkpt>
      <trkpt lat="48.02913" lon="-4.43567">
        <ele>68.8</ele>
        <time>2022-04-06T14:25:47.445Z</time>
      </trkpt>
      <trkpt lat="48.02917" lon="-4.43572">
        <ele>68.7</ele>
        <time>2022-04-06T14:25:48.006Z</time>
      </trkpt>
      <trkpt lat="48.0292" lon="-4.43573">
        <ele>68.6</ele>
        <time>2022-04-06T14:25:48.318Z</time>
      </trkpt>
      <trkpt lat="48.02925" lon="-4.43577">
        <ele>68.4</ele>
        <time>2022-04-06T14:25:48.960Z</time>
      </trkpt>
      <trkpt lat="48.02929" lon="-4.43578">
        <ele>68.3</ele>
        <time>2022-04-06T14:25:49.384Z</time>
      </trkpt>
      <trkpt lat="48.02935" lon="-4.4358">
        <ele>68</ele>
        <time>2022-04-06T14:25:50.064Z</time>
      </trkpt>
      <trkpt lat="48.02945" lon="-4.4358">
        <ele>67.6</ele>
        <time>2022-04-06T14:25:51.165Z</time>
      </trkpt>
      <trkpt lat="48.02981" lon="-4.43584">
        <ele>65.9</ele>
        <time>2022-04-06T14:25:55.229Z</time>
      </trkpt>
      <trkpt lat="48.02997" lon="-4.43584">
        <ele>65.1</ele>
        <time>2022-04-06T14:25:56.997Z</time>
      </trkpt>
      <trkpt lat="48.03039" lon="-4.43588">
        <ele>64.9</ele>
        <time>2022-04-06T14:26:01.690Z</time>
      </trkpt>
      <trkpt lat="48.03069" lon="-4.43589">
        <ele>64.9</ele>
        <time>2022-04-06T14:26:05.018Z</time>
      </trkpt>
      <trkpt lat="48.03091" lon="-4.43589">
        <ele>64.8</ele>
        <time>2022-04-06T14:26:07.402Z</time>
      </trkpt>
      <trkpt lat="48.03103" lon="-4.43589">
        <ele>64.6</ele>
        <time>2022-04-06T14:26:08.832Z</time>
      </trkpt>
      <trkpt lat="48.03117" lon="-4.43588">
        <ele>64.5</ele>
        <time>2022-04-06T14:26:10.361Z</time>
      </trkpt>
      <trkpt lat="48.03127" lon="-4.43587">
        <ele>64.4</ele>
        <time>2022-04-06T14:26:11.506Z</time>
      </trkpt>
      <trkpt lat="48.03138" lon="-4.43586">
        <ele>64.3</ele>
        <time>2022-04-06T14:26:12.701Z</time>
      </trkpt>
      <trkpt lat="48.03184" lon="-4.43577">
        <ele>63.1</ele>
        <time>2022-04-06T14:26:17.805Z</time>
      </trkpt>
      <trkpt lat="48.032" lon="-4.43575">
        <ele>62.6</ele>
        <time>2022-04-06T14:26:19.622Z</time>
      </trkpt>
      <trkpt lat="48.03211" lon="-4.43576">
        <ele>62.2</ele>
        <time>2022-04-06T14:26:20.816Z</time>
      </trkpt>
      <trkpt lat="48.03224" lon="-4.43577">
        <ele>61.9</ele>
        <time>2022-04-06T14:26:22.252Z</time>
      </trkpt>
      <trkpt lat="48.03248" lon="-4.43581">
        <ele>61.1</ele>
        <time>2022-04-06T14:26:24.937Z</time>
      </trkpt>
      <trkpt lat="48.03269" lon="-4.43585">
        <ele>59.8</ele>
        <time>2022-04-06T14:26:27.302Z</time>
      </trkpt>
      <trkpt lat="48.03278" lon="-4.43587">
        <ele>59.3</ele>
        <time>2022-04-06T14:26:28.308Z</time>
      </trkpt>
      <trkpt lat="48.03286" lon="-4.43587">
        <ele>58.8</ele>
        <time>2022-04-06T14:26:29.215Z</time>
      </trkpt>
      <trkpt lat="48.03313" lon="-4.43585">
        <ele>57.2</ele>
        <time>2022-04-06T14:26:32.268Z</time>
      </trkpt>
      <trkpt lat="48.03348" lon="-4.43583">
        <ele>55.1</ele>
        <time>2022-04-06T14:26:36.182Z</time>
      </trkpt>
      <trkpt lat="48.03355" lon="-4.43582">
        <ele>54.7</ele>
        <time>2022-04-06T14:26:36.912Z</time>
      </trkpt>
      <trkpt lat="48.03359" lon="-4.43582">
        <ele>54.4</ele>
        <time>2022-04-06T14:26:37.342Z</time>
      </trkpt>
      <trkpt lat="48.03368" lon="-4.43583">
        <ele>53.9</ele>
        <time>2022-04-06T14:26:38.345Z</time>
      </trkpt>
      <trkpt lat="48.03383" lon="-4.43585">
        <ele>53</ele>
        <time>2022-04-06T14:26:40.018Z</time>
      </trkpt>
      <trkpt lat="48.03414" lon="-4.4359">
        <ele>51</ele>
        <time>2022-04-06T14:26:43.526Z</time>
      </trkpt>
      <trkpt lat="48.03425" lon="-4.43592">
        <ele>50.2</ele>
        <time>2022-04-06T14:26:44.784Z</time>
      </trkpt>
      <trkpt lat="48.03442" lon="-4.43596">
        <ele>48.9</ele>
        <time>2022-04-06T14:26:46.740Z</time>
      </trkpt>
      <trkpt lat="48.03453" lon="-4.43598">
        <ele>48.1</ele>
        <time>2022-04-06T14:26:47.921Z</time>
      </trkpt>
      <trkpt lat="48.03477" lon="-4.43602">
        <ele>46.3</ele>
        <time>2022-04-06T14:26:50.667Z</time>
      </trkpt>
      <trkpt lat="48.03487" lon="-4.43604">
        <ele>45.6</ele>
        <time>2022-04-06T14:26:51.751Z</time>
      </trkpt>
    </trkseg>
  </trk>
</gpx>